<?xml version="1.0" encoding="UTF-8" standalone="no" ?>
<gpx xmlns="http://www.topografix.com/GPX/1/1" xmlns:xsi="http://www.w3.org/2001/XMLSchema-instance" xsi:schemaLocation="http://www.topografix.com/GPX/1/1 http://www.topografix.com/GPX/1/1/gpx.xsd" version="1.1" creator="VisuGPX - https://www.visugpx.com">
  <metadata>
    <name>Gallician Berges du Vistre (France)</name>
  </metadata>
  <trk>
    <name><![CDATA[2022-03-06 11:36:06 Walk]]></name>
    <trkseg>
      <trkpt lat="43.63943" lon="4.29806">
        <ele>54.3</ele>
        <time>2022-03-06T10:36:14.000Z</time>
      </trkpt>
      <trkpt lat="43.63933" lon="4.29813">
        <ele>55.88</ele>
        <time>2022-03-06T10:36:25.000Z</time>
      </trkpt>
      <trkpt lat="43.63925" lon="4.29817">
        <ele>54.1</ele>
        <time>2022-03-06T10:36:29.000Z</time>
      </trkpt>
      <trkpt lat="43.63916" lon="4.29813">
        <ele>54</ele>
        <time>2022-03-06T10:36:39.000Z</time>
      </trkpt>
      <trkpt lat="43.63907" lon="4.29815">
        <ele>53.7</ele>
        <time>2022-03-06T10:36:49.000Z</time>
      </trkpt>
      <trkpt lat="43.63897" lon="4.29818">
        <ele>53.7</ele>
        <time>2022-03-06T10:36:58.000Z</time>
      </trkpt>
      <trkpt lat="43.63889" lon="4.29821">
        <ele>53.7</ele>
        <time>2022-03-06T10:37:09.000Z</time>
      </trkpt>
      <trkpt lat="43.63879" lon="4.29819">
        <ele>54.3</ele>
        <time>2022-03-06T10:37:20.000Z</time>
      </trkpt>
      <trkpt lat="43.6387" lon="4.29816">
        <ele>54.3</ele>
        <time>2022-03-06T10:37:29.000Z</time>
      </trkpt>
      <trkpt lat="43.63861" lon="4.29811">
        <ele>54.3</ele>
        <time>2022-03-06T10:37:39.000Z</time>
      </trkpt>
      <trkpt lat="43.63851" lon="4.29809">
        <ele>53.9</ele>
        <time>2022-03-06T10:37:54.000Z</time>
      </trkpt>
      <trkpt lat="43.63843" lon="4.29806">
        <ele>50.588</ele>
        <time>2022-03-06T10:38:01.000Z</time>
      </trkpt>
      <trkpt lat="43.63833" lon="4.29805">
        <ele>53.9</ele>
        <time>2022-03-06T10:38:10.000Z</time>
      </trkpt>
      <trkpt lat="43.63824" lon="4.29804">
        <ele>53.9</ele>
        <time>2022-03-06T10:38:17.000Z</time>
      </trkpt>
      <trkpt lat="43.63815" lon="4.29801">
        <ele>53.9</ele>
        <time>2022-03-06T10:38:25.000Z</time>
      </trkpt>
      <trkpt lat="43.63807" lon="4.29796">
        <ele>54.3</ele>
        <time>2022-03-06T10:38:31.000Z</time>
      </trkpt>
      <trkpt lat="43.63805" lon="4.29784">
        <ele>55</ele>
        <time>2022-03-06T10:38:44.000Z</time>
      </trkpt>
      <trkpt lat="43.63801" lon="4.29772">
        <ele>54.6</ele>
        <time>2022-03-06T10:38:53.000Z</time>
      </trkpt>
      <trkpt lat="43.638" lon="4.2976">
        <ele>54.3</ele>
        <time>2022-03-06T10:39:01.000Z</time>
      </trkpt>
      <trkpt lat="43.638" lon="4.29747">
        <ele>54.3</ele>
        <time>2022-03-06T10:39:11.000Z</time>
      </trkpt>
      <trkpt lat="43.63796" lon="4.29734">
        <ele>54.6</ele>
        <time>2022-03-06T10:39:17.000Z</time>
      </trkpt>
      <trkpt lat="43.63793" lon="4.29722">
        <ele>54.6</ele>
        <time>2022-03-06T10:39:26.000Z</time>
      </trkpt>
      <trkpt lat="43.63792" lon="4.2971">
        <ele>54.3</ele>
        <time>2022-03-06T10:39:41.000Z</time>
      </trkpt>
      <trkpt lat="43.6379" lon="4.29697">
        <ele>56.511</ele>
        <time>2022-03-06T10:39:50.000Z</time>
      </trkpt>
      <trkpt lat="43.63789" lon="4.29684">
        <ele>54.3</ele>
        <time>2022-03-06T10:40:01.000Z</time>
      </trkpt>
      <trkpt lat="43.63787" lon="4.29672">
        <ele>54.3</ele>
        <time>2022-03-06T10:40:11.000Z</time>
      </trkpt>
      <trkpt lat="43.63785" lon="4.29659">
        <ele>54.3</ele>
        <time>2022-03-06T10:40:19.000Z</time>
      </trkpt>
      <trkpt lat="43.63784" lon="4.29646">
        <ele>50.384</ele>
        <time>2022-03-06T10:40:29.000Z</time>
      </trkpt>
      <trkpt lat="43.63785" lon="4.29633">
        <ele>54.3</ele>
        <time>2022-03-06T10:40:38.000Z</time>
      </trkpt>
      <trkpt lat="43.6378" lon="4.29622">
        <ele>54.2</ele>
        <time>2022-03-06T10:40:47.000Z</time>
      </trkpt>
      <trkpt lat="43.63776" lon="4.2961">
        <ele>54.2</ele>
        <time>2022-03-06T10:40:54.000Z</time>
      </trkpt>
      <trkpt lat="43.63772" lon="4.29599">
        <ele>54.2</ele>
        <time>2022-03-06T10:41:02.000Z</time>
      </trkpt>
      <trkpt lat="43.63767" lon="4.29588">
        <ele>54.2</ele>
        <time>2022-03-06T10:41:13.000Z</time>
      </trkpt>
      <trkpt lat="43.63765" lon="4.29574">
        <ele>54.2</ele>
        <time>2022-03-06T10:41:23.000Z</time>
      </trkpt>
      <trkpt lat="43.63763" lon="4.29561">
        <ele>55.96</ele>
        <time>2022-03-06T10:41:31.000Z</time>
      </trkpt>
      <trkpt lat="43.63762" lon="4.29549">
        <ele>54.2</ele>
        <time>2022-03-06T10:41:39.000Z</time>
      </trkpt>
      <trkpt lat="43.63759" lon="4.29536">
        <ele>54.2</ele>
        <time>2022-03-06T10:41:49.000Z</time>
      </trkpt>
      <trkpt lat="43.63756" lon="4.29524">
        <ele>54.2</ele>
        <time>2022-03-06T10:42:00.000Z</time>
      </trkpt>
      <trkpt lat="43.63751" lon="4.29514">
        <ele>54.2</ele>
        <time>2022-03-06T10:42:19.000Z</time>
      </trkpt>
      <trkpt lat="43.63751" lon="4.29502">
        <ele>54.2</ele>
        <time>2022-03-06T10:42:26.000Z</time>
      </trkpt>
      <trkpt lat="43.6375" lon="4.29488">
        <ele>54.2</ele>
        <time>2022-03-06T10:42:32.000Z</time>
      </trkpt>
      <trkpt lat="43.63749" lon="4.29474">
        <ele>54.2</ele>
        <time>2022-03-06T10:42:41.000Z</time>
      </trkpt>
      <trkpt lat="43.6375" lon="4.29462">
        <ele>54.2</ele>
        <time>2022-03-06T10:42:49.000Z</time>
      </trkpt>
      <trkpt lat="43.63744" lon="4.2945">
        <ele>52.787</ele>
        <time>2022-03-06T10:42:59.000Z</time>
      </trkpt>
      <trkpt lat="43.6374" lon="4.29439">
        <ele>54.958</ele>
        <time>2022-03-06T10:43:07.000Z</time>
      </trkpt>
      <trkpt lat="43.63739" lon="4.29426">
        <ele>54.055</ele>
        <time>2022-03-06T10:43:15.000Z</time>
      </trkpt>
      <trkpt lat="43.63737" lon="4.29413">
        <ele>53.597</ele>
        <time>2022-03-06T10:43:24.000Z</time>
      </trkpt>
      <trkpt lat="43.63735" lon="4.29401">
        <ele>53.737</ele>
        <time>2022-03-06T10:43:34.000Z</time>
      </trkpt>
      <trkpt lat="43.63732" lon="4.29388">
        <ele>52.008</ele>
        <time>2022-03-06T10:43:43.000Z</time>
      </trkpt>
      <trkpt lat="43.63729" lon="4.29376">
        <ele>53.353</ele>
        <time>2022-03-06T10:43:53.000Z</time>
      </trkpt>
      <trkpt lat="43.63728" lon="4.29363">
        <ele>55.767</ele>
        <time>2022-03-06T10:44:00.000Z</time>
      </trkpt>
      <trkpt lat="43.63727" lon="4.2935">
        <ele>54.451</ele>
        <time>2022-03-06T10:44:13.000Z</time>
      </trkpt>
      <trkpt lat="43.63724" lon="4.29338">
        <ele>54.758</ele>
        <time>2022-03-06T10:44:21.000Z</time>
      </trkpt>
      <trkpt lat="43.6372" lon="4.29327">
        <ele>54.509</ele>
        <time>2022-03-06T10:44:30.000Z</time>
      </trkpt>
      <trkpt lat="43.63722" lon="4.29313">
        <ele>53.659</ele>
        <time>2022-03-06T10:44:38.000Z</time>
      </trkpt>
      <trkpt lat="43.63718" lon="4.293">
        <ele>55.263</ele>
        <time>2022-03-06T10:44:48.000Z</time>
      </trkpt>
      <trkpt lat="43.63718" lon="4.29288">
        <ele>53.896</ele>
        <time>2022-03-06T10:44:54.000Z</time>
      </trkpt>
      <trkpt lat="43.63716" lon="4.29275">
        <ele>56.623</ele>
        <time>2022-03-06T10:45:05.000Z</time>
      </trkpt>
      <trkpt lat="43.63712" lon="4.29263">
        <ele>55.743</ele>
        <time>2022-03-06T10:45:13.000Z</time>
      </trkpt>
      <trkpt lat="43.63709" lon="4.29251">
        <ele>53.006</ele>
        <time>2022-03-06T10:45:21.000Z</time>
      </trkpt>
      <trkpt lat="43.63707" lon="4.29239">
        <ele>53.14</ele>
        <time>2022-03-06T10:45:32.000Z</time>
      </trkpt>
      <trkpt lat="43.63704" lon="4.29226">
        <ele>54.317</ele>
        <time>2022-03-06T10:45:41.000Z</time>
      </trkpt>
      <trkpt lat="43.63703" lon="4.29213">
        <ele>54.672</ele>
        <time>2022-03-06T10:45:49.000Z</time>
      </trkpt>
      <trkpt lat="43.63702" lon="4.29199">
        <ele>54.743</ele>
        <time>2022-03-06T10:45:58.000Z</time>
      </trkpt>
      <trkpt lat="43.63699" lon="4.29187">
        <ele>54.61</ele>
        <time>2022-03-06T10:46:08.000Z</time>
      </trkpt>
      <trkpt lat="43.63695" lon="4.29175">
        <ele>54.808</ele>
        <time>2022-03-06T10:46:19.000Z</time>
      </trkpt>
      <trkpt lat="43.63692" lon="4.29162">
        <ele>53.682</ele>
        <time>2022-03-06T10:46:26.000Z</time>
      </trkpt>
      <trkpt lat="43.63693" lon="4.29149">
        <ele>53.513</ele>
        <time>2022-03-06T10:46:34.000Z</time>
      </trkpt>
      <trkpt lat="43.6369" lon="4.29137">
        <ele>53.558</ele>
        <time>2022-03-06T10:46:45.000Z</time>
      </trkpt>
      <trkpt lat="43.63688" lon="4.29125">
        <ele>54.236</ele>
        <time>2022-03-06T10:46:54.000Z</time>
      </trkpt>
      <trkpt lat="43.63687" lon="4.29112">
        <ele>54.246</ele>
        <time>2022-03-06T10:47:03.000Z</time>
      </trkpt>
      <trkpt lat="43.63685" lon="4.29099">
        <ele>54.915</ele>
        <time>2022-03-06T10:47:10.000Z</time>
      </trkpt>
      <trkpt lat="43.63685" lon="4.29087">
        <ele>51.187</ele>
        <time>2022-03-06T10:47:16.000Z</time>
      </trkpt>
      <trkpt lat="43.63681" lon="4.29076">
        <ele>53.631</ele>
        <time>2022-03-06T10:47:28.000Z</time>
      </trkpt>
      <trkpt lat="43.63677" lon="4.29064">
        <ele>54.867</ele>
        <time>2022-03-06T10:47:37.000Z</time>
      </trkpt>
      <trkpt lat="43.63675" lon="4.29051">
        <ele>54.138</ele>
        <time>2022-03-06T10:47:50.000Z</time>
      </trkpt>
      <trkpt lat="43.63674" lon="4.29038">
        <ele>54.354</ele>
        <time>2022-03-06T10:47:57.000Z</time>
      </trkpt>
      <trkpt lat="43.63672" lon="4.29026">
        <ele>50.979</ele>
        <time>2022-03-06T10:48:03.000Z</time>
      </trkpt>
      <trkpt lat="43.63669" lon="4.29014">
        <ele>53.176</ele>
        <time>2022-03-06T10:48:11.000Z</time>
      </trkpt>
      <trkpt lat="43.63665" lon="4.29002">
        <ele>54.396</ele>
        <time>2022-03-06T10:48:20.000Z</time>
      </trkpt>
      <trkpt lat="43.63663" lon="4.2899">
        <ele>53.608</ele>
        <time>2022-03-06T10:48:29.000Z</time>
      </trkpt>
      <trkpt lat="43.63658" lon="4.28978">
        <ele>53.418</ele>
        <time>2022-03-06T10:48:40.000Z</time>
      </trkpt>
      <trkpt lat="43.63656" lon="4.28965">
        <ele>54.498</ele>
        <time>2022-03-06T10:48:47.000Z</time>
      </trkpt>
      <trkpt lat="43.63652" lon="4.28954">
        <ele>55.299</ele>
        <time>2022-03-06T10:48:56.000Z</time>
      </trkpt>
      <trkpt lat="43.63649" lon="4.2894">
        <ele>54.798</ele>
        <time>2022-03-06T10:49:05.000Z</time>
      </trkpt>
      <trkpt lat="43.63647" lon="4.28927">
        <ele>53.518</ele>
        <time>2022-03-06T10:49:22.000Z</time>
      </trkpt>
      <trkpt lat="43.6364" lon="4.28918">
        <ele>55.36</ele>
        <time>2022-03-06T10:49:30.000Z</time>
      </trkpt>
      <trkpt lat="43.63638" lon="4.28906">
        <ele>55.28</ele>
        <time>2022-03-06T10:49:39.000Z</time>
      </trkpt>
      <trkpt lat="43.63636" lon="4.28892">
        <ele>54.295</ele>
        <time>2022-03-06T10:49:48.000Z</time>
      </trkpt>
      <trkpt lat="43.63633" lon="4.28879">
        <ele>54.363</ele>
        <time>2022-03-06T10:49:55.000Z</time>
      </trkpt>
      <trkpt lat="43.63632" lon="4.28866">
        <ele>53.669</ele>
        <time>2022-03-06T10:50:02.000Z</time>
      </trkpt>
      <trkpt lat="43.63629" lon="4.28854">
        <ele>54.272</ele>
        <time>2022-03-06T10:50:10.000Z</time>
      </trkpt>
      <trkpt lat="43.63623" lon="4.28843">
        <ele>55.57</ele>
        <time>2022-03-06T10:50:20.000Z</time>
      </trkpt>
      <trkpt lat="43.63618" lon="4.28833">
        <ele>54.548</ele>
        <time>2022-03-06T10:50:29.000Z</time>
      </trkpt>
      <trkpt lat="43.63614" lon="4.28822">
        <ele>56.033</ele>
        <time>2022-03-06T10:50:38.000Z</time>
      </trkpt>
      <trkpt lat="43.63607" lon="4.28813">
        <ele>55.258</ele>
        <time>2022-03-06T10:51:37.000Z</time>
      </trkpt>
      <trkpt lat="43.63602" lon="4.28802">
        <ele>54.868</ele>
        <time>2022-03-06T10:51:46.000Z</time>
      </trkpt>
      <trkpt lat="43.63598" lon="4.2879">
        <ele>55.062</ele>
        <time>2022-03-06T10:51:53.000Z</time>
      </trkpt>
      <trkpt lat="43.63592" lon="4.28779">
        <ele>55.238</ele>
        <time>2022-03-06T10:52:01.000Z</time>
      </trkpt>
      <trkpt lat="43.63592" lon="4.28766">
        <ele>55.604</ele>
        <time>2022-03-06T10:52:08.000Z</time>
      </trkpt>
      <trkpt lat="43.63585" lon="4.28757">
        <ele>55.278</ele>
        <time>2022-03-06T10:52:17.000Z</time>
      </trkpt>
      <trkpt lat="43.63581" lon="4.28746">
        <ele>54.666</ele>
        <time>2022-03-06T10:52:25.000Z</time>
      </trkpt>
      <trkpt lat="43.63577" lon="4.28734">
        <ele>54.222</ele>
        <time>2022-03-06T10:52:33.000Z</time>
      </trkpt>
      <trkpt lat="43.63571" lon="4.28725">
        <ele>55.37</ele>
        <time>2022-03-06T10:52:42.000Z</time>
      </trkpt>
      <trkpt lat="43.63564" lon="4.28715">
        <ele>57.649</ele>
        <time>2022-03-06T10:52:52.000Z</time>
      </trkpt>
      <trkpt lat="43.63561" lon="4.28703">
        <ele>51.48</ele>
        <time>2022-03-06T10:53:00.000Z</time>
      </trkpt>
      <trkpt lat="43.63556" lon="4.28692">
        <ele>56.054</ele>
        <time>2022-03-06T10:53:09.000Z</time>
      </trkpt>
      <trkpt lat="43.63551" lon="4.28681">
        <ele>54.342</ele>
        <time>2022-03-06T10:53:17.000Z</time>
      </trkpt>
      <trkpt lat="43.63548" lon="4.28669">
        <ele>54.652</ele>
        <time>2022-03-06T10:53:24.000Z</time>
      </trkpt>
      <trkpt lat="43.63544" lon="4.28657">
        <ele>53.452</ele>
        <time>2022-03-06T10:53:34.000Z</time>
      </trkpt>
      <trkpt lat="43.63538" lon="4.28647">
        <ele>54.947</ele>
        <time>2022-03-06T10:53:41.000Z</time>
      </trkpt>
      <trkpt lat="43.63532" lon="4.28637">
        <ele>55.697</ele>
        <time>2022-03-06T10:53:49.000Z</time>
      </trkpt>
      <trkpt lat="43.63528" lon="4.28626">
        <ele>55.515</ele>
        <time>2022-03-06T10:53:57.000Z</time>
      </trkpt>
      <trkpt lat="43.63525" lon="4.28613">
        <ele>55.097</ele>
        <time>2022-03-06T10:54:05.000Z</time>
      </trkpt>
      <trkpt lat="43.63518" lon="4.28604">
        <ele>55.644</ele>
        <time>2022-03-06T10:54:13.000Z</time>
      </trkpt>
      <trkpt lat="43.63514" lon="4.28593">
        <ele>55.179</ele>
        <time>2022-03-06T10:54:23.000Z</time>
      </trkpt>
      <trkpt lat="43.63509" lon="4.28583">
        <ele>55.17</ele>
        <time>2022-03-06T10:54:32.000Z</time>
      </trkpt>
      <trkpt lat="43.63504" lon="4.28572">
        <ele>55.159</ele>
        <time>2022-03-06T10:54:43.000Z</time>
      </trkpt>
      <trkpt lat="43.63499" lon="4.28562">
        <ele>55.465</ele>
        <time>2022-03-06T10:54:51.000Z</time>
      </trkpt>
      <trkpt lat="43.63494" lon="4.28551">
        <ele>55.412</ele>
        <time>2022-03-06T10:54:59.000Z</time>
      </trkpt>
      <trkpt lat="43.63488" lon="4.28541">
        <ele>55.023</ele>
        <time>2022-03-06T10:55:07.000Z</time>
      </trkpt>
      <trkpt lat="43.63484" lon="4.28529">
        <ele>55.129</ele>
        <time>2022-03-06T10:55:17.000Z</time>
      </trkpt>
      <trkpt lat="43.6348" lon="4.28518">
        <ele>55.219</ele>
        <time>2022-03-06T10:55:26.000Z</time>
      </trkpt>
      <trkpt lat="43.63475" lon="4.28506">
        <ele>56.497</ele>
        <time>2022-03-06T10:55:37.000Z</time>
      </trkpt>
      <trkpt lat="43.6347" lon="4.28496">
        <ele>55.339</ele>
        <time>2022-03-06T10:55:47.000Z</time>
      </trkpt>
      <trkpt lat="43.63463" lon="4.28486">
        <ele>54.152</ele>
        <time>2022-03-06T10:55:56.000Z</time>
      </trkpt>
      <trkpt lat="43.63457" lon="4.28475">
        <ele>55.016</ele>
        <time>2022-03-06T10:56:04.000Z</time>
      </trkpt>
      <trkpt lat="43.63453" lon="4.28463">
        <ele>55.378</ele>
        <time>2022-03-06T10:56:15.000Z</time>
      </trkpt>
      <trkpt lat="43.63453" lon="4.2845">
        <ele>54.583</ele>
        <time>2022-03-06T10:56:21.000Z</time>
      </trkpt>
      <trkpt lat="43.63449" lon="4.28438">
        <ele>55.139</ele>
        <time>2022-03-06T10:56:29.000Z</time>
      </trkpt>
      <trkpt lat="43.63442" lon="4.28431">
        <ele>54.736</ele>
        <time>2022-03-06T10:56:35.000Z</time>
      </trkpt>
      <trkpt lat="43.63437" lon="4.2842">
        <ele>55.378</ele>
        <time>2022-03-06T10:56:42.000Z</time>
      </trkpt>
      <trkpt lat="43.63437" lon="4.28407">
        <ele>53.296</ele>
        <time>2022-03-06T10:56:50.000Z</time>
      </trkpt>
      <trkpt lat="43.63434" lon="4.28395">
        <ele>56.771</ele>
        <time>2022-03-06T10:56:58.000Z</time>
      </trkpt>
      <trkpt lat="43.63429" lon="4.28384">
        <ele>55.268</ele>
        <time>2022-03-06T10:57:05.000Z</time>
      </trkpt>
      <trkpt lat="43.63423" lon="4.28374">
        <ele>53.485</ele>
        <time>2022-03-06T10:57:14.000Z</time>
      </trkpt>
      <trkpt lat="43.63417" lon="4.28365">
        <ele>53.975</ele>
        <time>2022-03-06T10:57:21.000Z</time>
      </trkpt>
      <trkpt lat="43.63409" lon="4.28359">
        <ele>55.344</ele>
        <time>2022-03-06T10:57:27.000Z</time>
      </trkpt>
      <trkpt lat="43.63405" lon="4.28348">
        <ele>57.332</ele>
        <time>2022-03-06T10:57:36.000Z</time>
      </trkpt>
      <trkpt lat="43.63403" lon="4.28335">
        <ele>53.444</ele>
        <time>2022-03-06T10:57:46.000Z</time>
      </trkpt>
      <trkpt lat="43.63399" lon="4.28323">
        <ele>54.893</ele>
        <time>2022-03-06T10:57:54.000Z</time>
      </trkpt>
      <trkpt lat="43.63395" lon="4.28311">
        <ele>55.352</ele>
        <time>2022-03-06T10:58:03.000Z</time>
      </trkpt>
      <trkpt lat="43.63391" lon="4.283">
        <ele>54.248</ele>
        <time>2022-03-06T10:58:11.000Z</time>
      </trkpt>
      <trkpt lat="43.63387" lon="4.28288">
        <ele>56.398</ele>
        <time>2022-03-06T10:58:20.000Z</time>
      </trkpt>
      <trkpt lat="43.63381" lon="4.28278">
        <ele>55.763</ele>
        <time>2022-03-06T10:58:29.000Z</time>
      </trkpt>
      <trkpt lat="43.63374" lon="4.28268">
        <ele>56.38</ele>
        <time>2022-03-06T10:58:37.000Z</time>
      </trkpt>
      <trkpt lat="43.6337" lon="4.28255">
        <ele>56.702</ele>
        <time>2022-03-06T10:58:46.000Z</time>
      </trkpt>
      <trkpt lat="43.63367" lon="4.28243">
        <ele>55.39</ele>
        <time>2022-03-06T10:58:56.000Z</time>
      </trkpt>
      <trkpt lat="43.63363" lon="4.2823">
        <ele>55.825</ele>
        <time>2022-03-06T10:59:02.000Z</time>
      </trkpt>
      <trkpt lat="43.63359" lon="4.28219">
        <ele>54.655</ele>
        <time>2022-03-06T10:59:11.000Z</time>
      </trkpt>
      <trkpt lat="43.63354" lon="4.28208">
        <ele>52.449</ele>
        <time>2022-03-06T10:59:21.000Z</time>
      </trkpt>
      <trkpt lat="43.63348" lon="4.28197">
        <ele>55.822</ele>
        <time>2022-03-06T10:59:29.000Z</time>
      </trkpt>
      <trkpt lat="43.63342" lon="4.28186">
        <ele>56.57</ele>
        <time>2022-03-06T10:59:38.000Z</time>
      </trkpt>
      <trkpt lat="43.63338" lon="4.28174">
        <ele>54.213</ele>
        <time>2022-03-06T10:59:46.000Z</time>
      </trkpt>
      <trkpt lat="43.63332" lon="4.28164">
        <ele>55.987</ele>
        <time>2022-03-06T10:59:54.000Z</time>
      </trkpt>
      <trkpt lat="43.63329" lon="4.28152">
        <ele>55.442</ele>
        <time>2022-03-06T11:00:03.000Z</time>
      </trkpt>
      <trkpt lat="43.63323" lon="4.28142">
        <ele>57.759</ele>
        <time>2022-03-06T11:00:13.000Z</time>
      </trkpt>
      <trkpt lat="43.63319" lon="4.2813">
        <ele>54.619</ele>
        <time>2022-03-06T11:00:25.000Z</time>
      </trkpt>
      <trkpt lat="43.63315" lon="4.28117">
        <ele>55.287</ele>
        <time>2022-03-06T11:00:34.000Z</time>
      </trkpt>
      <trkpt lat="43.63311" lon="4.28105">
        <ele>56.724</ele>
        <time>2022-03-06T11:00:41.000Z</time>
      </trkpt>
      <trkpt lat="43.63308" lon="4.28093">
        <ele>53.995</ele>
        <time>2022-03-06T11:00:49.000Z</time>
      </trkpt>
      <trkpt lat="43.63301" lon="4.28083">
        <ele>53.912</ele>
        <time>2022-03-06T11:00:59.000Z</time>
      </trkpt>
      <trkpt lat="43.63296" lon="4.28072">
        <ele>56.122</ele>
        <time>2022-03-06T11:01:07.000Z</time>
      </trkpt>
      <trkpt lat="43.63292" lon="4.28062">
        <ele>55.168</ele>
        <time>2022-03-06T11:01:14.000Z</time>
      </trkpt>
      <trkpt lat="43.63287" lon="4.2805">
        <ele>53.888</ele>
        <time>2022-03-06T11:01:22.000Z</time>
      </trkpt>
      <trkpt lat="43.63283" lon="4.28039">
        <ele>54.475</ele>
        <time>2022-03-06T11:01:30.000Z</time>
      </trkpt>
      <trkpt lat="43.63279" lon="4.28028">
        <ele>54.166</ele>
        <time>2022-03-06T11:01:37.000Z</time>
      </trkpt>
      <trkpt lat="43.63274" lon="4.28017">
        <ele>53.862</ele>
        <time>2022-03-06T11:01:45.000Z</time>
      </trkpt>
      <trkpt lat="43.63267" lon="4.28006">
        <ele>54.664</ele>
        <time>2022-03-06T11:01:55.000Z</time>
      </trkpt>
      <trkpt lat="43.6326" lon="4.27998">
        <ele>54.912</ele>
        <time>2022-03-06T11:02:11.000Z</time>
      </trkpt>
      <trkpt lat="43.63256" lon="4.27986">
        <ele>53.28</ele>
        <time>2022-03-06T11:02:17.000Z</time>
      </trkpt>
      <trkpt lat="43.63252" lon="4.27975">
        <ele>53.364</ele>
        <time>2022-03-06T11:02:23.000Z</time>
      </trkpt>
      <trkpt lat="43.63246" lon="4.27963">
        <ele>52.533</ele>
        <time>2022-03-06T11:02:30.000Z</time>
      </trkpt>
      <trkpt lat="43.63241" lon="4.27952">
        <ele>52.671</ele>
        <time>2022-03-06T11:02:37.000Z</time>
      </trkpt>
      <trkpt lat="43.63238" lon="4.2794">
        <ele>52.443</ele>
        <time>2022-03-06T11:02:44.000Z</time>
      </trkpt>
      <trkpt lat="43.63234" lon="4.27929">
        <ele>49.422</ele>
        <time>2022-03-06T11:02:51.000Z</time>
      </trkpt>
      <trkpt lat="43.63229" lon="4.27918">
        <ele>53.567</ele>
        <time>2022-03-06T11:02:59.000Z</time>
      </trkpt>
      <trkpt lat="43.63224" lon="4.27907">
        <ele>51.237</ele>
        <time>2022-03-06T11:03:07.000Z</time>
      </trkpt>
      <trkpt lat="43.63219" lon="4.27896">
        <ele>51.125</ele>
        <time>2022-03-06T11:03:16.000Z</time>
      </trkpt>
      <trkpt lat="43.63213" lon="4.27885">
        <ele>53.542</ele>
        <time>2022-03-06T11:03:24.000Z</time>
      </trkpt>
      <trkpt lat="43.63208" lon="4.27873">
        <ele>51.738</ele>
        <time>2022-03-06T11:03:34.000Z</time>
      </trkpt>
      <trkpt lat="43.63204" lon="4.27861">
        <ele>52.228</ele>
        <time>2022-03-06T11:03:44.000Z</time>
      </trkpt>
      <trkpt lat="43.63198" lon="4.2785">
        <ele>54.07</ele>
        <time>2022-03-06T11:03:52.000Z</time>
      </trkpt>
      <trkpt lat="43.63194" lon="4.27839">
        <ele>53.387</ele>
        <time>2022-03-06T11:04:00.000Z</time>
      </trkpt>
      <trkpt lat="43.63189" lon="4.27828">
        <ele>53.364</ele>
        <time>2022-03-06T11:04:07.000Z</time>
      </trkpt>
      <trkpt lat="43.63184" lon="4.27818">
        <ele>53.441</ele>
        <time>2022-03-06T11:04:17.000Z</time>
      </trkpt>
      <trkpt lat="43.63186" lon="4.27805">
        <ele>50.609</ele>
        <time>2022-03-06T11:04:27.000Z</time>
      </trkpt>
      <trkpt lat="43.63192" lon="4.27795">
        <ele>52.679</ele>
        <time>2022-03-06T11:04:36.000Z</time>
      </trkpt>
      <trkpt lat="43.63201" lon="4.27792">
        <ele>51.796</ele>
        <time>2022-03-06T11:04:47.000Z</time>
      </trkpt>
      <trkpt lat="43.6321" lon="4.27789">
        <ele>52.301</ele>
        <time>2022-03-06T11:04:54.000Z</time>
      </trkpt>
      <trkpt lat="43.63219" lon="4.27784">
        <ele>49.89</ele>
        <time>2022-03-06T11:05:02.000Z</time>
      </trkpt>
      <trkpt lat="43.63228" lon="4.27781">
        <ele>50.228</ele>
        <time>2022-03-06T11:05:08.000Z</time>
      </trkpt>
      <trkpt lat="43.63237" lon="4.27779">
        <ele>52.002</ele>
        <time>2022-03-06T11:05:14.000Z</time>
      </trkpt>
      <trkpt lat="43.63245" lon="4.27773">
        <ele>50.765</ele>
        <time>2022-03-06T11:05:23.000Z</time>
      </trkpt>
      <trkpt lat="43.63252" lon="4.27764">
        <ele>50.301</ele>
        <time>2022-03-06T11:05:35.000Z</time>
      </trkpt>
      <trkpt lat="43.6326" lon="4.27757">
        <ele>54.393</ele>
        <time>2022-03-06T11:05:42.000Z</time>
      </trkpt>
      <trkpt lat="43.63267" lon="4.27748">
        <ele>52.341</ele>
        <time>2022-03-06T11:05:51.000Z</time>
      </trkpt>
      <trkpt lat="43.63276" lon="4.2774">
        <ele>52.653</ele>
        <time>2022-03-06T11:06:03.000Z</time>
      </trkpt>
      <trkpt lat="43.63285" lon="4.27737">
        <ele>49.647</ele>
        <time>2022-03-06T11:06:09.000Z</time>
      </trkpt>
      <trkpt lat="43.63294" lon="4.27736">
        <ele>52.125</ele>
        <time>2022-03-06T11:06:16.000Z</time>
      </trkpt>
      <trkpt lat="43.63302" lon="4.27729">
        <ele>52.858</ele>
        <time>2022-03-06T11:06:23.000Z</time>
      </trkpt>
      <trkpt lat="43.6331" lon="4.27722">
        <ele>51.253</ele>
        <time>2022-03-06T11:06:33.000Z</time>
      </trkpt>
      <trkpt lat="43.63316" lon="4.27713">
        <ele>51.112</ele>
        <time>2022-03-06T11:06:41.000Z</time>
      </trkpt>
      <trkpt lat="43.63323" lon="4.27704">
        <ele>51.8</ele>
        <time>2022-03-06T11:06:49.000Z</time>
      </trkpt>
      <trkpt lat="43.63331" lon="4.27698">
        <ele>50.415</ele>
        <time>2022-03-06T11:07:06.000Z</time>
      </trkpt>
      <trkpt lat="43.63338" lon="4.27689">
        <ele>51.347</ele>
        <time>2022-03-06T11:07:15.000Z</time>
      </trkpt>
      <trkpt lat="43.63345" lon="4.27681">
        <ele>54.497</ele>
        <time>2022-03-06T11:07:22.000Z</time>
      </trkpt>
      <trkpt lat="43.63355" lon="4.27674">
        <ele>51.808</ele>
        <time>2022-03-06T11:07:30.000Z</time>
      </trkpt>
      <trkpt lat="43.63363" lon="4.27668">
        <ele>50.346</ele>
        <time>2022-03-06T11:07:35.000Z</time>
      </trkpt>
      <trkpt lat="43.63369" lon="4.27658">
        <ele>52.92</ele>
        <time>2022-03-06T11:07:42.000Z</time>
      </trkpt>
      <trkpt lat="43.63376" lon="4.2765">
        <ele>52.998</ele>
        <time>2022-03-06T11:07:50.000Z</time>
      </trkpt>
      <trkpt lat="43.63384" lon="4.27641">
        <ele>53.561</ele>
        <time>2022-03-06T11:07:59.000Z</time>
      </trkpt>
      <trkpt lat="43.63392" lon="4.27634">
        <ele>51.172</ele>
        <time>2022-03-06T11:08:08.000Z</time>
      </trkpt>
      <trkpt lat="43.634" lon="4.27627">
        <ele>52.53</ele>
        <time>2022-03-06T11:08:16.000Z</time>
      </trkpt>
      <trkpt lat="43.63407" lon="4.27619">
        <ele>52.025</ele>
        <time>2022-03-06T11:08:23.000Z</time>
      </trkpt>
      <trkpt lat="43.63414" lon="4.27612">
        <ele>54.006</ele>
        <time>2022-03-06T11:08:32.000Z</time>
      </trkpt>
      <trkpt lat="43.63423" lon="4.27607">
        <ele>52.526</ele>
        <time>2022-03-06T11:08:40.000Z</time>
      </trkpt>
      <trkpt lat="43.63431" lon="4.276">
        <ele>52.142</ele>
        <time>2022-03-06T11:08:48.000Z</time>
      </trkpt>
      <trkpt lat="43.6344" lon="4.27596">
        <ele>50.217</ele>
        <time>2022-03-06T11:08:57.000Z</time>
      </trkpt>
      <trkpt lat="43.63448" lon="4.2759">
        <ele>51.644</ele>
        <time>2022-03-06T11:09:07.000Z</time>
      </trkpt>
      <trkpt lat="43.63456" lon="4.27582">
        <ele>51.828</ele>
        <time>2022-03-06T11:09:17.000Z</time>
      </trkpt>
      <trkpt lat="43.63465" lon="4.27577">
        <ele>52.946</ele>
        <time>2022-03-06T11:09:25.000Z</time>
      </trkpt>
      <trkpt lat="43.63474" lon="4.27574">
        <ele>52.181</ele>
        <time>2022-03-06T11:09:31.000Z</time>
      </trkpt>
      <trkpt lat="43.63483" lon="4.27571">
        <ele>51.571</ele>
        <time>2022-03-06T11:09:39.000Z</time>
      </trkpt>
      <trkpt lat="43.63492" lon="4.27567">
        <ele>51.665</ele>
        <time>2022-03-06T11:09:49.000Z</time>
      </trkpt>
      <trkpt lat="43.63502" lon="4.27562">
        <ele>52.372</ele>
        <time>2022-03-06T11:10:00.000Z</time>
      </trkpt>
      <trkpt lat="43.63511" lon="4.27558">
        <ele>52.41</ele>
        <time>2022-03-06T11:10:09.000Z</time>
      </trkpt>
      <trkpt lat="43.63518" lon="4.27549">
        <ele>52.633</ele>
        <time>2022-03-06T11:10:16.000Z</time>
      </trkpt>
      <trkpt lat="43.63528" lon="4.27543">
        <ele>50.645</ele>
        <time>2022-03-06T11:10:24.000Z</time>
      </trkpt>
      <trkpt lat="43.63537" lon="4.27542">
        <ele>52.442</ele>
        <time>2022-03-06T11:10:30.000Z</time>
      </trkpt>
      <trkpt lat="43.63547" lon="4.27542">
        <ele>52.556</ele>
        <time>2022-03-06T11:10:39.000Z</time>
      </trkpt>
      <trkpt lat="43.63556" lon="4.27544">
        <ele>52.293</ele>
        <time>2022-03-06T11:11:04.000Z</time>
      </trkpt>
      <trkpt lat="43.63565" lon="4.27541">
        <ele>52.448</ele>
        <time>2022-03-06T11:11:12.000Z</time>
      </trkpt>
      <trkpt lat="43.63577" lon="4.27536">
        <ele>53.553</ele>
        <time>2022-03-06T11:11:17.000Z</time>
      </trkpt>
      <trkpt lat="43.63586" lon="4.27534">
        <ele>51.637</ele>
        <time>2022-03-06T11:11:24.000Z</time>
      </trkpt>
      <trkpt lat="43.63595" lon="4.27527">
        <ele>49.476</ele>
        <time>2022-03-06T11:11:35.000Z</time>
      </trkpt>
      <trkpt lat="43.63604" lon="4.27521">
        <ele>53.004</ele>
        <time>2022-03-06T11:11:42.000Z</time>
      </trkpt>
      <trkpt lat="43.63607" lon="4.2751">
        <ele>53.493</ele>
        <time>2022-03-06T11:11:50.000Z</time>
      </trkpt>
      <trkpt lat="43.63617" lon="4.27513">
        <ele>52.49</ele>
        <time>2022-03-06T11:14:24.000Z</time>
      </trkpt>
      <trkpt lat="43.63626" lon="4.2751">
        <ele>52.759</ele>
        <time>2022-03-06T11:14:30.000Z</time>
      </trkpt>
      <trkpt lat="43.63636" lon="4.27509">
        <ele>52.053</ele>
        <time>2022-03-06T11:14:36.000Z</time>
      </trkpt>
      <trkpt lat="43.63645" lon="4.27505">
        <ele>52.733</ele>
        <time>2022-03-06T11:14:45.000Z</time>
      </trkpt>
      <trkpt lat="43.63652" lon="4.27497">
        <ele>54.037</ele>
        <time>2022-03-06T11:15:11.000Z</time>
      </trkpt>
      <trkpt lat="43.63661" lon="4.27496">
        <ele>52.927</ele>
        <time>2022-03-06T11:15:32.000Z</time>
      </trkpt>
      <trkpt lat="43.6367" lon="4.27492">
        <ele>54.259</ele>
        <time>2022-03-06T11:15:42.000Z</time>
      </trkpt>
      <trkpt lat="43.63679" lon="4.27488">
        <ele>53.464</ele>
        <time>2022-03-06T11:15:50.000Z</time>
      </trkpt>
      <trkpt lat="43.63687" lon="4.27482">
        <ele>52.019</ele>
        <time>2022-03-06T11:15:59.000Z</time>
      </trkpt>
      <trkpt lat="43.63696" lon="4.27477">
        <ele>53.944</ele>
        <time>2022-03-06T11:16:08.000Z</time>
      </trkpt>
      <trkpt lat="43.63704" lon="4.27469">
        <ele>53.006</ele>
        <time>2022-03-06T11:16:17.000Z</time>
      </trkpt>
      <trkpt lat="43.63711" lon="4.27462">
        <ele>52.523</ele>
        <time>2022-03-06T11:16:25.000Z</time>
      </trkpt>
      <trkpt lat="43.63721" lon="4.27458">
        <ele>53.084</ele>
        <time>2022-03-06T11:16:34.000Z</time>
      </trkpt>
      <trkpt lat="43.6373" lon="4.27456">
        <ele>54.645</ele>
        <time>2022-03-06T11:16:41.000Z</time>
      </trkpt>
      <trkpt lat="43.63739" lon="4.27452">
        <ele>54.366</ele>
        <time>2022-03-06T11:16:51.000Z</time>
      </trkpt>
      <trkpt lat="43.63747" lon="4.27446">
        <ele>54.279</ele>
        <time>2022-03-06T11:17:00.000Z</time>
      </trkpt>
      <trkpt lat="43.63755" lon="4.27441">
        <ele>54.184</ele>
        <time>2022-03-06T11:17:08.000Z</time>
      </trkpt>
      <trkpt lat="43.63764" lon="4.27437">
        <ele>54.484</ele>
        <time>2022-03-06T11:17:16.000Z</time>
      </trkpt>
      <trkpt lat="43.63774" lon="4.27434">
        <ele>53.383</ele>
        <time>2022-03-06T11:17:26.000Z</time>
      </trkpt>
      <trkpt lat="43.63783" lon="4.27429">
        <ele>53.522</ele>
        <time>2022-03-06T11:17:42.000Z</time>
      </trkpt>
      <trkpt lat="43.63791" lon="4.27424">
        <ele>53.242</ele>
        <time>2022-03-06T11:17:51.000Z</time>
      </trkpt>
      <trkpt lat="43.638" lon="4.27423">
        <ele>53.203</ele>
        <time>2022-03-06T11:19:47.000Z</time>
      </trkpt>
      <trkpt lat="43.6381" lon="4.27422">
        <ele>53.623</ele>
        <time>2022-03-06T11:20:04.000Z</time>
      </trkpt>
      <trkpt lat="43.63819" lon="4.27419">
        <ele>59.041</ele>
        <time>2022-03-06T11:20:12.000Z</time>
      </trkpt>
      <trkpt lat="43.63828" lon="4.27415">
        <ele>51.113</ele>
        <time>2022-03-06T11:20:18.000Z</time>
      </trkpt>
      <trkpt lat="43.63837" lon="4.27414">
        <ele>53.375</ele>
        <time>2022-03-06T11:20:27.000Z</time>
      </trkpt>
      <trkpt lat="43.63847" lon="4.27411">
        <ele>52.447</ele>
        <time>2022-03-06T11:20:36.000Z</time>
      </trkpt>
      <trkpt lat="43.63856" lon="4.27411">
        <ele>53.87</ele>
        <time>2022-03-06T11:20:46.000Z</time>
      </trkpt>
      <trkpt lat="43.63865" lon="4.27407">
        <ele>53.703</ele>
        <time>2022-03-06T11:20:53.000Z</time>
      </trkpt>
      <trkpt lat="43.63874" lon="4.27403">
        <ele>51.346</ele>
        <time>2022-03-06T11:21:01.000Z</time>
      </trkpt>
      <trkpt lat="43.63884" lon="4.27404">
        <ele>53.439</ele>
        <time>2022-03-06T11:21:27.000Z</time>
      </trkpt>
      <trkpt lat="43.63893" lon="4.27399">
        <ele>53.626</ele>
        <time>2022-03-06T11:21:34.000Z</time>
      </trkpt>
      <trkpt lat="43.63901" lon="4.27394">
        <ele>54.109</ele>
        <time>2022-03-06T11:21:40.000Z</time>
      </trkpt>
      <trkpt lat="43.6391" lon="4.27389">
        <ele>52.539</ele>
        <time>2022-03-06T11:21:47.000Z</time>
      </trkpt>
      <trkpt lat="43.63919" lon="4.27386">
        <ele>52.577</ele>
        <time>2022-03-06T11:21:53.000Z</time>
      </trkpt>
      <trkpt lat="43.63929" lon="4.27385">
        <ele>52.819</ele>
        <time>2022-03-06T11:22:01.000Z</time>
      </trkpt>
      <trkpt lat="43.63938" lon="4.27384">
        <ele>53.696</ele>
        <time>2022-03-06T11:22:09.000Z</time>
      </trkpt>
      <trkpt lat="43.63947" lon="4.27378">
        <ele>52.501</ele>
        <time>2022-03-06T11:22:17.000Z</time>
      </trkpt>
      <trkpt lat="43.63956" lon="4.27375">
        <ele>50.805</ele>
        <time>2022-03-06T11:22:25.000Z</time>
      </trkpt>
      <trkpt lat="43.63965" lon="4.27372">
        <ele>52.704</ele>
        <time>2022-03-06T11:22:33.000Z</time>
      </trkpt>
      <trkpt lat="43.63974" lon="4.2737">
        <ele>54.001</ele>
        <time>2022-03-06T11:22:41.000Z</time>
      </trkpt>
      <trkpt lat="43.63983" lon="4.27369">
        <ele>52.455</ele>
        <time>2022-03-06T11:22:47.000Z</time>
      </trkpt>
      <trkpt lat="43.63993" lon="4.27367">
        <ele>52.395</ele>
        <time>2022-03-06T11:22:52.000Z</time>
      </trkpt>
      <trkpt lat="43.64001" lon="4.27361">
        <ele>52.184</ele>
        <time>2022-03-06T11:23:02.000Z</time>
      </trkpt>
      <trkpt lat="43.64008" lon="4.27353">
        <ele>54.636</ele>
        <time>2022-03-06T11:23:14.000Z</time>
      </trkpt>
      <trkpt lat="43.64017" lon="4.27348">
        <ele>53.375</ele>
        <time>2022-03-06T11:23:23.000Z</time>
      </trkpt>
      <trkpt lat="43.64026" lon="4.27343">
        <ele>55.486</ele>
        <time>2022-03-06T11:23:31.000Z</time>
      </trkpt>
      <trkpt lat="43.64035" lon="4.27341">
        <ele>59.972</ele>
        <time>2022-03-06T11:23:39.000Z</time>
      </trkpt>
      <trkpt lat="43.64045" lon="4.27341">
        <ele>53.296</ele>
        <time>2022-03-06T11:23:47.000Z</time>
      </trkpt>
      <trkpt lat="43.64056" lon="4.27339">
        <ele>51.606</ele>
        <time>2022-03-06T11:23:54.000Z</time>
      </trkpt>
      <trkpt lat="43.64065" lon="4.27336">
        <ele>55.054</ele>
        <time>2022-03-06T11:24:00.000Z</time>
      </trkpt>
      <trkpt lat="43.64074" lon="4.27334">
        <ele>57.741</ele>
        <time>2022-03-06T11:24:09.000Z</time>
      </trkpt>
      <trkpt lat="43.64083" lon="4.27337">
        <ele>54.882</ele>
        <time>2022-03-06T11:24:19.000Z</time>
      </trkpt>
      <trkpt lat="43.64092" lon="4.27335">
        <ele>54.205</ele>
        <time>2022-03-06T11:24:27.000Z</time>
      </trkpt>
      <trkpt lat="43.64101" lon="4.27331">
        <ele>54.976</ele>
        <time>2022-03-06T11:24:35.000Z</time>
      </trkpt>
      <trkpt lat="43.6411" lon="4.27329">
        <ele>55.369</ele>
        <time>2022-03-06T11:24:41.000Z</time>
      </trkpt>
      <trkpt lat="43.6412" lon="4.27328">
        <ele>52.988</ele>
        <time>2022-03-06T11:24:50.000Z</time>
      </trkpt>
      <trkpt lat="43.64129" lon="4.27324">
        <ele>52.671</ele>
        <time>2022-03-06T11:24:58.000Z</time>
      </trkpt>
      <trkpt lat="43.64138" lon="4.2732">
        <ele>53.148</ele>
        <time>2022-03-06T11:25:08.000Z</time>
      </trkpt>
      <trkpt lat="43.64147" lon="4.27324">
        <ele>54.222</ele>
        <time>2022-03-06T11:25:16.000Z</time>
      </trkpt>
      <trkpt lat="43.64156" lon="4.27322">
        <ele>53.694</ele>
        <time>2022-03-06T11:25:26.000Z</time>
      </trkpt>
      <trkpt lat="43.64165" lon="4.27319">
        <ele>51.751</ele>
        <time>2022-03-06T11:25:33.000Z</time>
      </trkpt>
      <trkpt lat="43.64174" lon="4.27319">
        <ele>52.878</ele>
        <time>2022-03-06T11:25:40.000Z</time>
      </trkpt>
      <trkpt lat="43.64183" lon="4.27318">
        <ele>53.206</ele>
        <time>2022-03-06T11:25:48.000Z</time>
      </trkpt>
      <trkpt lat="43.64193" lon="4.27317">
        <ele>52.615</ele>
        <time>2022-03-06T11:25:57.000Z</time>
      </trkpt>
      <trkpt lat="43.64201" lon="4.27315">
        <ele>54.912</ele>
        <time>2022-03-06T11:26:06.000Z</time>
      </trkpt>
      <trkpt lat="43.64209" lon="4.27307">
        <ele>54.667</ele>
        <time>2022-03-06T11:26:12.000Z</time>
      </trkpt>
      <trkpt lat="43.64199" lon="4.27296">
        <ele>54.802</ele>
        <time>2022-03-06T11:26:17.000Z</time>
      </trkpt>
      <trkpt lat="43.64193" lon="4.27286">
        <ele>54.598</ele>
        <time>2022-03-06T11:26:46.000Z</time>
      </trkpt>
      <trkpt lat="43.64185" lon="4.27278">
        <ele>56.216</ele>
        <time>2022-03-06T11:27:06.000Z</time>
      </trkpt>
      <trkpt lat="43.64178" lon="4.2727">
        <ele>56.028</ele>
        <time>2022-03-06T11:27:21.000Z</time>
      </trkpt>
      <trkpt lat="43.64172" lon="4.2726">
        <ele>57.622</ele>
        <time>2022-03-06T11:27:31.000Z</time>
      </trkpt>
      <trkpt lat="43.64165" lon="4.27252">
        <ele>57.9</ele>
        <time>2022-03-06T11:27:39.000Z</time>
      </trkpt>
      <trkpt lat="43.64161" lon="4.27239">
        <ele>54.432</ele>
        <time>2022-03-06T11:27:50.000Z</time>
      </trkpt>
      <trkpt lat="43.64152" lon="4.27235">
        <ele>57.988</ele>
        <time>2022-03-06T11:27:59.000Z</time>
      </trkpt>
      <trkpt lat="43.64147" lon="4.27224">
        <ele>59.851</ele>
        <time>2022-03-06T11:28:09.000Z</time>
      </trkpt>
      <trkpt lat="43.64142" lon="4.27213">
        <ele>60.303</ele>
        <time>2022-03-06T11:28:21.000Z</time>
      </trkpt>
      <trkpt lat="43.64136" lon="4.27204">
        <ele>60.849</ele>
        <time>2022-03-06T11:28:29.000Z</time>
      </trkpt>
      <trkpt lat="43.6413" lon="4.27194">
        <ele>61.82</ele>
        <time>2022-03-06T11:28:40.000Z</time>
      </trkpt>
      <trkpt lat="43.64127" lon="4.27182">
        <ele>62.344</ele>
        <time>2022-03-06T11:28:49.000Z</time>
      </trkpt>
      <trkpt lat="43.64127" lon="4.27169">
        <ele>63.36</ele>
        <time>2022-03-06T11:29:01.000Z</time>
      </trkpt>
      <trkpt lat="43.64127" lon="4.27157">
        <ele>63.746</ele>
        <time>2022-03-06T11:29:08.000Z</time>
      </trkpt>
      <trkpt lat="43.64123" lon="4.27144">
        <ele>64.074</ele>
        <time>2022-03-06T11:29:15.000Z</time>
      </trkpt>
      <trkpt lat="43.64119" lon="4.27132">
        <ele>63.939</ele>
        <time>2022-03-06T11:29:24.000Z</time>
      </trkpt>
      <trkpt lat="43.64122" lon="4.27121">
        <ele>63.709</ele>
        <time>2022-03-06T11:29:32.000Z</time>
      </trkpt>
      <trkpt lat="43.64119" lon="4.27108">
        <ele>64.062</ele>
        <time>2022-03-06T11:29:44.000Z</time>
      </trkpt>
      <trkpt lat="43.64119" lon="4.27095">
        <ele>63.508</ele>
        <time>2022-03-06T11:29:51.000Z</time>
      </trkpt>
      <trkpt lat="43.64118" lon="4.27083">
        <ele>66.114</ele>
        <time>2022-03-06T11:30:05.000Z</time>
      </trkpt>
      <trkpt lat="43.6412" lon="4.27069">
        <ele>63.63</ele>
        <time>2022-03-06T11:30:12.000Z</time>
      </trkpt>
      <trkpt lat="43.64119" lon="4.27057">
        <ele>64.163</ele>
        <time>2022-03-06T11:30:18.000Z</time>
      </trkpt>
      <trkpt lat="43.64118" lon="4.27044">
        <ele>66.177</ele>
        <time>2022-03-06T11:30:27.000Z</time>
      </trkpt>
      <trkpt lat="43.64116" lon="4.2703">
        <ele>66.188</ele>
        <time>2022-03-06T11:30:34.000Z</time>
      </trkpt>
      <trkpt lat="43.64115" lon="4.27018">
        <ele>66.647</ele>
        <time>2022-03-06T11:30:45.000Z</time>
      </trkpt>
      <trkpt lat="43.64113" lon="4.27006">
        <ele>67.289</ele>
        <time>2022-03-06T11:30:52.000Z</time>
      </trkpt>
      <trkpt lat="43.64118" lon="4.26995">
        <ele>63.572</ele>
        <time>2022-03-06T11:31:22.000Z</time>
      </trkpt>
      <trkpt lat="43.6412" lon="4.26982">
        <ele>64.815</ele>
        <time>2022-03-06T11:31:29.000Z</time>
      </trkpt>
      <trkpt lat="43.6412" lon="4.26968">
        <ele>64.75</ele>
        <time>2022-03-06T11:31:34.000Z</time>
      </trkpt>
      <trkpt lat="43.64119" lon="4.26955">
        <ele>66.304</ele>
        <time>2022-03-06T11:31:41.000Z</time>
      </trkpt>
      <trkpt lat="43.64117" lon="4.26942">
        <ele>65.262</ele>
        <time>2022-03-06T11:31:48.000Z</time>
      </trkpt>
      <trkpt lat="43.64118" lon="4.26929">
        <ele>65.335</ele>
        <time>2022-03-06T11:31:56.000Z</time>
      </trkpt>
      <trkpt lat="43.64119" lon="4.26917">
        <ele>64.461</ele>
        <time>2022-03-06T11:32:05.000Z</time>
      </trkpt>
      <trkpt lat="43.64121" lon="4.26903">
        <ele>65.858</ele>
        <time>2022-03-06T11:32:15.000Z</time>
      </trkpt>
      <trkpt lat="43.64124" lon="4.26892">
        <ele>65.484</ele>
        <time>2022-03-06T11:32:23.000Z</time>
      </trkpt>
      <trkpt lat="43.64125" lon="4.26879">
        <ele>66.002</ele>
        <time>2022-03-06T11:32:32.000Z</time>
      </trkpt>
      <trkpt lat="43.64124" lon="4.26866">
        <ele>64.797</ele>
        <time>2022-03-06T11:32:42.000Z</time>
      </trkpt>
      <trkpt lat="43.64125" lon="4.26853">
        <ele>63.817</ele>
        <time>2022-03-06T11:32:53.000Z</time>
      </trkpt>
      <trkpt lat="43.64126" lon="4.26841">
        <ele>65.513</ele>
        <time>2022-03-06T11:33:01.000Z</time>
      </trkpt>
      <trkpt lat="43.64127" lon="4.26828">
        <ele>65.641</ele>
        <time>2022-03-06T11:33:08.000Z</time>
      </trkpt>
      <trkpt lat="43.64129" lon="4.26815">
        <ele>67.646</ele>
        <time>2022-03-06T11:33:16.000Z</time>
      </trkpt>
      <trkpt lat="43.6413" lon="4.26802">
        <ele>65.074</ele>
        <time>2022-03-06T11:33:26.000Z</time>
      </trkpt>
      <trkpt lat="43.64132" lon="4.2679">
        <ele>63.604</ele>
        <time>2022-03-06T11:33:33.000Z</time>
      </trkpt>
      <trkpt lat="43.64133" lon="4.26777">
        <ele>64.837</ele>
        <time>2022-03-06T11:33:38.000Z</time>
      </trkpt>
      <trkpt lat="43.64132" lon="4.26764">
        <ele>66.801</ele>
        <time>2022-03-06T11:33:50.000Z</time>
      </trkpt>
      <trkpt lat="43.64134" lon="4.26751">
        <ele>65.314</ele>
        <time>2022-03-06T11:33:59.000Z</time>
      </trkpt>
      <trkpt lat="43.64135" lon="4.26738">
        <ele>65.251</ele>
        <time>2022-03-06T11:34:05.000Z</time>
      </trkpt>
      <trkpt lat="43.64135" lon="4.26725">
        <ele>67.289</ele>
        <time>2022-03-06T11:34:12.000Z</time>
      </trkpt>
      <trkpt lat="43.64137" lon="4.26713">
        <ele>65.556</ele>
        <time>2022-03-06T11:34:23.000Z</time>
      </trkpt>
      <trkpt lat="43.64139" lon="4.26701">
        <ele>67.284</ele>
        <time>2022-03-06T11:34:32.000Z</time>
      </trkpt>
      <trkpt lat="43.64139" lon="4.26688">
        <ele>67.573</ele>
        <time>2022-03-06T11:34:40.000Z</time>
      </trkpt>
      <trkpt lat="43.64138" lon="4.26675">
        <ele>67.166</ele>
        <time>2022-03-06T11:34:48.000Z</time>
      </trkpt>
      <trkpt lat="43.6414" lon="4.26662">
        <ele>67.424</ele>
        <time>2022-03-06T11:34:56.000Z</time>
      </trkpt>
      <trkpt lat="43.64141" lon="4.2665">
        <ele>66.345</ele>
        <time>2022-03-06T11:35:03.000Z</time>
      </trkpt>
      <trkpt lat="43.6414" lon="4.26637">
        <ele>68.214</ele>
        <time>2022-03-06T11:35:12.000Z</time>
      </trkpt>
      <trkpt lat="43.6414" lon="4.26624">
        <ele>67.494</ele>
        <time>2022-03-06T11:35:25.000Z</time>
      </trkpt>
      <trkpt lat="43.64141" lon="4.2661">
        <ele>64.999</ele>
        <time>2022-03-06T11:35:32.000Z</time>
      </trkpt>
      <trkpt lat="43.64141" lon="4.26596">
        <ele>68.435</ele>
        <time>2022-03-06T11:35:39.000Z</time>
      </trkpt>
      <trkpt lat="43.6414" lon="4.26583">
        <ele>68.164</ele>
        <time>2022-03-06T11:35:46.000Z</time>
      </trkpt>
      <trkpt lat="43.6414" lon="4.2657">
        <ele>68.602</ele>
        <time>2022-03-06T11:35:57.000Z</time>
      </trkpt>
      <trkpt lat="43.64144" lon="4.26558">
        <ele>68.514</ele>
        <time>2022-03-06T11:36:05.000Z</time>
      </trkpt>
      <trkpt lat="43.64148" lon="4.26547">
        <ele>69.75</ele>
        <time>2022-03-06T11:36:12.000Z</time>
      </trkpt>
      <trkpt lat="43.64154" lon="4.26537">
        <ele>65.828</ele>
        <time>2022-03-06T11:36:19.000Z</time>
      </trkpt>
      <trkpt lat="43.64162" lon="4.26532">
        <ele>68.679</ele>
        <time>2022-03-06T11:36:29.000Z</time>
      </trkpt>
      <trkpt lat="43.64172" lon="4.26527">
        <ele>70.365</ele>
        <time>2022-03-06T11:36:38.000Z</time>
      </trkpt>
      <trkpt lat="43.64182" lon="4.26523">
        <ele>68.481</ele>
        <time>2022-03-06T11:36:47.000Z</time>
      </trkpt>
      <trkpt lat="43.6419" lon="4.26516">
        <ele>68.802</ele>
        <time>2022-03-06T11:36:56.000Z</time>
      </trkpt>
      <trkpt lat="43.64196" lon="4.26506">
        <ele>69.693</ele>
        <time>2022-03-06T11:37:04.000Z</time>
      </trkpt>
      <trkpt lat="43.64201" lon="4.26495">
        <ele>69.417</ele>
        <time>2022-03-06T11:37:13.000Z</time>
      </trkpt>
      <trkpt lat="43.64204" lon="4.26482">
        <ele>69.2</ele>
        <time>2022-03-06T11:37:22.000Z</time>
      </trkpt>
      <trkpt lat="43.64204" lon="4.26469">
        <ele>69.447</ele>
        <time>2022-03-06T11:37:37.000Z</time>
      </trkpt>
      <trkpt lat="43.64203" lon="4.26455">
        <ele>68.925</ele>
        <time>2022-03-06T11:37:45.000Z</time>
      </trkpt>
      <trkpt lat="43.64203" lon="4.26441">
        <ele>70.605</ele>
        <time>2022-03-06T11:37:50.000Z</time>
      </trkpt>
      <trkpt lat="43.64201" lon="4.26429">
        <ele>69.591</ele>
        <time>2022-03-06T11:37:56.000Z</time>
      </trkpt>
      <trkpt lat="43.64203" lon="4.26416">
        <ele>69.163</ele>
        <time>2022-03-06T11:38:12.000Z</time>
      </trkpt>
      <trkpt lat="43.64209" lon="4.26406">
        <ele>66.958</ele>
        <time>2022-03-06T11:38:18.000Z</time>
      </trkpt>
      <trkpt lat="43.64204" lon="4.26396">
        <ele>70.751</ele>
        <time>2022-03-06T11:38:25.000Z</time>
      </trkpt>
      <trkpt lat="43.64196" lon="4.2639">
        <ele>70.233</ele>
        <time>2022-03-06T11:38:35.000Z</time>
      </trkpt>
      <trkpt lat="43.64189" lon="4.26399">
        <ele>69.603</ele>
        <time>2022-03-06T11:42:13.000Z</time>
      </trkpt>
      <trkpt lat="43.64196" lon="4.2639">
        <ele>69.253</ele>
        <time>2022-03-06T11:54:44.000Z</time>
      </trkpt>
      <trkpt lat="43.64204" lon="4.26383">
        <ele>69.903</ele>
        <time>2022-03-06T11:54:51.000Z</time>
      </trkpt>
      <trkpt lat="43.64205" lon="4.2637">
        <ele>70.955</ele>
        <time>2022-03-06T11:55:02.000Z</time>
      </trkpt>
      <trkpt lat="43.64208" lon="4.26358">
        <ele>69.278</ele>
        <time>2022-03-06T11:55:11.000Z</time>
      </trkpt>
      <trkpt lat="43.64214" lon="4.26349">
        <ele>71.404</ele>
        <time>2022-03-06T11:55:20.000Z</time>
      </trkpt>
      <trkpt lat="43.64216" lon="4.26336">
        <ele>68.845</ele>
        <time>2022-03-06T11:55:29.000Z</time>
      </trkpt>
      <trkpt lat="43.64219" lon="4.26323">
        <ele>69.286</ele>
        <time>2022-03-06T11:55:38.000Z</time>
      </trkpt>
      <trkpt lat="43.6422" lon="4.2631">
        <ele>69.347</ele>
        <time>2022-03-06T11:55:49.000Z</time>
      </trkpt>
      <trkpt lat="43.64221" lon="4.26296">
        <ele>69.728</ele>
        <time>2022-03-06T11:55:57.000Z</time>
      </trkpt>
      <trkpt lat="43.64221" lon="4.26283">
        <ele>69.08</ele>
        <time>2022-03-06T11:56:06.000Z</time>
      </trkpt>
      <trkpt lat="43.64219" lon="4.26271">
        <ele>69.137</ele>
        <time>2022-03-06T11:56:14.000Z</time>
      </trkpt>
      <trkpt lat="43.64215" lon="4.26259">
        <ele>69.582</ele>
        <time>2022-03-06T11:56:25.000Z</time>
      </trkpt>
      <trkpt lat="43.64219" lon="4.26245">
        <ele>68.365</ele>
        <time>2022-03-06T11:56:34.000Z</time>
      </trkpt>
      <trkpt lat="43.6422" lon="4.26233">
        <ele>69.654</ele>
        <time>2022-03-06T11:56:41.000Z</time>
      </trkpt>
      <trkpt lat="43.64225" lon="4.26223">
        <ele>69.587</ele>
        <time>2022-03-06T11:56:53.000Z</time>
      </trkpt>
      <trkpt lat="43.64222" lon="4.2621">
        <ele>69.438</ele>
        <time>2022-03-06T11:57:01.000Z</time>
      </trkpt>
      <trkpt lat="43.64221" lon="4.26197">
        <ele>69.146</ele>
        <time>2022-03-06T11:57:07.000Z</time>
      </trkpt>
      <trkpt lat="43.64218" lon="4.26184">
        <ele>70.544</ele>
        <time>2022-03-06T11:57:14.000Z</time>
      </trkpt>
      <trkpt lat="43.64219" lon="4.26171">
        <ele>66.921</ele>
        <time>2022-03-06T11:57:23.000Z</time>
      </trkpt>
      <trkpt lat="43.64221" lon="4.26158">
        <ele>69.333</ele>
        <time>2022-03-06T11:57:31.000Z</time>
      </trkpt>
      <trkpt lat="43.64218" lon="4.26146">
        <ele>69.458</ele>
        <time>2022-03-06T11:57:37.000Z</time>
      </trkpt>
      <trkpt lat="43.64214" lon="4.26135">
        <ele>70.624</ele>
        <time>2022-03-06T11:57:45.000Z</time>
      </trkpt>
      <trkpt lat="43.64212" lon="4.26122">
        <ele>66.921</ele>
        <time>2022-03-06T11:57:53.000Z</time>
      </trkpt>
      <trkpt lat="43.64215" lon="4.2611">
        <ele>70.152</ele>
        <time>2022-03-06T11:58:07.000Z</time>
      </trkpt>
      <trkpt lat="43.64211" lon="4.26097">
        <ele>66.525</ele>
        <time>2022-03-06T11:58:13.000Z</time>
      </trkpt>
      <trkpt lat="43.6421" lon="4.26084">
        <ele>67.263</ele>
        <time>2022-03-06T11:58:22.000Z</time>
      </trkpt>
      <trkpt lat="43.64202" lon="4.26076">
        <ele>69.09</ele>
        <time>2022-03-06T11:58:30.000Z</time>
      </trkpt>
      <trkpt lat="43.64199" lon="4.26063">
        <ele>67.728</ele>
        <time>2022-03-06T11:58:38.000Z</time>
      </trkpt>
      <trkpt lat="43.64201" lon="4.26049">
        <ele>70.426</ele>
        <time>2022-03-06T11:58:43.000Z</time>
      </trkpt>
      <trkpt lat="43.64198" lon="4.26037">
        <ele>66.849</ele>
        <time>2022-03-06T11:58:57.000Z</time>
      </trkpt>
      <trkpt lat="43.64198" lon="4.26024">
        <ele>67.808</ele>
        <time>2022-03-06T11:59:06.000Z</time>
      </trkpt>
      <trkpt lat="43.64196" lon="4.26011">
        <ele>66.638</ele>
        <time>2022-03-06T11:59:15.000Z</time>
      </trkpt>
      <trkpt lat="43.64195" lon="4.25999">
        <ele>67.117</ele>
        <time>2022-03-06T11:59:24.000Z</time>
      </trkpt>
      <trkpt lat="43.64193" lon="4.25986">
        <ele>67.265</ele>
        <time>2022-03-06T11:59:29.000Z</time>
      </trkpt>
      <trkpt lat="43.64188" lon="4.25976">
        <ele>66.957</ele>
        <time>2022-03-06T11:59:39.000Z</time>
      </trkpt>
      <trkpt lat="43.64187" lon="4.25962">
        <ele>66.823</ele>
        <time>2022-03-06T11:59:52.000Z</time>
      </trkpt>
      <trkpt lat="43.64187" lon="4.25949">
        <ele>67.856</ele>
        <time>2022-03-06T11:59:58.000Z</time>
      </trkpt>
      <trkpt lat="43.64188" lon="4.25937">
        <ele>65.922</ele>
        <time>2022-03-06T12:00:05.000Z</time>
      </trkpt>
      <trkpt lat="43.64189" lon="4.25923">
        <ele>66.317</ele>
        <time>2022-03-06T12:00:13.000Z</time>
      </trkpt>
      <trkpt lat="43.64188" lon="4.25911">
        <ele>67.351</ele>
        <time>2022-03-06T12:00:21.000Z</time>
      </trkpt>
      <trkpt lat="43.64192" lon="4.259">
        <ele>64.86</ele>
        <time>2022-03-06T12:00:30.000Z</time>
      </trkpt>
      <trkpt lat="43.64195" lon="4.25888">
        <ele>67.113</ele>
        <time>2022-03-06T12:00:42.000Z</time>
      </trkpt>
      <trkpt lat="43.64201" lon="4.25877">
        <ele>68.642</ele>
        <time>2022-03-06T12:00:49.000Z</time>
      </trkpt>
      <trkpt lat="43.64207" lon="4.25868">
        <ele>63.825</ele>
        <time>2022-03-06T12:00:57.000Z</time>
      </trkpt>
      <trkpt lat="43.64212" lon="4.25857">
        <ele>66.219</ele>
        <time>2022-03-06T12:01:05.000Z</time>
      </trkpt>
      <trkpt lat="43.64214" lon="4.25844">
        <ele>67.682</ele>
        <time>2022-03-06T12:01:15.000Z</time>
      </trkpt>
      <trkpt lat="43.64218" lon="4.25833">
        <ele>66.506</ele>
        <time>2022-03-06T12:01:23.000Z</time>
      </trkpt>
      <trkpt lat="43.64223" lon="4.25821">
        <ele>67.6</ele>
        <time>2022-03-06T12:01:31.000Z</time>
      </trkpt>
      <trkpt lat="43.64227" lon="4.25809">
        <ele>66.88</ele>
        <time>2022-03-06T12:01:40.000Z</time>
      </trkpt>
      <trkpt lat="43.64232" lon="4.25799">
        <ele>68.982</ele>
        <time>2022-03-06T12:01:50.000Z</time>
      </trkpt>
      <trkpt lat="43.6423" lon="4.25786">
        <ele>70.477</ele>
        <time>2022-03-06T12:02:01.000Z</time>
      </trkpt>
      <trkpt lat="43.64229" lon="4.25773">
        <ele>68.151</ele>
        <time>2022-03-06T12:02:09.000Z</time>
      </trkpt>
      <trkpt lat="43.64226" lon="4.25761">
        <ele>67.164</ele>
        <time>2022-03-06T12:02:24.000Z</time>
      </trkpt>
      <trkpt lat="43.64227" lon="4.25748">
        <ele>68.233</ele>
        <time>2022-03-06T12:02:32.000Z</time>
      </trkpt>
      <trkpt lat="43.64227" lon="4.25735">
        <ele>65.815</ele>
        <time>2022-03-06T12:02:43.000Z</time>
      </trkpt>
      <trkpt lat="43.64225" lon="4.25722">
        <ele>66.821</ele>
        <time>2022-03-06T12:02:49.000Z</time>
      </trkpt>
      <trkpt lat="43.64225" lon="4.25708">
        <ele>67.15</ele>
        <time>2022-03-06T12:03:03.000Z</time>
      </trkpt>
      <trkpt lat="43.64224" lon="4.25696">
        <ele>68.69</ele>
        <time>2022-03-06T12:03:08.000Z</time>
      </trkpt>
      <trkpt lat="43.64225" lon="4.25683">
        <ele>67.864</ele>
        <time>2022-03-06T12:03:14.000Z</time>
      </trkpt>
      <trkpt lat="43.64227" lon="4.2567">
        <ele>67.596</ele>
        <time>2022-03-06T12:03:21.000Z</time>
      </trkpt>
      <trkpt lat="43.64226" lon="4.25657">
        <ele>67.478</ele>
        <time>2022-03-06T12:03:28.000Z</time>
      </trkpt>
      <trkpt lat="43.64226" lon="4.25645">
        <ele>69.641</ele>
        <time>2022-03-06T12:03:36.000Z</time>
      </trkpt>
      <trkpt lat="43.64224" lon="4.25632">
        <ele>67.32</ele>
        <time>2022-03-06T12:03:46.000Z</time>
      </trkpt>
      <trkpt lat="43.64225" lon="4.25619">
        <ele>70.217</ele>
        <time>2022-03-06T12:04:02.000Z</time>
      </trkpt>
      <trkpt lat="43.64223" lon="4.25605">
        <ele>65.947</ele>
        <time>2022-03-06T12:04:10.000Z</time>
      </trkpt>
      <trkpt lat="43.64223" lon="4.25592">
        <ele>66.606</ele>
        <time>2022-03-06T12:04:17.000Z</time>
      </trkpt>
      <trkpt lat="43.64218" lon="4.2558">
        <ele>68.016</ele>
        <time>2022-03-06T12:04:24.000Z</time>
      </trkpt>
      <trkpt lat="43.64216" lon="4.25568">
        <ele>67.577</ele>
        <time>2022-03-06T12:04:35.000Z</time>
      </trkpt>
      <trkpt lat="43.6421" lon="4.25557">
        <ele>67.314</ele>
        <time>2022-03-06T12:04:43.000Z</time>
      </trkpt>
      <trkpt lat="43.64203" lon="4.25549">
        <ele>68.596</ele>
        <time>2022-03-06T12:04:50.000Z</time>
      </trkpt>
      <trkpt lat="43.64197" lon="4.25539">
        <ele>68.813</ele>
        <time>2022-03-06T12:04:58.000Z</time>
      </trkpt>
      <trkpt lat="43.64192" lon="4.25529">
        <ele>66.956</ele>
        <time>2022-03-06T12:05:07.000Z</time>
      </trkpt>
      <trkpt lat="43.64186" lon="4.25519">
        <ele>68.536</ele>
        <time>2022-03-06T12:05:20.000Z</time>
      </trkpt>
      <trkpt lat="43.64179" lon="4.25509">
        <ele>69.495</ele>
        <time>2022-03-06T12:05:27.000Z</time>
      </trkpt>
      <trkpt lat="43.64171" lon="4.25503">
        <ele>69.495</ele>
        <time>2022-03-06T12:05:34.000Z</time>
      </trkpt>
      <trkpt lat="43.64164" lon="4.25492">
        <ele>67.555</ele>
        <time>2022-03-06T12:05:42.000Z</time>
      </trkpt>
      <trkpt lat="43.64157" lon="4.25481">
        <ele>69.477</ele>
        <time>2022-03-06T12:05:52.000Z</time>
      </trkpt>
      <trkpt lat="43.64151" lon="4.25472">
        <ele>66.156</ele>
        <time>2022-03-06T12:06:03.000Z</time>
      </trkpt>
      <trkpt lat="43.64142" lon="4.25469">
        <ele>66.427</ele>
        <time>2022-03-06T12:06:12.000Z</time>
      </trkpt>
      <trkpt lat="43.64134" lon="4.25461">
        <ele>67.267</ele>
        <time>2022-03-06T12:06:24.000Z</time>
      </trkpt>
      <trkpt lat="43.64126" lon="4.25453">
        <ele>65.058</ele>
        <time>2022-03-06T12:06:34.000Z</time>
      </trkpt>
      <trkpt lat="43.64119" lon="4.25445">
        <ele>66.214</ele>
        <time>2022-03-06T12:06:40.000Z</time>
      </trkpt>
      <trkpt lat="43.64112" lon="4.25434">
        <ele>65.286</ele>
        <time>2022-03-06T12:06:49.000Z</time>
      </trkpt>
      <trkpt lat="43.64105" lon="4.25426">
        <ele>68.151</ele>
        <time>2022-03-06T12:06:57.000Z</time>
      </trkpt>
      <trkpt lat="43.64097" lon="4.25418">
        <ele>65.3</ele>
        <time>2022-03-06T12:07:04.000Z</time>
      </trkpt>
      <trkpt lat="43.64093" lon="4.25406">
        <ele>65.405</ele>
        <time>2022-03-06T12:07:16.000Z</time>
      </trkpt>
      <trkpt lat="43.64084" lon="4.25401">
        <ele>66.121</ele>
        <time>2022-03-06T12:07:24.000Z</time>
      </trkpt>
      <trkpt lat="43.64074" lon="4.254">
        <ele>64.273</ele>
        <time>2022-03-06T12:07:31.000Z</time>
      </trkpt>
      <trkpt lat="43.64065" lon="4.25398">
        <ele>66.214</ele>
        <time>2022-03-06T12:07:37.000Z</time>
      </trkpt>
      <trkpt lat="43.64055" lon="4.25399">
        <ele>64.407</ele>
        <time>2022-03-06T12:07:46.000Z</time>
      </trkpt>
      <trkpt lat="43.64046" lon="4.25402">
        <ele>65.071</ele>
        <time>2022-03-06T12:07:54.000Z</time>
      </trkpt>
      <trkpt lat="43.64036" lon="4.25403">
        <ele>62.603</ele>
        <time>2022-03-06T12:08:03.000Z</time>
      </trkpt>
      <trkpt lat="43.64027" lon="4.25402">
        <ele>63.47</ele>
        <time>2022-03-06T12:08:11.000Z</time>
      </trkpt>
      <trkpt lat="43.64017" lon="4.25404">
        <ele>63.849</ele>
        <time>2022-03-06T12:08:21.000Z</time>
      </trkpt>
      <trkpt lat="43.64007" lon="4.25402">
        <ele>62.517</ele>
        <time>2022-03-06T12:08:28.000Z</time>
      </trkpt>
      <trkpt lat="43.63998" lon="4.25404">
        <ele>60.935</ele>
        <time>2022-03-06T12:08:36.000Z</time>
      </trkpt>
      <trkpt lat="43.64007" lon="4.25404">
        <ele>62.756</ele>
        <time>2022-03-06T12:08:48.000Z</time>
      </trkpt>
      <trkpt lat="43.64013" lon="4.25394">
        <ele>63.019</ele>
        <time>2022-03-06T12:08:55.000Z</time>
      </trkpt>
      <trkpt lat="43.64019" lon="4.25385">
        <ele>61.715</ele>
        <time>2022-03-06T12:09:02.000Z</time>
      </trkpt>
      <trkpt lat="43.64027" lon="4.25375">
        <ele>62.359</ele>
        <time>2022-03-06T12:09:12.000Z</time>
      </trkpt>
      <trkpt lat="43.64033" lon="4.25367">
        <ele>63.341</ele>
        <time>2022-03-06T12:09:19.000Z</time>
      </trkpt>
      <trkpt lat="43.6404" lon="4.25358">
        <ele>62.287</ele>
        <time>2022-03-06T12:09:28.000Z</time>
      </trkpt>
      <trkpt lat="43.64039" lon="4.25345">
        <ele>61.703</ele>
        <time>2022-03-06T12:09:36.000Z</time>
      </trkpt>
      <trkpt lat="43.64047" lon="4.25339">
        <ele>63.311</ele>
        <time>2022-03-06T12:09:47.000Z</time>
      </trkpt>
      <trkpt lat="43.64056" lon="4.25335">
        <ele>63.71</ele>
        <time>2022-03-06T12:09:54.000Z</time>
      </trkpt>
      <trkpt lat="43.64065" lon="4.25331">
        <ele>61.586</ele>
        <time>2022-03-06T12:10:00.000Z</time>
      </trkpt>
      <trkpt lat="43.64073" lon="4.25327">
        <ele>61.971</ele>
        <time>2022-03-06T12:10:09.000Z</time>
      </trkpt>
      <trkpt lat="43.64083" lon="4.25323">
        <ele>61.794</ele>
        <time>2022-03-06T12:10:17.000Z</time>
      </trkpt>
      <trkpt lat="43.64092" lon="4.25318">
        <ele>60.5</ele>
        <time>2022-03-06T12:10:25.000Z</time>
      </trkpt>
      <trkpt lat="43.64101" lon="4.25312">
        <ele>58.44</ele>
        <time>2022-03-06T12:10:34.000Z</time>
      </trkpt>
      <trkpt lat="43.64111" lon="4.25311">
        <ele>60.066</ele>
        <time>2022-03-06T12:10:42.000Z</time>
      </trkpt>
      <trkpt lat="43.64119" lon="4.25304">
        <ele>58.707</ele>
        <time>2022-03-06T12:10:52.000Z</time>
      </trkpt>
      <trkpt lat="43.64128" lon="4.25305">
        <ele>57.724</ele>
        <time>2022-03-06T12:11:00.000Z</time>
      </trkpt>
      <trkpt lat="43.64138" lon="4.25303">
        <ele>58.439</ele>
        <time>2022-03-06T12:11:07.000Z</time>
      </trkpt>
      <trkpt lat="43.64147" lon="4.25302">
        <ele>59.056</ele>
        <time>2022-03-06T12:11:15.000Z</time>
      </trkpt>
      <trkpt lat="43.64157" lon="4.25302">
        <ele>58.369</ele>
        <time>2022-03-06T12:11:24.000Z</time>
      </trkpt>
      <trkpt lat="43.64165" lon="4.25296">
        <ele>57.091</ele>
        <time>2022-03-06T12:11:29.000Z</time>
      </trkpt>
      <trkpt lat="43.64173" lon="4.25287">
        <ele>55.949</ele>
        <time>2022-03-06T12:11:39.000Z</time>
      </trkpt>
      <trkpt lat="43.64181" lon="4.25281">
        <ele>56.17</ele>
        <time>2022-03-06T12:11:46.000Z</time>
      </trkpt>
      <trkpt lat="43.6419" lon="4.25278">
        <ele>56.556</ele>
        <time>2022-03-06T12:11:52.000Z</time>
      </trkpt>
      <trkpt lat="43.64199" lon="4.25272">
        <ele>54.774</ele>
        <time>2022-03-06T12:12:00.000Z</time>
      </trkpt>
      <trkpt lat="43.64208" lon="4.25272">
        <ele>53.165</ele>
        <time>2022-03-06T12:12:10.000Z</time>
      </trkpt>
      <trkpt lat="43.64217" lon="4.25275">
        <ele>56.376</ele>
        <time>2022-03-06T12:12:18.000Z</time>
      </trkpt>
      <trkpt lat="43.64227" lon="4.25276">
        <ele>52.642</ele>
        <time>2022-03-06T12:12:25.000Z</time>
      </trkpt>
      <trkpt lat="43.64237" lon="4.25272">
        <ele>53.259</ele>
        <time>2022-03-06T12:12:35.000Z</time>
      </trkpt>
      <trkpt lat="43.64245" lon="4.25266">
        <ele>53.375</ele>
        <time>2022-03-06T12:12:48.000Z</time>
      </trkpt>
      <trkpt lat="43.64252" lon="4.25258">
        <ele>52.892</ele>
        <time>2022-03-06T12:12:57.000Z</time>
      </trkpt>
      <trkpt lat="43.64261" lon="4.25254">
        <ele>52.063</ele>
        <time>2022-03-06T12:13:04.000Z</time>
      </trkpt>
      <trkpt lat="43.64269" lon="4.25248">
        <ele>53.895</ele>
        <time>2022-03-06T12:13:12.000Z</time>
      </trkpt>
      <trkpt lat="43.64279" lon="4.25245">
        <ele>54.464</ele>
        <time>2022-03-06T12:13:21.000Z</time>
      </trkpt>
      <trkpt lat="43.64288" lon="4.2525">
        <ele>50.654</ele>
        <time>2022-03-06T12:13:29.000Z</time>
      </trkpt>
      <trkpt lat="43.64297" lon="4.25254">
        <ele>50.442</ele>
        <time>2022-03-06T12:13:38.000Z</time>
      </trkpt>
      <trkpt lat="43.64307" lon="4.25253">
        <ele>51.399</ele>
        <time>2022-03-06T12:13:46.000Z</time>
      </trkpt>
      <trkpt lat="43.64316" lon="4.25256">
        <ele>50.321</ele>
        <time>2022-03-06T12:13:55.000Z</time>
      </trkpt>
      <trkpt lat="43.64326" lon="4.25259">
        <ele>49.836</ele>
        <time>2022-03-06T12:14:01.000Z</time>
      </trkpt>
      <trkpt lat="43.64335" lon="4.25263">
        <ele>50.63</ele>
        <time>2022-03-06T12:14:08.000Z</time>
      </trkpt>
      <trkpt lat="43.64344" lon="4.25266">
        <ele>50.912</ele>
        <time>2022-03-06T12:14:17.000Z</time>
      </trkpt>
      <trkpt lat="43.64353" lon="4.25267">
        <ele>49.206</ele>
        <time>2022-03-06T12:14:26.000Z</time>
      </trkpt>
      <trkpt lat="43.64362" lon="4.25262">
        <ele>49.328</ele>
        <time>2022-03-06T12:14:37.000Z</time>
      </trkpt>
      <trkpt lat="43.64371" lon="4.25257">
        <ele>49.309</ele>
        <time>2022-03-06T12:14:45.000Z</time>
      </trkpt>
      <trkpt lat="43.6438" lon="4.25257">
        <ele>47.718</ele>
        <time>2022-03-06T12:14:51.000Z</time>
      </trkpt>
      <trkpt lat="43.64387" lon="4.2525">
        <ele>47.985</ele>
        <time>2022-03-06T12:14:59.000Z</time>
      </trkpt>
      <trkpt lat="43.64388" lon="4.25238">
        <ele>49.045</ele>
        <time>2022-03-06T12:15:14.000Z</time>
      </trkpt>
      <trkpt lat="43.64386" lon="4.25226">
        <ele>46.507</ele>
        <time>2022-03-06T12:15:24.000Z</time>
      </trkpt>
      <trkpt lat="43.64381" lon="4.25214">
        <ele>46.603</ele>
        <time>2022-03-06T12:15:33.000Z</time>
      </trkpt>
      <trkpt lat="43.64374" lon="4.25206">
        <ele>46.637</ele>
        <time>2022-03-06T12:15:41.000Z</time>
      </trkpt>
      <trkpt lat="43.64369" lon="4.25196">
        <ele>45.618</ele>
        <time>2022-03-06T12:15:50.000Z</time>
      </trkpt>
      <trkpt lat="43.64363" lon="4.25187">
        <ele>45.814</ele>
        <time>2022-03-06T12:15:59.000Z</time>
      </trkpt>
      <trkpt lat="43.64357" lon="4.25176">
        <ele>46.548</ele>
        <time>2022-03-06T12:16:08.000Z</time>
      </trkpt>
      <trkpt lat="43.64349" lon="4.25169">
        <ele>45.209</ele>
        <time>2022-03-06T12:16:21.000Z</time>
      </trkpt>
      <trkpt lat="43.64345" lon="4.25157">
        <ele>43.477</ele>
        <time>2022-03-06T12:16:28.000Z</time>
      </trkpt>
      <trkpt lat="43.64341" lon="4.25146">
        <ele>44.571</ele>
        <time>2022-03-06T12:16:47.000Z</time>
      </trkpt>
      <trkpt lat="43.64335" lon="4.25134">
        <ele>45.428</ele>
        <time>2022-03-06T12:17:23.000Z</time>
      </trkpt>
      <trkpt lat="43.64328" lon="4.25125">
        <ele>45.057</ele>
        <time>2022-03-06T12:17:31.000Z</time>
      </trkpt>
      <trkpt lat="43.64323" lon="4.25113">
        <ele>47.268</ele>
        <time>2022-03-06T12:17:39.000Z</time>
      </trkpt>
      <trkpt lat="43.6432" lon="4.25099">
        <ele>45.794</ele>
        <time>2022-03-06T12:17:44.000Z</time>
      </trkpt>
      <trkpt lat="43.64315" lon="4.25088">
        <ele>45.379</ele>
        <time>2022-03-06T12:17:53.000Z</time>
      </trkpt>
      <trkpt lat="43.64309" lon="4.25079">
        <ele>45.185</ele>
        <time>2022-03-06T12:18:01.000Z</time>
      </trkpt>
      <trkpt lat="43.64302" lon="4.2507">
        <ele>45.776</ele>
        <time>2022-03-06T12:18:10.000Z</time>
      </trkpt>
      <trkpt lat="43.64297" lon="4.25059">
        <ele>41.896</ele>
        <time>2022-03-06T12:18:19.000Z</time>
      </trkpt>
      <trkpt lat="43.64293" lon="4.25047">
        <ele>44.524</ele>
        <time>2022-03-06T12:18:29.000Z</time>
      </trkpt>
      <trkpt lat="43.64286" lon="4.2504">
        <ele>43.575</ele>
        <time>2022-03-06T12:18:35.000Z</time>
      </trkpt>
      <trkpt lat="43.64278" lon="4.25032">
        <ele>44.687</ele>
        <time>2022-03-06T12:18:45.000Z</time>
      </trkpt>
      <trkpt lat="43.64276" lon="4.2502">
        <ele>46.084</ele>
        <time>2022-03-06T12:18:53.000Z</time>
      </trkpt>
      <trkpt lat="43.64269" lon="4.25011">
        <ele>46.354</ele>
        <time>2022-03-06T12:19:03.000Z</time>
      </trkpt>
      <trkpt lat="43.64263" lon="4.25">
        <ele>45.852</ele>
        <time>2022-03-06T12:19:09.000Z</time>
      </trkpt>
      <trkpt lat="43.64257" lon="4.24991">
        <ele>45.493</ele>
        <time>2022-03-06T12:19:16.000Z</time>
      </trkpt>
      <trkpt lat="43.64251" lon="4.24982">
        <ele>46.836</ele>
        <time>2022-03-06T12:19:26.000Z</time>
      </trkpt>
      <trkpt lat="43.64245" lon="4.24971">
        <ele>45.414</ele>
        <time>2022-03-06T12:19:37.000Z</time>
      </trkpt>
      <trkpt lat="43.64239" lon="4.24961">
        <ele>45.725</ele>
        <time>2022-03-06T12:19:46.000Z</time>
      </trkpt>
      <trkpt lat="43.64233" lon="4.24952">
        <ele>45.595</ele>
        <time>2022-03-06T12:19:54.000Z</time>
      </trkpt>
      <trkpt lat="43.64228" lon="4.24941">
        <ele>45.128</ele>
        <time>2022-03-06T12:20:01.000Z</time>
      </trkpt>
      <trkpt lat="43.64225" lon="4.24929">
        <ele>46.464</ele>
        <time>2022-03-06T12:20:07.000Z</time>
      </trkpt>
      <trkpt lat="43.64219" lon="4.24919">
        <ele>43.652</ele>
        <time>2022-03-06T12:20:16.000Z</time>
      </trkpt>
      <trkpt lat="43.64214" lon="4.24908">
        <ele>43.457</ele>
        <time>2022-03-06T12:20:24.000Z</time>
      </trkpt>
      <trkpt lat="43.64208" lon="4.24898">
        <ele>46.416</ele>
        <time>2022-03-06T12:20:31.000Z</time>
      </trkpt>
      <trkpt lat="43.64203" lon="4.24887">
        <ele>45.777</ele>
        <time>2022-03-06T12:20:41.000Z</time>
      </trkpt>
      <trkpt lat="43.64204" lon="4.24875">
        <ele>47.954</ele>
        <time>2022-03-06T12:20:53.000Z</time>
      </trkpt>
      <trkpt lat="43.64208" lon="4.24863">
        <ele>47.377</ele>
        <time>2022-03-06T12:20:59.000Z</time>
      </trkpt>
      <trkpt lat="43.64214" lon="4.24853">
        <ele>46.16</ele>
        <time>2022-03-06T12:21:14.000Z</time>
      </trkpt>
      <trkpt lat="43.64216" lon="4.2484">
        <ele>47.216</ele>
        <time>2022-03-06T12:21:21.000Z</time>
      </trkpt>
      <trkpt lat="43.6422" lon="4.24828">
        <ele>45.795</ele>
        <time>2022-03-06T12:21:27.000Z</time>
      </trkpt>
      <trkpt lat="43.6422" lon="4.24815">
        <ele>45.976</ele>
        <time>2022-03-06T12:21:35.000Z</time>
      </trkpt>
      <trkpt lat="43.64223" lon="4.24803">
        <ele>46.423</ele>
        <time>2022-03-06T12:21:41.000Z</time>
      </trkpt>
      <trkpt lat="43.64228" lon="4.24792">
        <ele>47.232</ele>
        <time>2022-03-06T12:21:50.000Z</time>
      </trkpt>
      <trkpt lat="43.64232" lon="4.24781">
        <ele>46.137</ele>
        <time>2022-03-06T12:21:59.000Z</time>
      </trkpt>
      <trkpt lat="43.64236" lon="4.24769">
        <ele>46.859</ele>
        <time>2022-03-06T12:22:08.000Z</time>
      </trkpt>
      <trkpt lat="43.64239" lon="4.24756">
        <ele>44.693</ele>
        <time>2022-03-06T12:22:15.000Z</time>
      </trkpt>
      <trkpt lat="43.64243" lon="4.24744">
        <ele>47.252</ele>
        <time>2022-03-06T12:22:24.000Z</time>
      </trkpt>
      <trkpt lat="43.64244" lon="4.24731">
        <ele>46.414</ele>
        <time>2022-03-06T12:22:41.000Z</time>
      </trkpt>
      <trkpt lat="43.64247" lon="4.24718">
        <ele>45.976</ele>
        <time>2022-03-06T12:22:47.000Z</time>
      </trkpt>
      <trkpt lat="43.64251" lon="4.24706">
        <ele>46.963</ele>
        <time>2022-03-06T12:22:53.000Z</time>
      </trkpt>
      <trkpt lat="43.64257" lon="4.24693">
        <ele>45.856</ele>
        <time>2022-03-06T12:23:02.000Z</time>
      </trkpt>
      <trkpt lat="43.6426" lon="4.24681">
        <ele>46.416</ele>
        <time>2022-03-06T12:23:08.000Z</time>
      </trkpt>
      <trkpt lat="43.64264" lon="4.24669">
        <ele>47.555</ele>
        <time>2022-03-06T12:23:16.000Z</time>
      </trkpt>
      <trkpt lat="43.64262" lon="4.24656">
        <ele>48.11</ele>
        <time>2022-03-06T12:23:25.000Z</time>
      </trkpt>
      <trkpt lat="43.64255" lon="4.24649">
        <ele>46.168</ele>
        <time>2022-03-06T12:23:32.000Z</time>
      </trkpt>
      <trkpt lat="43.64246" lon="4.24644">
        <ele>45.465</ele>
        <time>2022-03-06T12:23:40.000Z</time>
      </trkpt>
      <trkpt lat="43.64239" lon="4.24635">
        <ele>48.131</ele>
        <time>2022-03-06T12:23:48.000Z</time>
      </trkpt>
      <trkpt lat="43.6423" lon="4.24635">
        <ele>45.779</ele>
        <time>2022-03-06T12:23:55.000Z</time>
      </trkpt>
      <trkpt lat="43.64222" lon="4.24627">
        <ele>47.457</ele>
        <time>2022-03-06T12:24:04.000Z</time>
      </trkpt>
      <trkpt lat="43.64213" lon="4.24622">
        <ele>48.517</ele>
        <time>2022-03-06T12:24:12.000Z</time>
      </trkpt>
      <trkpt lat="43.64204" lon="4.24619">
        <ele>47.585</ele>
        <time>2022-03-06T12:24:20.000Z</time>
      </trkpt>
      <trkpt lat="43.64198" lon="4.2461">
        <ele>47.901</ele>
        <time>2022-03-06T12:24:28.000Z</time>
      </trkpt>
      <trkpt lat="43.6419" lon="4.24603">
        <ele>47.533</ele>
        <time>2022-03-06T12:24:38.000Z</time>
      </trkpt>
      <trkpt lat="43.64181" lon="4.24596">
        <ele>24.667</ele>
        <time>2022-03-06T12:24:46.000Z</time>
      </trkpt>
      <trkpt lat="43.64173" lon="4.24589">
        <ele>48.28</ele>
        <time>2022-03-06T12:24:53.000Z</time>
      </trkpt>
      <trkpt lat="43.64165" lon="4.24585">
        <ele>47.663</ele>
        <time>2022-03-06T12:25:02.000Z</time>
      </trkpt>
      <trkpt lat="43.64156" lon="4.24581">
        <ele>48.957</ele>
        <time>2022-03-06T12:25:09.000Z</time>
      </trkpt>
      <trkpt lat="43.64147" lon="4.24578">
        <ele>48.176</ele>
        <time>2022-03-06T12:25:17.000Z</time>
      </trkpt>
      <trkpt lat="43.64139" lon="4.24571">
        <ele>48.252</ele>
        <time>2022-03-06T12:25:25.000Z</time>
      </trkpt>
      <trkpt lat="43.64132" lon="4.24564">
        <ele>49.08</ele>
        <time>2022-03-06T12:25:34.000Z</time>
      </trkpt>
      <trkpt lat="43.64123" lon="4.24559">
        <ele>49.928</ele>
        <time>2022-03-06T12:25:41.000Z</time>
      </trkpt>
      <trkpt lat="43.64114" lon="4.24553">
        <ele>49.48</ele>
        <time>2022-03-06T12:25:50.000Z</time>
      </trkpt>
      <trkpt lat="43.64105" lon="4.24549">
        <ele>48.324</ele>
        <time>2022-03-06T12:25:58.000Z</time>
      </trkpt>
      <trkpt lat="43.64096" lon="4.24547">
        <ele>46.821</ele>
        <time>2022-03-06T12:26:05.000Z</time>
      </trkpt>
      <trkpt lat="43.64088" lon="4.24541">
        <ele>48.132</ele>
        <time>2022-03-06T12:26:13.000Z</time>
      </trkpt>
      <trkpt lat="43.64079" lon="4.24537">
        <ele>47.503</ele>
        <time>2022-03-06T12:26:21.000Z</time>
      </trkpt>
      <trkpt lat="43.6407" lon="4.24533">
        <ele>47.326</ele>
        <time>2022-03-06T12:26:29.000Z</time>
      </trkpt>
      <trkpt lat="43.64062" lon="4.24526">
        <ele>49.919</ele>
        <time>2022-03-06T12:26:38.000Z</time>
      </trkpt>
      <trkpt lat="43.64054" lon="4.24521">
        <ele>50.65</ele>
        <time>2022-03-06T12:26:45.000Z</time>
      </trkpt>
      <trkpt lat="43.64045" lon="4.24514">
        <ele>46.658</ele>
        <time>2022-03-06T12:26:53.000Z</time>
      </trkpt>
      <trkpt lat="43.64036" lon="4.24512">
        <ele>47.652</ele>
        <time>2022-03-06T12:27:02.000Z</time>
      </trkpt>
      <trkpt lat="43.64027" lon="4.24506">
        <ele>46.666</ele>
        <time>2022-03-06T12:27:10.000Z</time>
      </trkpt>
      <trkpt lat="43.64022" lon="4.24496">
        <ele>43.519</ele>
        <time>2022-03-06T12:27:20.000Z</time>
      </trkpt>
      <trkpt lat="43.64013" lon="4.2449">
        <ele>47.315</ele>
        <time>2022-03-06T12:27:30.000Z</time>
      </trkpt>
      <trkpt lat="43.64004" lon="4.24487">
        <ele>49.204</ele>
        <time>2022-03-06T12:27:37.000Z</time>
      </trkpt>
      <trkpt lat="43.63995" lon="4.24482">
        <ele>49.003</ele>
        <time>2022-03-06T12:27:44.000Z</time>
      </trkpt>
      <trkpt lat="43.63987" lon="4.24477">
        <ele>47.154</ele>
        <time>2022-03-06T12:27:51.000Z</time>
      </trkpt>
      <trkpt lat="43.63978" lon="4.24472">
        <ele>48.7</ele>
        <time>2022-03-06T12:28:00.000Z</time>
      </trkpt>
      <trkpt lat="43.6397" lon="4.24467">
        <ele>48.016</ele>
        <time>2022-03-06T12:28:07.000Z</time>
      </trkpt>
      <trkpt lat="43.63962" lon="4.24462">
        <ele>46.753</ele>
        <time>2022-03-06T12:28:14.000Z</time>
      </trkpt>
      <trkpt lat="43.63953" lon="4.24457">
        <ele>47.55</ele>
        <time>2022-03-06T12:28:21.000Z</time>
      </trkpt>
      <trkpt lat="43.63945" lon="4.24452">
        <ele>48.665</ele>
        <time>2022-03-06T12:28:28.000Z</time>
      </trkpt>
      <trkpt lat="43.63937" lon="4.24447">
        <ele>48.709</ele>
        <time>2022-03-06T12:28:35.000Z</time>
      </trkpt>
      <trkpt lat="43.63928" lon="4.24439">
        <ele>46.835</ele>
        <time>2022-03-06T12:28:47.000Z</time>
      </trkpt>
      <trkpt lat="43.6392" lon="4.24433">
        <ele>47.438</ele>
        <time>2022-03-06T12:28:54.000Z</time>
      </trkpt>
      <trkpt lat="43.63911" lon="4.24427">
        <ele>49.352</ele>
        <time>2022-03-06T12:29:02.000Z</time>
      </trkpt>
      <trkpt lat="43.63902" lon="4.24424">
        <ele>50.027</ele>
        <time>2022-03-06T12:29:10.000Z</time>
      </trkpt>
      <trkpt lat="43.63893" lon="4.24418">
        <ele>48.2</ele>
        <time>2022-03-06T12:29:22.000Z</time>
      </trkpt>
      <trkpt lat="43.63885" lon="4.24414">
        <ele>48.473</ele>
        <time>2022-03-06T12:29:30.000Z</time>
      </trkpt>
      <trkpt lat="43.63877" lon="4.24407">
        <ele>46.922</ele>
        <time>2022-03-06T12:29:37.000Z</time>
      </trkpt>
      <trkpt lat="43.6387" lon="4.24399">
        <ele>48.229</ele>
        <time>2022-03-06T12:29:45.000Z</time>
      </trkpt>
      <trkpt lat="43.63861" lon="4.24403">
        <ele>47.338</ele>
        <time>2022-03-06T12:30:04.000Z</time>
      </trkpt>
      <trkpt lat="43.63851" lon="4.24399">
        <ele>48.454</ele>
        <time>2022-03-06T12:30:10.000Z</time>
      </trkpt>
      <trkpt lat="43.63842" lon="4.24393">
        <ele>48.84</ele>
        <time>2022-03-06T12:30:17.000Z</time>
      </trkpt>
      <trkpt lat="43.63834" lon="4.2439">
        <ele>49.389</ele>
        <time>2022-03-06T12:30:26.000Z</time>
      </trkpt>
      <trkpt lat="43.63825" lon="4.24383">
        <ele>48.857</ele>
        <time>2022-03-06T12:30:33.000Z</time>
      </trkpt>
      <trkpt lat="43.63818" lon="4.24375">
        <ele>46.165</ele>
        <time>2022-03-06T12:30:41.000Z</time>
      </trkpt>
      <trkpt lat="43.63809" lon="4.24373">
        <ele>48.113</ele>
        <time>2022-03-06T12:30:49.000Z</time>
      </trkpt>
      <trkpt lat="43.638" lon="4.24367">
        <ele>48.935</ele>
        <time>2022-03-06T12:30:56.000Z</time>
      </trkpt>
      <trkpt lat="43.63793" lon="4.24359">
        <ele>48.952</ele>
        <time>2022-03-06T12:31:05.000Z</time>
      </trkpt>
      <trkpt lat="43.63783" lon="4.24355">
        <ele>47.747</ele>
        <time>2022-03-06T12:31:13.000Z</time>
      </trkpt>
      <trkpt lat="43.63774" lon="4.24353">
        <ele>47.671</ele>
        <time>2022-03-06T12:31:20.000Z</time>
      </trkpt>
      <trkpt lat="43.63767" lon="4.24344">
        <ele>50.154</ele>
        <time>2022-03-06T12:31:28.000Z</time>
      </trkpt>
      <trkpt lat="43.63759" lon="4.24335">
        <ele>46.526</ele>
        <time>2022-03-06T12:31:36.000Z</time>
      </trkpt>
      <trkpt lat="43.63751" lon="4.24328">
        <ele>47.508</ele>
        <time>2022-03-06T12:31:43.000Z</time>
      </trkpt>
      <trkpt lat="43.63742" lon="4.24324">
        <ele>49.429</ele>
        <time>2022-03-06T12:31:51.000Z</time>
      </trkpt>
      <trkpt lat="43.63733" lon="4.24323">
        <ele>47.121</ele>
        <time>2022-03-06T12:32:00.000Z</time>
      </trkpt>
      <trkpt lat="43.63724" lon="4.24319">
        <ele>47.42</ele>
        <time>2022-03-06T12:32:09.000Z</time>
      </trkpt>
      <trkpt lat="43.63715" lon="4.24313">
        <ele>48.084</ele>
        <time>2022-03-06T12:32:20.000Z</time>
      </trkpt>
      <trkpt lat="43.63706" lon="4.24308">
        <ele>47.357</ele>
        <time>2022-03-06T12:32:28.000Z</time>
      </trkpt>
      <trkpt lat="43.63698" lon="4.24303">
        <ele>45.294</ele>
        <time>2022-03-06T12:32:36.000Z</time>
      </trkpt>
      <trkpt lat="43.63689" lon="4.24298">
        <ele>50.497</ele>
        <time>2022-03-06T12:32:44.000Z</time>
      </trkpt>
      <trkpt lat="43.63681" lon="4.24292">
        <ele>50.315</ele>
        <time>2022-03-06T12:32:51.000Z</time>
      </trkpt>
      <trkpt lat="43.63672" lon="4.24286">
        <ele>46.346</ele>
        <time>2022-03-06T12:33:01.000Z</time>
      </trkpt>
      <trkpt lat="43.63664" lon="4.2428">
        <ele>49.145</ele>
        <time>2022-03-06T12:33:10.000Z</time>
      </trkpt>
      <trkpt lat="43.63656" lon="4.24274">
        <ele>50.86</ele>
        <time>2022-03-06T12:33:17.000Z</time>
      </trkpt>
      <trkpt lat="43.63647" lon="4.2427">
        <ele>48.808</ele>
        <time>2022-03-06T12:33:24.000Z</time>
      </trkpt>
      <trkpt lat="43.63638" lon="4.24265">
        <ele>49.485</ele>
        <time>2022-03-06T12:33:32.000Z</time>
      </trkpt>
      <trkpt lat="43.63629" lon="4.24262">
        <ele>49.858</ele>
        <time>2022-03-06T12:33:42.000Z</time>
      </trkpt>
      <trkpt lat="43.6362" lon="4.24256">
        <ele>50.578</ele>
        <time>2022-03-06T12:33:50.000Z</time>
      </trkpt>
      <trkpt lat="43.63612" lon="4.2425">
        <ele>48.896</ele>
        <time>2022-03-06T12:33:58.000Z</time>
      </trkpt>
      <trkpt lat="43.63604" lon="4.24243">
        <ele>49.069</ele>
        <time>2022-03-06T12:34:06.000Z</time>
      </trkpt>
      <trkpt lat="43.63596" lon="4.24237">
        <ele>50.77</ele>
        <time>2022-03-06T12:34:13.000Z</time>
      </trkpt>
      <trkpt lat="43.63588" lon="4.2423">
        <ele>49.483</ele>
        <time>2022-03-06T12:34:21.000Z</time>
      </trkpt>
      <trkpt lat="43.63579" lon="4.24226">
        <ele>46.455</ele>
        <time>2022-03-06T12:34:29.000Z</time>
      </trkpt>
      <trkpt lat="43.6357" lon="4.24222">
        <ele>48.765</ele>
        <time>2022-03-06T12:34:37.000Z</time>
      </trkpt>
      <trkpt lat="43.63562" lon="4.24216">
        <ele>50.01</ele>
        <time>2022-03-06T12:34:46.000Z</time>
      </trkpt>
      <trkpt lat="43.63553" lon="4.24209">
        <ele>49.239</ele>
        <time>2022-03-06T12:34:54.000Z</time>
      </trkpt>
      <trkpt lat="43.63548" lon="4.24199">
        <ele>51.888</ele>
        <time>2022-03-06T12:35:12.000Z</time>
      </trkpt>
      <trkpt lat="43.63554" lon="4.24188">
        <ele>50.737</ele>
        <time>2022-03-06T12:35:21.000Z</time>
      </trkpt>
      <trkpt lat="43.63558" lon="4.24177">
        <ele>50.073</ele>
        <time>2022-03-06T12:35:29.000Z</time>
      </trkpt>
      <trkpt lat="43.63568" lon="4.24178">
        <ele>50.009</ele>
        <time>2022-03-06T12:35:41.000Z</time>
      </trkpt>
      <trkpt lat="43.63575" lon="4.24187">
        <ele>50.98</ele>
        <time>2022-03-06T12:35:48.000Z</time>
      </trkpt>
      <trkpt lat="43.63584" lon="4.24194">
        <ele>50.956</ele>
        <time>2022-03-06T12:35:59.000Z</time>
      </trkpt>
      <trkpt lat="43.6359" lon="4.24203">
        <ele>51.168</ele>
        <time>2022-03-06T12:36:09.000Z</time>
      </trkpt>
      <trkpt lat="43.63599" lon="4.24205">
        <ele>52.46</ele>
        <time>2022-03-06T12:47:08.000Z</time>
      </trkpt>
      <trkpt lat="43.63609" lon="4.24206">
        <ele>54.197</ele>
        <time>2022-03-06T12:47:15.000Z</time>
      </trkpt>
      <trkpt lat="43.6362" lon="4.24214">
        <ele>53.223</ele>
        <time>2022-03-06T12:47:24.000Z</time>
      </trkpt>
      <trkpt lat="43.63629" lon="4.24218">
        <ele>53.758</ele>
        <time>2022-03-06T12:47:37.000Z</time>
      </trkpt>
      <trkpt lat="43.63637" lon="4.24224">
        <ele>54.775</ele>
        <time>2022-03-06T12:47:53.000Z</time>
      </trkpt>
      <trkpt lat="43.63644" lon="4.24232">
        <ele>54.089</ele>
        <time>2022-03-06T12:48:07.000Z</time>
      </trkpt>
      <trkpt lat="43.63649" lon="4.24242">
        <ele>53.383</ele>
        <time>2022-03-06T12:48:50.000Z</time>
      </trkpt>
      <trkpt lat="43.63659" lon="4.24244">
        <ele>53.167</ele>
        <time>2022-03-06T12:48:58.000Z</time>
      </trkpt>
      <trkpt lat="43.63669" lon="4.24246">
        <ele>52.063</ele>
        <time>2022-03-06T12:49:06.000Z</time>
      </trkpt>
      <trkpt lat="43.63675" lon="4.24255">
        <ele>53.191</ele>
        <time>2022-03-06T12:49:12.000Z</time>
      </trkpt>
      <trkpt lat="43.63684" lon="4.24258">
        <ele>53.184</ele>
        <time>2022-03-06T12:49:20.000Z</time>
      </trkpt>
      <trkpt lat="43.63693" lon="4.24262">
        <ele>53.34</ele>
        <time>2022-03-06T12:49:29.000Z</time>
      </trkpt>
      <trkpt lat="43.63702" lon="4.24263">
        <ele>52.006</ele>
        <time>2022-03-06T12:49:42.000Z</time>
      </trkpt>
      <trkpt lat="43.6371" lon="4.24269">
        <ele>53.607</ele>
        <time>2022-03-06T12:49:50.000Z</time>
      </trkpt>
      <trkpt lat="43.63718" lon="4.24275">
        <ele>52.228</ele>
        <time>2022-03-06T12:49:58.000Z</time>
      </trkpt>
      <trkpt lat="43.63726" lon="4.24283">
        <ele>52.17</ele>
        <time>2022-03-06T12:50:06.000Z</time>
      </trkpt>
      <trkpt lat="43.63735" lon="4.24285">
        <ele>53.496</ele>
        <time>2022-03-06T12:50:13.000Z</time>
      </trkpt>
      <trkpt lat="43.63744" lon="4.24285">
        <ele>51.922</ele>
        <time>2022-03-06T12:50:23.000Z</time>
      </trkpt>
      <trkpt lat="43.63753" lon="4.24288">
        <ele>52.525</ele>
        <time>2022-03-06T12:50:31.000Z</time>
      </trkpt>
      <trkpt lat="43.63761" lon="4.24294">
        <ele>52.87</ele>
        <time>2022-03-06T12:50:40.000Z</time>
      </trkpt>
      <trkpt lat="43.63769" lon="4.24301">
        <ele>52.34</ele>
        <time>2022-03-06T12:50:46.000Z</time>
      </trkpt>
      <trkpt lat="43.63777" lon="4.24307">
        <ele>54.061</ele>
        <time>2022-03-06T12:50:52.000Z</time>
      </trkpt>
      <trkpt lat="43.63785" lon="4.24315">
        <ele>53.053</ele>
        <time>2022-03-06T12:51:01.000Z</time>
      </trkpt>
      <trkpt lat="43.63795" lon="4.24318">
        <ele>53.382</ele>
        <time>2022-03-06T12:51:11.000Z</time>
      </trkpt>
      <trkpt lat="43.63803" lon="4.24322">
        <ele>51.926</ele>
        <time>2022-03-06T12:51:20.000Z</time>
      </trkpt>
      <trkpt lat="43.63812" lon="4.24325">
        <ele>51.167</ele>
        <time>2022-03-06T12:51:30.000Z</time>
      </trkpt>
      <trkpt lat="43.63819" lon="4.24334">
        <ele>53.054</ele>
        <time>2022-03-06T12:51:46.000Z</time>
      </trkpt>
      <trkpt lat="43.63827" lon="4.24342">
        <ele>51.98</ele>
        <time>2022-03-06T12:51:53.000Z</time>
      </trkpt>
      <trkpt lat="43.63837" lon="4.2435">
        <ele>52.537</ele>
        <time>2022-03-06T12:51:59.000Z</time>
      </trkpt>
      <trkpt lat="43.63846" lon="4.24357">
        <ele>54.706</ele>
        <time>2022-03-06T12:52:05.000Z</time>
      </trkpt>
      <trkpt lat="43.63855" lon="4.2436">
        <ele>52.233</ele>
        <time>2022-03-06T12:52:13.000Z</time>
      </trkpt>
      <trkpt lat="43.63863" lon="4.24365">
        <ele>51.832</ele>
        <time>2022-03-06T12:52:21.000Z</time>
      </trkpt>
      <trkpt lat="43.63871" lon="4.24372">
        <ele>53.552</ele>
        <time>2022-03-06T12:52:27.000Z</time>
      </trkpt>
      <trkpt lat="43.63879" lon="4.2438">
        <ele>53.083</ele>
        <time>2022-03-06T12:52:35.000Z</time>
      </trkpt>
      <trkpt lat="43.63888" lon="4.24383">
        <ele>51.059</ele>
        <time>2022-03-06T12:52:42.000Z</time>
      </trkpt>
      <trkpt lat="43.63897" lon="4.24385">
        <ele>52.467</ele>
        <time>2022-03-06T12:52:51.000Z</time>
      </trkpt>
      <trkpt lat="43.63907" lon="4.2439">
        <ele>54.346</ele>
        <time>2022-03-06T12:53:08.000Z</time>
      </trkpt>
      <trkpt lat="43.63915" lon="4.24396">
        <ele>54.305</ele>
        <time>2022-03-06T12:53:15.000Z</time>
      </trkpt>
      <trkpt lat="43.63923" lon="4.24401">
        <ele>53.98</ele>
        <time>2022-03-06T12:53:22.000Z</time>
      </trkpt>
      <trkpt lat="43.63932" lon="4.24404">
        <ele>53.355</ele>
        <time>2022-03-06T12:53:29.000Z</time>
      </trkpt>
      <trkpt lat="43.63941" lon="4.24409">
        <ele>54.27</ele>
        <time>2022-03-06T12:53:40.000Z</time>
      </trkpt>
      <trkpt lat="43.6395" lon="4.24414">
        <ele>52.736</ele>
        <time>2022-03-06T12:53:49.000Z</time>
      </trkpt>
      <trkpt lat="43.63959" lon="4.24421">
        <ele>53.358</ele>
        <time>2022-03-06T12:53:57.000Z</time>
      </trkpt>
      <trkpt lat="43.63968" lon="4.24426">
        <ele>51.38</ele>
        <time>2022-03-06T12:54:07.000Z</time>
      </trkpt>
      <trkpt lat="43.63977" lon="4.24432">
        <ele>53.932</ele>
        <time>2022-03-06T12:54:12.000Z</time>
      </trkpt>
      <trkpt lat="43.63986" lon="4.24437">
        <ele>54.119</ele>
        <time>2022-03-06T12:54:19.000Z</time>
      </trkpt>
      <trkpt lat="43.63995" lon="4.24445">
        <ele>52.161</ele>
        <time>2022-03-06T12:54:26.000Z</time>
      </trkpt>
      <trkpt lat="43.64001" lon="4.24456">
        <ele>53.801</ele>
        <time>2022-03-06T12:54:37.000Z</time>
      </trkpt>
      <trkpt lat="43.64009" lon="4.24463">
        <ele>52.635</ele>
        <time>2022-03-06T12:54:47.000Z</time>
      </trkpt>
      <trkpt lat="43.64019" lon="4.24467">
        <ele>52.449</ele>
        <time>2022-03-06T12:54:55.000Z</time>
      </trkpt>
      <trkpt lat="43.64028" lon="4.2447">
        <ele>52.721</ele>
        <time>2022-03-06T12:55:05.000Z</time>
      </trkpt>
      <trkpt lat="43.64037" lon="4.24471">
        <ele>54.338</ele>
        <time>2022-03-06T12:55:11.000Z</time>
      </trkpt>
      <trkpt lat="43.64046" lon="4.24477">
        <ele>55.556</ele>
        <time>2022-03-06T12:55:23.000Z</time>
      </trkpt>
      <trkpt lat="43.64055" lon="4.24489">
        <ele>51.806</ele>
        <time>2022-03-06T12:55:28.000Z</time>
      </trkpt>
      <trkpt lat="43.64065" lon="4.24493">
        <ele>52.66</ele>
        <time>2022-03-06T12:55:35.000Z</time>
      </trkpt>
      <trkpt lat="43.64074" lon="4.24494">
        <ele>54.233</ele>
        <time>2022-03-06T12:55:42.000Z</time>
      </trkpt>
      <trkpt lat="43.64083" lon="4.24497">
        <ele>52.147</ele>
        <time>2022-03-06T12:55:51.000Z</time>
      </trkpt>
      <trkpt lat="43.6409" lon="4.24506">
        <ele>53.055</ele>
        <time>2022-03-06T12:55:58.000Z</time>
      </trkpt>
      <trkpt lat="43.641" lon="4.2451">
        <ele>52.798</ele>
        <time>2022-03-06T12:56:05.000Z</time>
      </trkpt>
      <trkpt lat="43.64109" lon="4.24515">
        <ele>51.363</ele>
        <time>2022-03-06T12:56:13.000Z</time>
      </trkpt>
      <trkpt lat="43.64116" lon="4.24523">
        <ele>50.89</ele>
        <time>2022-03-06T12:56:22.000Z</time>
      </trkpt>
      <trkpt lat="43.64126" lon="4.24526">
        <ele>52.467</ele>
        <time>2022-03-06T12:56:33.000Z</time>
      </trkpt>
      <trkpt lat="43.64134" lon="4.2453">
        <ele>53.237</ele>
        <time>2022-03-06T12:56:45.000Z</time>
      </trkpt>
      <trkpt lat="43.64142" lon="4.24538">
        <ele>50.913</ele>
        <time>2022-03-06T12:56:52.000Z</time>
      </trkpt>
      <trkpt lat="43.64151" lon="4.24543">
        <ele>51.764</ele>
        <time>2022-03-06T12:56:58.000Z</time>
      </trkpt>
      <trkpt lat="43.64161" lon="4.24546">
        <ele>53.915</ele>
        <time>2022-03-06T12:57:07.000Z</time>
      </trkpt>
      <trkpt lat="43.64169" lon="4.24552">
        <ele>52.387</ele>
        <time>2022-03-06T12:57:14.000Z</time>
      </trkpt>
      <trkpt lat="43.6418" lon="4.24556">
        <ele>53.271</ele>
        <time>2022-03-06T12:57:21.000Z</time>
      </trkpt>
      <trkpt lat="43.64189" lon="4.2456">
        <ele>52.148</ele>
        <time>2022-03-06T12:57:28.000Z</time>
      </trkpt>
      <trkpt lat="43.64197" lon="4.24567">
        <ele>53.522</ele>
        <time>2022-03-06T12:57:37.000Z</time>
      </trkpt>
      <trkpt lat="43.64206" lon="4.2457">
        <ele>53</ele>
        <time>2022-03-06T12:57:45.000Z</time>
      </trkpt>
      <trkpt lat="43.64215" lon="4.24577">
        <ele>52.937</ele>
        <time>2022-03-06T12:57:54.000Z</time>
      </trkpt>
      <trkpt lat="43.64223" lon="4.24582">
        <ele>52.95</ele>
        <time>2022-03-06T12:58:02.000Z</time>
      </trkpt>
      <trkpt lat="43.64231" lon="4.24588">
        <ele>52.682</ele>
        <time>2022-03-06T12:58:14.000Z</time>
      </trkpt>
      <trkpt lat="43.6424" lon="4.24594">
        <ele>53.388</ele>
        <time>2022-03-06T12:58:24.000Z</time>
      </trkpt>
      <trkpt lat="43.64248" lon="4.246">
        <ele>54.612</ele>
        <time>2022-03-06T12:58:30.000Z</time>
      </trkpt>
      <trkpt lat="43.64257" lon="4.24608">
        <ele>52.126</ele>
        <time>2022-03-06T12:58:35.000Z</time>
      </trkpt>
      <trkpt lat="43.64265" lon="4.24616">
        <ele>53.558</ele>
        <time>2022-03-06T12:58:40.000Z</time>
      </trkpt>
      <trkpt lat="43.64273" lon="4.24619">
        <ele>53.065</ele>
        <time>2022-03-06T12:58:47.000Z</time>
      </trkpt>
      <trkpt lat="43.64283" lon="4.24624">
        <ele>53.196</ele>
        <time>2022-03-06T12:59:04.000Z</time>
      </trkpt>
      <trkpt lat="43.64292" lon="4.24627">
        <ele>52.983</ele>
        <time>2022-03-06T12:59:10.000Z</time>
      </trkpt>
      <trkpt lat="43.64301" lon="4.24632">
        <ele>52.304</ele>
        <time>2022-03-06T12:59:20.000Z</time>
      </trkpt>
      <trkpt lat="43.64307" lon="4.24643">
        <ele>51.965</ele>
        <time>2022-03-06T12:59:30.000Z</time>
      </trkpt>
      <trkpt lat="43.64316" lon="4.24647">
        <ele>53.623</ele>
        <time>2022-03-06T12:59:36.000Z</time>
      </trkpt>
      <trkpt lat="43.64326" lon="4.24652">
        <ele>52.899</ele>
        <time>2022-03-06T12:59:43.000Z</time>
      </trkpt>
      <trkpt lat="43.64334" lon="4.24657">
        <ele>52.595</ele>
        <time>2022-03-06T12:59:50.000Z</time>
      </trkpt>
      <trkpt lat="43.64343" lon="4.24663">
        <ele>51.179</ele>
        <time>2022-03-06T12:59:57.000Z</time>
      </trkpt>
      <trkpt lat="43.64352" lon="4.24667">
        <ele>52.44</ele>
        <time>2022-03-06T13:00:05.000Z</time>
      </trkpt>
      <trkpt lat="43.64362" lon="4.24666">
        <ele>52.58</ele>
        <time>2022-03-06T13:00:13.000Z</time>
      </trkpt>
      <trkpt lat="43.6437" lon="4.24671">
        <ele>54.233</ele>
        <time>2022-03-06T13:00:20.000Z</time>
      </trkpt>
      <trkpt lat="43.64378" lon="4.24678">
        <ele>56.681</ele>
        <time>2022-03-06T13:00:30.000Z</time>
      </trkpt>
      <trkpt lat="43.64384" lon="4.24687">
        <ele>52.942</ele>
        <time>2022-03-06T13:00:37.000Z</time>
      </trkpt>
      <trkpt lat="43.64392" lon="4.24695">
        <ele>52.699</ele>
        <time>2022-03-06T13:00:42.000Z</time>
      </trkpt>
      <trkpt lat="43.64401" lon="4.24701">
        <ele>54.635</ele>
        <time>2022-03-06T13:00:50.000Z</time>
      </trkpt>
      <trkpt lat="43.6441" lon="4.24697">
        <ele>52.791</ele>
        <time>2022-03-06T13:01:00.000Z</time>
      </trkpt>
      <trkpt lat="43.64419" lon="4.24704">
        <ele>53.902</ele>
        <time>2022-03-06T13:01:13.000Z</time>
      </trkpt>
      <trkpt lat="43.64427" lon="4.24709">
        <ele>53.43</ele>
        <time>2022-03-06T13:01:19.000Z</time>
      </trkpt>
      <trkpt lat="43.64436" lon="4.24714">
        <ele>52.894</ele>
        <time>2022-03-06T13:01:24.000Z</time>
      </trkpt>
      <trkpt lat="43.64444" lon="4.24719">
        <ele>53.909</ele>
        <time>2022-03-06T13:01:29.000Z</time>
      </trkpt>
      <trkpt lat="43.64453" lon="4.24724">
        <ele>53.851</ele>
        <time>2022-03-06T13:01:36.000Z</time>
      </trkpt>
      <trkpt lat="43.64462" lon="4.24728">
        <ele>52.244</ele>
        <time>2022-03-06T13:01:48.000Z</time>
      </trkpt>
      <trkpt lat="43.6447" lon="4.24735">
        <ele>52.13</ele>
        <time>2022-03-06T13:01:56.000Z</time>
      </trkpt>
      <trkpt lat="43.6448" lon="4.24737">
        <ele>53.657</ele>
        <time>2022-03-06T13:02:03.000Z</time>
      </trkpt>
      <trkpt lat="43.64488" lon="4.24743">
        <ele>53.882</ele>
        <time>2022-03-06T13:02:14.000Z</time>
      </trkpt>
      <trkpt lat="43.64497" lon="4.24748">
        <ele>55.81</ele>
        <time>2022-03-06T13:02:21.000Z</time>
      </trkpt>
      <trkpt lat="43.64505" lon="4.24754">
        <ele>52.084</ele>
        <time>2022-03-06T13:02:28.000Z</time>
      </trkpt>
      <trkpt lat="43.64512" lon="4.24764">
        <ele>52.592</ele>
        <time>2022-03-06T13:02:36.000Z</time>
      </trkpt>
      <trkpt lat="43.64518" lon="4.24773">
        <ele>54.62</ele>
        <time>2022-03-06T13:02:45.000Z</time>
      </trkpt>
      <trkpt lat="43.64527" lon="4.24776">
        <ele>55.304</ele>
        <time>2022-03-06T13:02:53.000Z</time>
      </trkpt>
      <trkpt lat="43.64536" lon="4.24781">
        <ele>52.594</ele>
        <time>2022-03-06T13:03:00.000Z</time>
      </trkpt>
      <trkpt lat="43.64545" lon="4.24784">
        <ele>55.651</ele>
        <time>2022-03-06T13:03:07.000Z</time>
      </trkpt>
      <trkpt lat="43.64551" lon="4.24796">
        <ele>54.88</ele>
        <time>2022-03-06T13:03:18.000Z</time>
      </trkpt>
      <trkpt lat="43.6456" lon="4.24802">
        <ele>55.405</ele>
        <time>2022-03-06T13:03:26.000Z</time>
      </trkpt>
      <trkpt lat="43.64568" lon="4.24807">
        <ele>53.963</ele>
        <time>2022-03-06T13:03:33.000Z</time>
      </trkpt>
      <trkpt lat="43.64577" lon="4.24811">
        <ele>54.32</ele>
        <time>2022-03-06T13:03:40.000Z</time>
      </trkpt>
      <trkpt lat="43.64585" lon="4.24817">
        <ele>55.011</ele>
        <time>2022-03-06T13:03:52.000Z</time>
      </trkpt>
      <trkpt lat="43.64596" lon="4.24819">
        <ele>53.795</ele>
        <time>2022-03-06T13:04:00.000Z</time>
      </trkpt>
      <trkpt lat="43.64604" lon="4.24824">
        <ele>55.503</ele>
        <time>2022-03-06T13:04:17.000Z</time>
      </trkpt>
      <trkpt lat="43.64613" lon="4.24826">
        <ele>54.455</ele>
        <time>2022-03-06T13:04:30.000Z</time>
      </trkpt>
      <trkpt lat="43.64623" lon="4.2483">
        <ele>53.705</ele>
        <time>2022-03-06T13:04:50.000Z</time>
      </trkpt>
      <trkpt lat="43.64631" lon="4.24833">
        <ele>54.03</ele>
        <time>2022-03-06T13:05:04.000Z</time>
      </trkpt>
      <trkpt lat="43.6464" lon="4.24833">
        <ele>54.071</ele>
        <time>2022-03-06T13:05:18.000Z</time>
      </trkpt>
      <trkpt lat="43.6465" lon="4.24836">
        <ele>54.348</ele>
        <time>2022-03-06T13:05:29.000Z</time>
      </trkpt>
      <trkpt lat="43.6466" lon="4.24836">
        <ele>54.765</ele>
        <time>2022-03-06T13:05:44.000Z</time>
      </trkpt>
      <trkpt lat="43.64668" lon="4.24841">
        <ele>53.082</ele>
        <time>2022-03-06T13:05:50.000Z</time>
      </trkpt>
      <trkpt lat="43.64676" lon="4.24848">
        <ele>53.208</ele>
        <time>2022-03-06T13:06:01.000Z</time>
      </trkpt>
      <trkpt lat="43.64684" lon="4.24855">
        <ele>54.367</ele>
        <time>2022-03-06T13:06:09.000Z</time>
      </trkpt>
      <trkpt lat="43.64693" lon="4.24859">
        <ele>54.337</ele>
        <time>2022-03-06T13:06:15.000Z</time>
      </trkpt>
      <trkpt lat="43.64702" lon="4.24863">
        <ele>53.06</ele>
        <time>2022-03-06T13:06:30.000Z</time>
      </trkpt>
      <trkpt lat="43.64711" lon="4.24868">
        <ele>52.113</ele>
        <time>2022-03-06T13:06:36.000Z</time>
      </trkpt>
      <trkpt lat="43.64721" lon="4.2487">
        <ele>53.511</ele>
        <time>2022-03-06T13:06:49.000Z</time>
      </trkpt>
      <trkpt lat="43.6473" lon="4.24874">
        <ele>52.719</ele>
        <time>2022-03-06T13:06:55.000Z</time>
      </trkpt>
      <trkpt lat="43.64739" lon="4.24878">
        <ele>53.577</ele>
        <time>2022-03-06T13:07:03.000Z</time>
      </trkpt>
      <trkpt lat="43.64748" lon="4.2488">
        <ele>54.127</ele>
        <time>2022-03-06T13:07:11.000Z</time>
      </trkpt>
      <trkpt lat="43.64757" lon="4.24882">
        <ele>58.705</ele>
        <time>2022-03-06T13:07:18.000Z</time>
      </trkpt>
      <trkpt lat="43.64766" lon="4.24884">
        <ele>54.91</ele>
        <time>2022-03-06T13:07:24.000Z</time>
      </trkpt>
      <trkpt lat="43.64775" lon="4.24886">
        <ele>53.394</ele>
        <time>2022-03-06T13:07:30.000Z</time>
      </trkpt>
      <trkpt lat="43.64785" lon="4.24888">
        <ele>54.614</ele>
        <time>2022-03-06T13:07:37.000Z</time>
      </trkpt>
      <trkpt lat="43.64794" lon="4.2489">
        <ele>54.925</ele>
        <time>2022-03-06T13:07:47.000Z</time>
      </trkpt>
      <trkpt lat="43.64803" lon="4.24891">
        <ele>53.73</ele>
        <time>2022-03-06T13:07:56.000Z</time>
      </trkpt>
      <trkpt lat="43.64813" lon="4.24892">
        <ele>54.478</ele>
        <time>2022-03-06T13:08:04.000Z</time>
      </trkpt>
      <trkpt lat="43.64822" lon="4.24895">
        <ele>52.302</ele>
        <time>2022-03-06T13:08:12.000Z</time>
      </trkpt>
      <trkpt lat="43.64831" lon="4.24895">
        <ele>56.166</ele>
        <time>2022-03-06T13:08:17.000Z</time>
      </trkpt>
      <trkpt lat="43.6484" lon="4.24895">
        <ele>53.387</ele>
        <time>2022-03-06T13:08:24.000Z</time>
      </trkpt>
      <trkpt lat="43.64849" lon="4.24897">
        <ele>52.928</ele>
        <time>2022-03-06T13:08:30.000Z</time>
      </trkpt>
      <trkpt lat="43.64858" lon="4.24899">
        <ele>53.472</ele>
        <time>2022-03-06T13:08:42.000Z</time>
      </trkpt>
      <trkpt lat="43.64866" lon="4.24903">
        <ele>53.986</ele>
        <time>2022-03-06T13:08:53.000Z</time>
      </trkpt>
      <trkpt lat="43.64876" lon="4.24903">
        <ele>54.231</ele>
        <time>2022-03-06T13:09:06.000Z</time>
      </trkpt>
      <trkpt lat="43.64888" lon="4.24902">
        <ele>52.844</ele>
        <time>2022-03-06T13:09:11.000Z</time>
      </trkpt>
      <trkpt lat="43.64897" lon="4.24904">
        <ele>53.668</ele>
        <time>2022-03-06T13:09:17.000Z</time>
      </trkpt>
      <trkpt lat="43.64904" lon="4.24912">
        <ele>54.167</ele>
        <time>2022-03-06T13:09:21.000Z</time>
      </trkpt>
      <trkpt lat="43.64913" lon="4.24916">
        <ele>54.117</ele>
        <time>2022-03-06T13:09:32.000Z</time>
      </trkpt>
      <trkpt lat="43.64921" lon="4.24919">
        <ele>54.934</ele>
        <time>2022-03-06T13:09:41.000Z</time>
      </trkpt>
      <trkpt lat="43.64929" lon="4.24927">
        <ele>55.144</ele>
        <time>2022-03-06T13:09:48.000Z</time>
      </trkpt>
      <trkpt lat="43.64938" lon="4.2493">
        <ele>52.812</ele>
        <time>2022-03-06T13:09:56.000Z</time>
      </trkpt>
      <trkpt lat="43.64948" lon="4.2493">
        <ele>54.702</ele>
        <time>2022-03-06T13:10:09.000Z</time>
      </trkpt>
      <trkpt lat="43.64957" lon="4.24934">
        <ele>54.258</ele>
        <time>2022-03-06T13:10:18.000Z</time>
      </trkpt>
      <trkpt lat="43.64967" lon="4.24935">
        <ele>55.281</ele>
        <time>2022-03-06T13:10:27.000Z</time>
      </trkpt>
      <trkpt lat="43.64976" lon="4.24933">
        <ele>54.963</ele>
        <time>2022-03-06T13:10:34.000Z</time>
      </trkpt>
      <trkpt lat="43.64985" lon="4.24932">
        <ele>53.019</ele>
        <time>2022-03-06T13:10:42.000Z</time>
      </trkpt>
      <trkpt lat="43.64995" lon="4.24929">
        <ele>55.036</ele>
        <time>2022-03-06T13:10:50.000Z</time>
      </trkpt>
      <trkpt lat="43.65004" lon="4.24928">
        <ele>54.549</ele>
        <time>2022-03-06T13:10:56.000Z</time>
      </trkpt>
      <trkpt lat="43.65013" lon="4.24924">
        <ele>54.54</ele>
        <time>2022-03-06T13:11:04.000Z</time>
      </trkpt>
      <trkpt lat="43.65023" lon="4.24918">
        <ele>56.004</ele>
        <time>2022-03-06T13:11:12.000Z</time>
      </trkpt>
      <trkpt lat="43.65033" lon="4.24917">
        <ele>55.031</ele>
        <time>2022-03-06T13:11:23.000Z</time>
      </trkpt>
      <trkpt lat="43.65042" lon="4.24916">
        <ele>54.946</ele>
        <time>2022-03-06T13:11:33.000Z</time>
      </trkpt>
      <trkpt lat="43.65052" lon="4.24914">
        <ele>56.771</ele>
        <time>2022-03-06T13:11:40.000Z</time>
      </trkpt>
      <trkpt lat="43.65061" lon="4.24914">
        <ele>57.003</ele>
        <time>2022-03-06T13:11:49.000Z</time>
      </trkpt>
      <trkpt lat="43.6507" lon="4.24915">
        <ele>53.913</ele>
        <time>2022-03-06T13:11:57.000Z</time>
      </trkpt>
      <trkpt lat="43.65079" lon="4.24918">
        <ele>55.362</ele>
        <time>2022-03-06T13:12:04.000Z</time>
      </trkpt>
      <trkpt lat="43.65088" lon="4.24919">
        <ele>55.027</ele>
        <time>2022-03-06T13:12:11.000Z</time>
      </trkpt>
      <trkpt lat="43.65098" lon="4.24915">
        <ele>56.275</ele>
        <time>2022-03-06T13:12:18.000Z</time>
      </trkpt>
      <trkpt lat="43.65107" lon="4.24912">
        <ele>53.913</ele>
        <time>2022-03-06T13:12:26.000Z</time>
      </trkpt>
      <trkpt lat="43.65117" lon="4.24911">
        <ele>56.376</ele>
        <time>2022-03-06T13:12:35.000Z</time>
      </trkpt>
      <trkpt lat="43.65126" lon="4.24912">
        <ele>55.967</ele>
        <time>2022-03-06T13:12:40.000Z</time>
      </trkpt>
      <trkpt lat="43.65135" lon="4.24912">
        <ele>55.288</ele>
        <time>2022-03-06T13:12:49.000Z</time>
      </trkpt>
      <trkpt lat="43.65144" lon="4.24915">
        <ele>56.079</ele>
        <time>2022-03-06T13:13:00.000Z</time>
      </trkpt>
      <trkpt lat="43.65154" lon="4.24914">
        <ele>55.504</ele>
        <time>2022-03-06T13:13:07.000Z</time>
      </trkpt>
      <trkpt lat="43.65163" lon="4.24913">
        <ele>57.201</ele>
        <time>2022-03-06T13:13:24.000Z</time>
      </trkpt>
      <trkpt lat="43.65172" lon="4.24916">
        <ele>55.59</ele>
        <time>2022-03-06T13:13:30.000Z</time>
      </trkpt>
      <trkpt lat="43.65182" lon="4.24917">
        <ele>56.575</ele>
        <time>2022-03-06T13:13:37.000Z</time>
      </trkpt>
      <trkpt lat="43.65192" lon="4.24921">
        <ele>55.159</ele>
        <time>2022-03-06T13:13:46.000Z</time>
      </trkpt>
      <trkpt lat="43.65201" lon="4.24925">
        <ele>57.841</ele>
        <time>2022-03-06T13:13:53.000Z</time>
      </trkpt>
      <trkpt lat="43.6521" lon="4.24925">
        <ele>54.815</ele>
        <time>2022-03-06T13:13:58.000Z</time>
      </trkpt>
      <trkpt lat="43.6522" lon="4.24925">
        <ele>55.716</ele>
        <time>2022-03-06T13:14:05.000Z</time>
      </trkpt>
      <trkpt lat="43.6523" lon="4.24924">
        <ele>55.576</ele>
        <time>2022-03-06T13:14:13.000Z</time>
      </trkpt>
      <trkpt lat="43.65239" lon="4.24924">
        <ele>54.926</ele>
        <time>2022-03-06T13:14:22.000Z</time>
      </trkpt>
      <trkpt lat="43.65249" lon="4.24927">
        <ele>55.476</ele>
        <time>2022-03-06T13:14:31.000Z</time>
      </trkpt>
      <trkpt lat="43.65258" lon="4.24927">
        <ele>55.485</ele>
        <time>2022-03-06T13:14:41.000Z</time>
      </trkpt>
      <trkpt lat="43.65268" lon="4.24927">
        <ele>56.069</ele>
        <time>2022-03-06T13:14:49.000Z</time>
      </trkpt>
      <trkpt lat="43.65277" lon="4.24927">
        <ele>53.738</ele>
        <time>2022-03-06T13:14:57.000Z</time>
      </trkpt>
      <trkpt lat="43.65286" lon="4.24931">
        <ele>54.987</ele>
        <time>2022-03-06T13:15:08.000Z</time>
      </trkpt>
      <trkpt lat="43.65295" lon="4.24935">
        <ele>53.929</ele>
        <time>2022-03-06T13:15:15.000Z</time>
      </trkpt>
      <trkpt lat="43.65304" lon="4.24935">
        <ele>53.458</ele>
        <time>2022-03-06T13:15:23.000Z</time>
      </trkpt>
      <trkpt lat="43.65314" lon="4.24935">
        <ele>54.412</ele>
        <time>2022-03-06T13:15:31.000Z</time>
      </trkpt>
      <trkpt lat="43.65323" lon="4.24938">
        <ele>56.382</ele>
        <time>2022-03-06T13:15:40.000Z</time>
      </trkpt>
      <trkpt lat="43.65333" lon="4.24939">
        <ele>55.525</ele>
        <time>2022-03-06T13:15:49.000Z</time>
      </trkpt>
      <trkpt lat="43.65342" lon="4.24936">
        <ele>53.571</ele>
        <time>2022-03-06T13:16:03.000Z</time>
      </trkpt>
      <trkpt lat="43.65352" lon="4.24935">
        <ele>56.158</ele>
        <time>2022-03-06T13:16:12.000Z</time>
      </trkpt>
      <trkpt lat="43.65361" lon="4.24937">
        <ele>55.148</ele>
        <time>2022-03-06T13:16:17.000Z</time>
      </trkpt>
      <trkpt lat="43.6537" lon="4.24939">
        <ele>57.376</ele>
        <time>2022-03-06T13:16:22.000Z</time>
      </trkpt>
      <trkpt lat="43.65379" lon="4.24937">
        <ele>53.639</ele>
        <time>2022-03-06T13:16:31.000Z</time>
      </trkpt>
      <trkpt lat="43.65389" lon="4.24936">
        <ele>53.893</ele>
        <time>2022-03-06T13:16:44.000Z</time>
      </trkpt>
      <trkpt lat="43.65398" lon="4.24936">
        <ele>56.25</ele>
        <time>2022-03-06T13:16:52.000Z</time>
      </trkpt>
      <trkpt lat="43.65407" lon="4.24938">
        <ele>54.75</ele>
        <time>2022-03-06T13:16:59.000Z</time>
      </trkpt>
      <trkpt lat="43.65416" lon="4.24934">
        <ele>55.342</ele>
        <time>2022-03-06T13:17:30.000Z</time>
      </trkpt>
      <trkpt lat="43.65425" lon="4.24941">
        <ele>54.786</ele>
        <time>2022-03-06T13:17:35.000Z</time>
      </trkpt>
      <trkpt lat="43.65434" lon="4.24945">
        <ele>55.658</ele>
        <time>2022-03-06T13:18:00.000Z</time>
      </trkpt>
      <trkpt lat="43.65443" lon="4.24945">
        <ele>55.992</ele>
        <time>2022-03-06T13:18:09.000Z</time>
      </trkpt>
      <trkpt lat="43.65453" lon="4.24947">
        <ele>56.328</ele>
        <time>2022-03-06T13:18:16.000Z</time>
      </trkpt>
      <trkpt lat="43.65462" lon="4.24949">
        <ele>53.515</ele>
        <time>2022-03-06T13:18:25.000Z</time>
      </trkpt>
      <trkpt lat="43.65472" lon="4.24953">
        <ele>58.631</ele>
        <time>2022-03-06T13:18:36.000Z</time>
      </trkpt>
      <trkpt lat="43.65482" lon="4.24952">
        <ele>55.479</ele>
        <time>2022-03-06T13:18:43.000Z</time>
      </trkpt>
      <trkpt lat="43.6549" lon="4.24955">
        <ele>55.174</ele>
        <time>2022-03-06T13:18:49.000Z</time>
      </trkpt>
      <trkpt lat="43.655" lon="4.24957">
        <ele>56.12</ele>
        <time>2022-03-06T13:19:02.000Z</time>
      </trkpt>
      <trkpt lat="43.65509" lon="4.24959">
        <ele>54.925</ele>
        <time>2022-03-06T13:19:11.000Z</time>
      </trkpt>
      <trkpt lat="43.6552" lon="4.24958">
        <ele>55.608</ele>
        <time>2022-03-06T13:19:19.000Z</time>
      </trkpt>
      <trkpt lat="43.65529" lon="4.24955">
        <ele>56.49</ele>
        <time>2022-03-06T13:19:26.000Z</time>
      </trkpt>
      <trkpt lat="43.65539" lon="4.24954">
        <ele>54.616</ele>
        <time>2022-03-06T13:19:34.000Z</time>
      </trkpt>
      <trkpt lat="43.65548" lon="4.24959">
        <ele>56.34</ele>
        <time>2022-03-06T13:19:45.000Z</time>
      </trkpt>
      <trkpt lat="43.65558" lon="4.24957">
        <ele>56.641</ele>
        <time>2022-03-06T13:19:52.000Z</time>
      </trkpt>
      <trkpt lat="43.65567" lon="4.24955">
        <ele>55.905</ele>
        <time>2022-03-06T13:20:00.000Z</time>
      </trkpt>
      <trkpt lat="43.65576" lon="4.24955">
        <ele>55.554</ele>
        <time>2022-03-06T13:20:10.000Z</time>
      </trkpt>
      <trkpt lat="43.65586" lon="4.24954">
        <ele>54.651</ele>
        <time>2022-03-06T13:20:16.000Z</time>
      </trkpt>
      <trkpt lat="43.65595" lon="4.24954">
        <ele>53.271</ele>
        <time>2022-03-06T13:20:24.000Z</time>
      </trkpt>
      <trkpt lat="43.65605" lon="4.24955">
        <ele>53.434</ele>
        <time>2022-03-06T13:20:33.000Z</time>
      </trkpt>
      <trkpt lat="43.65614" lon="4.24954">
        <ele>53.872</ele>
        <time>2022-03-06T13:20:43.000Z</time>
      </trkpt>
      <trkpt lat="43.65623" lon="4.24955">
        <ele>55.839</ele>
        <time>2022-03-06T13:20:52.000Z</time>
      </trkpt>
      <trkpt lat="43.65633" lon="4.24956">
        <ele>56.197</ele>
        <time>2022-03-06T13:21:01.000Z</time>
      </trkpt>
      <trkpt lat="43.65643" lon="4.24957">
        <ele>54.079</ele>
        <time>2022-03-06T13:21:10.000Z</time>
      </trkpt>
      <trkpt lat="43.65652" lon="4.24955">
        <ele>54.948</ele>
        <time>2022-03-06T13:21:18.000Z</time>
      </trkpt>
      <trkpt lat="43.65662" lon="4.24953">
        <ele>53.281</ele>
        <time>2022-03-06T13:21:26.000Z</time>
      </trkpt>
      <trkpt lat="43.65673" lon="4.24952">
        <ele>58.17</ele>
        <time>2022-03-06T13:21:36.000Z</time>
      </trkpt>
      <trkpt lat="43.65682" lon="4.24956">
        <ele>55.053</ele>
        <time>2022-03-06T13:21:43.000Z</time>
      </trkpt>
      <trkpt lat="43.65691" lon="4.24952">
        <ele>56.414</ele>
        <time>2022-03-06T13:21:51.000Z</time>
      </trkpt>
      <trkpt lat="43.65701" lon="4.24951">
        <ele>55.512</ele>
        <time>2022-03-06T13:21:56.000Z</time>
      </trkpt>
      <trkpt lat="43.65709" lon="4.24944">
        <ele>56.82</ele>
        <time>2022-03-06T13:22:08.000Z</time>
      </trkpt>
      <trkpt lat="43.65717" lon="4.24938">
        <ele>56.429</ele>
        <time>2022-03-06T13:22:17.000Z</time>
      </trkpt>
      <trkpt lat="43.65726" lon="4.24937">
        <ele>54.785</ele>
        <time>2022-03-06T13:22:26.000Z</time>
      </trkpt>
      <trkpt lat="43.65736" lon="4.24935">
        <ele>55.755</ele>
        <time>2022-03-06T13:22:34.000Z</time>
      </trkpt>
      <trkpt lat="43.65745" lon="4.24934">
        <ele>56.343</ele>
        <time>2022-03-06T13:22:41.000Z</time>
      </trkpt>
      <trkpt lat="43.65755" lon="4.24934">
        <ele>54.65</ele>
        <time>2022-03-06T13:22:50.000Z</time>
      </trkpt>
      <trkpt lat="43.65764" lon="4.24934">
        <ele>55.916</ele>
        <time>2022-03-06T13:23:01.000Z</time>
      </trkpt>
      <trkpt lat="43.65773" lon="4.24935">
        <ele>54.99</ele>
        <time>2022-03-06T13:23:09.000Z</time>
      </trkpt>
      <trkpt lat="43.65782" lon="4.2494">
        <ele>53.005</ele>
        <time>2022-03-06T13:23:15.000Z</time>
      </trkpt>
      <trkpt lat="43.6579" lon="4.24947">
        <ele>54.338</ele>
        <time>2022-03-06T13:23:21.000Z</time>
      </trkpt>
      <trkpt lat="43.65799" lon="4.24947">
        <ele>53.928</ele>
        <time>2022-03-06T13:23:30.000Z</time>
      </trkpt>
      <trkpt lat="43.65809" lon="4.24945">
        <ele>53.316</ele>
        <time>2022-03-06T13:23:38.000Z</time>
      </trkpt>
      <trkpt lat="43.65818" lon="4.2494">
        <ele>54.694</ele>
        <time>2022-03-06T13:23:47.000Z</time>
      </trkpt>
      <trkpt lat="43.65827" lon="4.24939">
        <ele>54.036</ele>
        <time>2022-03-06T13:24:07.000Z</time>
      </trkpt>
      <trkpt lat="43.65836" lon="4.24937">
        <ele>52.828</ele>
        <time>2022-03-06T13:24:14.000Z</time>
      </trkpt>
      <trkpt lat="43.65846" lon="4.24934">
        <ele>54.035</ele>
        <time>2022-03-06T13:24:20.000Z</time>
      </trkpt>
      <trkpt lat="43.65855" lon="4.2493">
        <ele>54.44</ele>
        <time>2022-03-06T13:24:26.000Z</time>
      </trkpt>
      <trkpt lat="43.65864" lon="4.24925">
        <ele>54.113</ele>
        <time>2022-03-06T13:24:34.000Z</time>
      </trkpt>
      <trkpt lat="43.65873" lon="4.24919">
        <ele>52.242</ele>
        <time>2022-03-06T13:24:42.000Z</time>
      </trkpt>
      <trkpt lat="43.6588" lon="4.24912">
        <ele>53.915</ele>
        <time>2022-03-06T13:24:50.000Z</time>
      </trkpt>
      <trkpt lat="43.65888" lon="4.24904">
        <ele>53.182</ele>
        <time>2022-03-06T13:24:58.000Z</time>
      </trkpt>
      <trkpt lat="43.65896" lon="4.24897">
        <ele>51.518</ele>
        <time>2022-03-06T13:25:08.000Z</time>
      </trkpt>
      <trkpt lat="43.65904" lon="4.24891">
        <ele>52.895</ele>
        <time>2022-03-06T13:25:17.000Z</time>
      </trkpt>
      <trkpt lat="43.65913" lon="4.24885">
        <ele>54.02</ele>
        <time>2022-03-06T13:25:26.000Z</time>
      </trkpt>
      <trkpt lat="43.65921" lon="4.24878">
        <ele>54.426</ele>
        <time>2022-03-06T13:25:33.000Z</time>
      </trkpt>
      <trkpt lat="43.65929" lon="4.24872">
        <ele>54.603</ele>
        <time>2022-03-06T13:25:42.000Z</time>
      </trkpt>
      <trkpt lat="43.65936" lon="4.24862">
        <ele>53.637</ele>
        <time>2022-03-06T13:25:50.000Z</time>
      </trkpt>
      <trkpt lat="43.65943" lon="4.24854">
        <ele>54.871</ele>
        <time>2022-03-06T13:25:58.000Z</time>
      </trkpt>
      <trkpt lat="43.6595" lon="4.24847">
        <ele>53.235</ele>
        <time>2022-03-06T13:26:05.000Z</time>
      </trkpt>
      <trkpt lat="43.65959" lon="4.2484">
        <ele>53.18</ele>
        <time>2022-03-06T13:26:13.000Z</time>
      </trkpt>
      <trkpt lat="43.65967" lon="4.24834">
        <ele>53.642</ele>
        <time>2022-03-06T13:26:23.000Z</time>
      </trkpt>
      <trkpt lat="43.65975" lon="4.24829">
        <ele>52.83</ele>
        <time>2022-03-06T13:26:30.000Z</time>
      </trkpt>
      <trkpt lat="43.65984" lon="4.24824">
        <ele>53.797</ele>
        <time>2022-03-06T13:26:38.000Z</time>
      </trkpt>
      <trkpt lat="43.65993" lon="4.24817">
        <ele>53.782</ele>
        <time>2022-03-06T13:26:49.000Z</time>
      </trkpt>
      <trkpt lat="43.66001" lon="4.24812">
        <ele>52.303</ele>
        <time>2022-03-06T13:26:56.000Z</time>
      </trkpt>
      <trkpt lat="43.6601" lon="4.24807">
        <ele>53.016</ele>
        <time>2022-03-06T13:27:04.000Z</time>
      </trkpt>
      <trkpt lat="43.66019" lon="4.24803">
        <ele>54.668</ele>
        <time>2022-03-06T13:27:11.000Z</time>
      </trkpt>
      <trkpt lat="43.66028" lon="4.248">
        <ele>53.719</ele>
        <time>2022-03-06T13:27:18.000Z</time>
      </trkpt>
      <trkpt lat="43.66032" lon="4.24812">
        <ele>52.942</ele>
        <time>2022-03-06T13:27:32.000Z</time>
      </trkpt>
      <trkpt lat="43.6603" lon="4.24825">
        <ele>54.725</ele>
        <time>2022-03-06T13:27:41.000Z</time>
      </trkpt>
      <trkpt lat="43.6603" lon="4.24837">
        <ele>54.306</ele>
        <time>2022-03-06T13:27:49.000Z</time>
      </trkpt>
      <trkpt lat="43.6603" lon="4.2485">
        <ele>53.371</ele>
        <time>2022-03-06T13:27:59.000Z</time>
      </trkpt>
      <trkpt lat="43.66034" lon="4.24862">
        <ele>52.483</ele>
        <time>2022-03-06T13:28:07.000Z</time>
      </trkpt>
      <trkpt lat="43.66032" lon="4.24875">
        <ele>52.072</ele>
        <time>2022-03-06T13:28:15.000Z</time>
      </trkpt>
      <trkpt lat="43.66028" lon="4.24886">
        <ele>52.935</ele>
        <time>2022-03-06T13:28:22.000Z</time>
      </trkpt>
      <trkpt lat="43.66029" lon="4.249">
        <ele>51.121</ele>
        <time>2022-03-06T13:28:32.000Z</time>
      </trkpt>
      <trkpt lat="43.6603" lon="4.24914">
        <ele>52.237</ele>
        <time>2022-03-06T13:28:39.000Z</time>
      </trkpt>
      <trkpt lat="43.66029" lon="4.24927">
        <ele>53.356</ele>
        <time>2022-03-06T13:28:46.000Z</time>
      </trkpt>
      <trkpt lat="43.66028" lon="4.24939">
        <ele>51.816</ele>
        <time>2022-03-06T13:28:53.000Z</time>
      </trkpt>
      <trkpt lat="43.66029" lon="4.24952">
        <ele>54.11</ele>
        <time>2022-03-06T13:29:01.000Z</time>
      </trkpt>
      <trkpt lat="43.66033" lon="4.24964">
        <ele>53.266</ele>
        <time>2022-03-06T13:29:09.000Z</time>
      </trkpt>
      <trkpt lat="43.66033" lon="4.24977">
        <ele>54.101</ele>
        <time>2022-03-06T13:29:17.000Z</time>
      </trkpt>
      <trkpt lat="43.66032" lon="4.24991">
        <ele>51.909</ele>
        <time>2022-03-06T13:29:24.000Z</time>
      </trkpt>
      <trkpt lat="43.66032" lon="4.25004">
        <ele>53.968</ele>
        <time>2022-03-06T13:29:32.000Z</time>
      </trkpt>
      <trkpt lat="43.66029" lon="4.25016">
        <ele>52.271</ele>
        <time>2022-03-06T13:29:40.000Z</time>
      </trkpt>
      <trkpt lat="43.6603" lon="4.25029">
        <ele>53.872</ele>
        <time>2022-03-06T13:29:49.000Z</time>
      </trkpt>
      <trkpt lat="43.66029" lon="4.25041">
        <ele>53.095</ele>
        <time>2022-03-06T13:29:55.000Z</time>
      </trkpt>
      <trkpt lat="43.66029" lon="4.25054">
        <ele>53.327</ele>
        <time>2022-03-06T13:30:06.000Z</time>
      </trkpt>
      <trkpt lat="43.6603" lon="4.25067">
        <ele>53.735</ele>
        <time>2022-03-06T13:30:15.000Z</time>
      </trkpt>
      <trkpt lat="43.66031" lon="4.2508">
        <ele>53.875</ele>
        <time>2022-03-06T13:30:23.000Z</time>
      </trkpt>
      <trkpt lat="43.66035" lon="4.25092">
        <ele>52.602</ele>
        <time>2022-03-06T13:30:32.000Z</time>
      </trkpt>
      <trkpt lat="43.66033" lon="4.25105">
        <ele>52.005</ele>
        <time>2022-03-06T13:30:39.000Z</time>
      </trkpt>
      <trkpt lat="43.66032" lon="4.25119">
        <ele>54.064</ele>
        <time>2022-03-06T13:30:49.000Z</time>
      </trkpt>
      <trkpt lat="43.66032" lon="4.25131">
        <ele>52.919</ele>
        <time>2022-03-06T13:30:55.000Z</time>
      </trkpt>
      <trkpt lat="43.66033" lon="4.25144">
        <ele>52.847</ele>
        <time>2022-03-06T13:31:05.000Z</time>
      </trkpt>
      <trkpt lat="43.66033" lon="4.25157">
        <ele>55.265</ele>
        <time>2022-03-06T13:31:11.000Z</time>
      </trkpt>
      <trkpt lat="43.66034" lon="4.25169">
        <ele>52.766</ele>
        <time>2022-03-06T13:31:19.000Z</time>
      </trkpt>
      <trkpt lat="43.66034" lon="4.25182">
        <ele>51.503</ele>
        <time>2022-03-06T13:31:28.000Z</time>
      </trkpt>
      <trkpt lat="43.66032" lon="4.25196">
        <ele>52.119</ele>
        <time>2022-03-06T13:31:36.000Z</time>
      </trkpt>
      <trkpt lat="43.6603" lon="4.25208">
        <ele>52.167</ele>
        <time>2022-03-06T13:31:44.000Z</time>
      </trkpt>
      <trkpt lat="43.66031" lon="4.2522">
        <ele>53.167</ele>
        <time>2022-03-06T13:31:53.000Z</time>
      </trkpt>
      <trkpt lat="43.66033" lon="4.25234">
        <ele>54.063</ele>
        <time>2022-03-06T13:32:02.000Z</time>
      </trkpt>
      <trkpt lat="43.66032" lon="4.25246">
        <ele>52.782</ele>
        <time>2022-03-06T13:32:09.000Z</time>
      </trkpt>
      <trkpt lat="43.66033" lon="4.25258">
        <ele>54.417</ele>
        <time>2022-03-06T13:32:17.000Z</time>
      </trkpt>
      <trkpt lat="43.66032" lon="4.25271">
        <ele>43.96</ele>
        <time>2022-03-06T13:32:25.000Z</time>
      </trkpt>
      <trkpt lat="43.66031" lon="4.25284">
        <ele>54.377</ele>
        <time>2022-03-06T13:32:33.000Z</time>
      </trkpt>
      <trkpt lat="43.6603" lon="4.25297">
        <ele>53.066</ele>
        <time>2022-03-06T13:32:41.000Z</time>
      </trkpt>
      <trkpt lat="43.66029" lon="4.25311">
        <ele>52.658</ele>
        <time>2022-03-06T13:32:49.000Z</time>
      </trkpt>
      <trkpt lat="43.66028" lon="4.25323">
        <ele>52.634</ele>
        <time>2022-03-06T13:32:57.000Z</time>
      </trkpt>
      <trkpt lat="43.66027" lon="4.25337">
        <ele>52.807</ele>
        <time>2022-03-06T13:33:05.000Z</time>
      </trkpt>
      <trkpt lat="43.6603" lon="4.25349">
        <ele>54.034</ele>
        <time>2022-03-06T13:33:13.000Z</time>
      </trkpt>
      <trkpt lat="43.66029" lon="4.25362">
        <ele>52.231</ele>
        <time>2022-03-06T13:33:22.000Z</time>
      </trkpt>
      <trkpt lat="43.6603" lon="4.25375">
        <ele>56.814</ele>
        <time>2022-03-06T13:33:30.000Z</time>
      </trkpt>
      <trkpt lat="43.66035" lon="4.25386">
        <ele>54.232</ele>
        <time>2022-03-06T13:33:38.000Z</time>
      </trkpt>
      <trkpt lat="43.66033" lon="4.25399">
        <ele>55.476</ele>
        <time>2022-03-06T13:33:46.000Z</time>
      </trkpt>
      <trkpt lat="43.66028" lon="4.2541">
        <ele>52.877</ele>
        <time>2022-03-06T13:33:55.000Z</time>
      </trkpt>
      <trkpt lat="43.66021" lon="4.25419">
        <ele>37.35</ele>
        <time>2022-03-06T13:34:02.000Z</time>
      </trkpt>
      <trkpt lat="43.66014" lon="4.25428">
        <ele>53.973</ele>
        <time>2022-03-06T13:34:11.000Z</time>
      </trkpt>
      <trkpt lat="43.66013" lon="4.25441">
        <ele>52.066</ele>
        <time>2022-03-06T13:34:20.000Z</time>
      </trkpt>
      <trkpt lat="43.66008" lon="4.25451">
        <ele>52.049</ele>
        <time>2022-03-06T13:34:26.000Z</time>
      </trkpt>
      <trkpt lat="43.66001" lon="4.25459">
        <ele>53.527</ele>
        <time>2022-03-06T13:34:34.000Z</time>
      </trkpt>
      <trkpt lat="43.65997" lon="4.25471">
        <ele>52.584</ele>
        <time>2022-03-06T13:34:44.000Z</time>
      </trkpt>
      <trkpt lat="43.65991" lon="4.25482">
        <ele>53.103</ele>
        <time>2022-03-06T13:34:54.000Z</time>
      </trkpt>
      <trkpt lat="43.65986" lon="4.25493">
        <ele>53.773</ele>
        <time>2022-03-06T13:35:02.000Z</time>
      </trkpt>
      <trkpt lat="43.65981" lon="4.25504">
        <ele>53.377</ele>
        <time>2022-03-06T13:35:11.000Z</time>
      </trkpt>
      <trkpt lat="43.65974" lon="4.25513">
        <ele>53.957</ele>
        <time>2022-03-06T13:35:20.000Z</time>
      </trkpt>
      <trkpt lat="43.65967" lon="4.25522">
        <ele>52.254</ele>
        <time>2022-03-06T13:35:30.000Z</time>
      </trkpt>
      <trkpt lat="43.65961" lon="4.25532">
        <ele>55.032</ele>
        <time>2022-03-06T13:35:39.000Z</time>
      </trkpt>
      <trkpt lat="43.65957" lon="4.25543">
        <ele>52.695</ele>
        <time>2022-03-06T13:35:46.000Z</time>
      </trkpt>
      <trkpt lat="43.65953" lon="4.25555">
        <ele>53.651</ele>
        <time>2022-03-06T13:36:00.000Z</time>
      </trkpt>
      <trkpt lat="43.65945" lon="4.25562">
        <ele>54.501</ele>
        <time>2022-03-06T13:36:06.000Z</time>
      </trkpt>
      <trkpt lat="43.65936" lon="4.25564">
        <ele>53.941</ele>
        <time>2022-03-06T13:36:12.000Z</time>
      </trkpt>
      <trkpt lat="43.65932" lon="4.25575">
        <ele>54.186</ele>
        <time>2022-03-06T13:36:20.000Z</time>
      </trkpt>
      <trkpt lat="43.65927" lon="4.25586">
        <ele>54.824</ele>
        <time>2022-03-06T13:36:30.000Z</time>
      </trkpt>
      <trkpt lat="43.65919" lon="4.25594">
        <ele>52.687</ele>
        <time>2022-03-06T13:36:38.000Z</time>
      </trkpt>
      <trkpt lat="43.65913" lon="4.25603">
        <ele>53.485</ele>
        <time>2022-03-06T13:36:47.000Z</time>
      </trkpt>
      <trkpt lat="43.65904" lon="4.25607">
        <ele>54.076</ele>
        <time>2022-03-06T13:36:54.000Z</time>
      </trkpt>
      <trkpt lat="43.65897" lon="4.25615">
        <ele>53.468</ele>
        <time>2022-03-06T13:37:03.000Z</time>
      </trkpt>
      <trkpt lat="43.65891" lon="4.25625">
        <ele>54.562</ele>
        <time>2022-03-06T13:37:12.000Z</time>
      </trkpt>
      <trkpt lat="43.65883" lon="4.25632">
        <ele>55.216</ele>
        <time>2022-03-06T13:37:20.000Z</time>
      </trkpt>
      <trkpt lat="43.65874" lon="4.25637">
        <ele>54.603</ele>
        <time>2022-03-06T13:37:29.000Z</time>
      </trkpt>
      <trkpt lat="43.65864" lon="4.25639">
        <ele>54.955</ele>
        <time>2022-03-06T13:37:39.000Z</time>
      </trkpt>
      <trkpt lat="43.65855" lon="4.25643">
        <ele>55.059</ele>
        <time>2022-03-06T13:37:47.000Z</time>
      </trkpt>
      <trkpt lat="43.65846" lon="4.25649">
        <ele>56.619</ele>
        <time>2022-03-06T13:37:55.000Z</time>
      </trkpt>
      <trkpt lat="43.65839" lon="4.25656">
        <ele>55.58</ele>
        <time>2022-03-06T13:38:03.000Z</time>
      </trkpt>
      <trkpt lat="43.65831" lon="4.25661">
        <ele>55.427</ele>
        <time>2022-03-06T13:38:13.000Z</time>
      </trkpt>
      <trkpt lat="43.65826" lon="4.25672">
        <ele>55.729</ele>
        <time>2022-03-06T13:38:22.000Z</time>
      </trkpt>
      <trkpt lat="43.65824" lon="4.25684">
        <ele>54.478</ele>
        <time>2022-03-06T13:38:31.000Z</time>
      </trkpt>
      <trkpt lat="43.65822" lon="4.25697">
        <ele>54.47</ele>
        <time>2022-03-06T13:38:42.000Z</time>
      </trkpt>
      <trkpt lat="43.6582" lon="4.2571">
        <ele>57.686</ele>
        <time>2022-03-06T13:39:03.000Z</time>
      </trkpt>
      <trkpt lat="43.65817" lon="4.25722">
        <ele>55.454</ele>
        <time>2022-03-06T13:39:10.000Z</time>
      </trkpt>
      <trkpt lat="43.65814" lon="4.25734">
        <ele>53.308</ele>
        <time>2022-03-06T13:39:18.000Z</time>
      </trkpt>
      <trkpt lat="43.65813" lon="4.25747">
        <ele>56.073</ele>
        <time>2022-03-06T13:39:27.000Z</time>
      </trkpt>
      <trkpt lat="43.65816" lon="4.25759">
        <ele>55.491</ele>
        <time>2022-03-06T13:39:38.000Z</time>
      </trkpt>
      <trkpt lat="43.65813" lon="4.25772">
        <ele>55.926</ele>
        <time>2022-03-06T13:39:48.000Z</time>
      </trkpt>
      <trkpt lat="43.65807" lon="4.25781">
        <ele>56.293</ele>
        <time>2022-03-06T13:39:58.000Z</time>
      </trkpt>
      <trkpt lat="43.65803" lon="4.25794">
        <ele>57.131</ele>
        <time>2022-03-06T13:40:07.000Z</time>
      </trkpt>
      <trkpt lat="43.65802" lon="4.25807">
        <ele>56.468</ele>
        <time>2022-03-06T13:40:15.000Z</time>
      </trkpt>
      <trkpt lat="43.65799" lon="4.25819">
        <ele>56.45</ele>
        <time>2022-03-06T13:40:24.000Z</time>
      </trkpt>
      <trkpt lat="43.658" lon="4.25832">
        <ele>56.382</ele>
        <time>2022-03-06T13:40:32.000Z</time>
      </trkpt>
      <trkpt lat="43.65797" lon="4.25845">
        <ele>54.549</ele>
        <time>2022-03-06T13:40:41.000Z</time>
      </trkpt>
      <trkpt lat="43.65795" lon="4.25857">
        <ele>55.55</ele>
        <time>2022-03-06T13:40:50.000Z</time>
      </trkpt>
      <trkpt lat="43.65793" lon="4.2587">
        <ele>54.781</ele>
        <time>2022-03-06T13:40:58.000Z</time>
      </trkpt>
      <trkpt lat="43.65791" lon="4.25883">
        <ele>57.971</ele>
        <time>2022-03-06T13:41:07.000Z</time>
      </trkpt>
      <trkpt lat="43.6579" lon="4.25896">
        <ele>56.938</ele>
        <time>2022-03-06T13:41:16.000Z</time>
      </trkpt>
      <trkpt lat="43.65791" lon="4.2591">
        <ele>55.821</ele>
        <time>2022-03-06T13:41:25.000Z</time>
      </trkpt>
      <trkpt lat="43.6579" lon="4.25923">
        <ele>55.948</ele>
        <time>2022-03-06T13:41:35.000Z</time>
      </trkpt>
      <trkpt lat="43.65787" lon="4.25936">
        <ele>57.805</ele>
        <time>2022-03-06T13:41:44.000Z</time>
      </trkpt>
      <trkpt lat="43.65785" lon="4.25948">
        <ele>56.574</ele>
        <time>2022-03-06T13:41:53.000Z</time>
      </trkpt>
      <trkpt lat="43.65784" lon="4.25962">
        <ele>56.754</ele>
        <time>2022-03-06T13:42:02.000Z</time>
      </trkpt>
      <trkpt lat="43.65781" lon="4.25974">
        <ele>59.212</ele>
        <time>2022-03-06T13:42:10.000Z</time>
      </trkpt>
      <trkpt lat="43.65777" lon="4.25985">
        <ele>58.165</ele>
        <time>2022-03-06T13:42:18.000Z</time>
      </trkpt>
      <trkpt lat="43.65773" lon="4.25996">
        <ele>57.514</ele>
        <time>2022-03-06T13:42:28.000Z</time>
      </trkpt>
      <trkpt lat="43.6577" lon="4.26009">
        <ele>58.006</ele>
        <time>2022-03-06T13:42:37.000Z</time>
      </trkpt>
      <trkpt lat="43.65768" lon="4.26022">
        <ele>57.245</ele>
        <time>2022-03-06T13:42:45.000Z</time>
      </trkpt>
      <trkpt lat="43.65764" lon="4.26033">
        <ele>58.21</ele>
        <time>2022-03-06T13:42:54.000Z</time>
      </trkpt>
      <trkpt lat="43.65761" lon="4.26045">
        <ele>59.589</ele>
        <time>2022-03-06T13:43:02.000Z</time>
      </trkpt>
      <trkpt lat="43.65761" lon="4.26059">
        <ele>59.385</ele>
        <time>2022-03-06T13:43:10.000Z</time>
      </trkpt>
      <trkpt lat="43.65758" lon="4.26072">
        <ele>60.597</ele>
        <time>2022-03-06T13:43:19.000Z</time>
      </trkpt>
      <trkpt lat="43.65755" lon="4.26085">
        <ele>60.451</ele>
        <time>2022-03-06T13:43:30.000Z</time>
      </trkpt>
      <trkpt lat="43.65756" lon="4.26097">
        <ele>59.108</ele>
        <time>2022-03-06T13:43:38.000Z</time>
      </trkpt>
      <trkpt lat="43.65756" lon="4.26111">
        <ele>63.026</ele>
        <time>2022-03-06T13:43:48.000Z</time>
      </trkpt>
      <trkpt lat="43.65754" lon="4.26124">
        <ele>60.845</ele>
        <time>2022-03-06T13:43:56.000Z</time>
      </trkpt>
      <trkpt lat="43.65753" lon="4.26137">
        <ele>62.522</ele>
        <time>2022-03-06T13:44:05.000Z</time>
      </trkpt>
      <trkpt lat="43.6575" lon="4.2615">
        <ele>62.897</ele>
        <time>2022-03-06T13:44:14.000Z</time>
      </trkpt>
      <trkpt lat="43.6575" lon="4.26163">
        <ele>64.652</ele>
        <time>2022-03-06T13:44:22.000Z</time>
      </trkpt>
      <trkpt lat="43.65747" lon="4.26176">
        <ele>61.909</ele>
        <time>2022-03-06T13:44:30.000Z</time>
      </trkpt>
      <trkpt lat="43.65745" lon="4.26189">
        <ele>62.322</ele>
        <time>2022-03-06T13:44:40.000Z</time>
      </trkpt>
      <trkpt lat="43.65745" lon="4.26202">
        <ele>62.357</ele>
        <time>2022-03-06T13:44:49.000Z</time>
      </trkpt>
      <trkpt lat="43.65742" lon="4.26215">
        <ele>65.193</ele>
        <time>2022-03-06T13:44:57.000Z</time>
      </trkpt>
      <trkpt lat="43.65741" lon="4.26228">
        <ele>62.75</ele>
        <time>2022-03-06T13:45:05.000Z</time>
      </trkpt>
      <trkpt lat="43.65741" lon="4.2624">
        <ele>64.881</ele>
        <time>2022-03-06T13:45:14.000Z</time>
      </trkpt>
      <trkpt lat="43.65736" lon="4.2625">
        <ele>65.554</ele>
        <time>2022-03-06T13:45:22.000Z</time>
      </trkpt>
      <trkpt lat="43.65733" lon="4.26263">
        <ele>64.085</ele>
        <time>2022-03-06T13:45:30.000Z</time>
      </trkpt>
      <trkpt lat="43.65732" lon="4.26275">
        <ele>64.948</ele>
        <time>2022-03-06T13:45:38.000Z</time>
      </trkpt>
      <trkpt lat="43.65731" lon="4.26288">
        <ele>66.502</ele>
        <time>2022-03-06T13:45:47.000Z</time>
      </trkpt>
      <trkpt lat="43.6573" lon="4.26301">
        <ele>65.814</ele>
        <time>2022-03-06T13:45:55.000Z</time>
      </trkpt>
      <trkpt lat="43.65729" lon="4.26314">
        <ele>69.001</ele>
        <time>2022-03-06T13:46:04.000Z</time>
      </trkpt>
      <trkpt lat="43.65729" lon="4.26327">
        <ele>66.989</ele>
        <time>2022-03-06T13:46:14.000Z</time>
      </trkpt>
      <trkpt lat="43.65728" lon="4.26341">
        <ele>67.457</ele>
        <time>2022-03-06T13:46:23.000Z</time>
      </trkpt>
      <trkpt lat="43.65725" lon="4.26353">
        <ele>68.927</ele>
        <time>2022-03-06T13:46:30.000Z</time>
      </trkpt>
      <trkpt lat="43.65719" lon="4.26364">
        <ele>66.45</ele>
        <time>2022-03-06T13:46:37.000Z</time>
      </trkpt>
      <trkpt lat="43.6572" lon="4.26377">
        <ele>66.285</ele>
        <time>2022-03-06T13:46:47.000Z</time>
      </trkpt>
      <trkpt lat="43.6572" lon="4.2639">
        <ele>68.902</ele>
        <time>2022-03-06T13:46:57.000Z</time>
      </trkpt>
      <trkpt lat="43.65725" lon="4.26401">
        <ele>67.643</ele>
        <time>2022-03-06T13:47:04.000Z</time>
      </trkpt>
      <trkpt lat="43.6573" lon="4.26413">
        <ele>68.793</ele>
        <time>2022-03-06T13:47:12.000Z</time>
      </trkpt>
      <trkpt lat="43.65735" lon="4.26423">
        <ele>68.81</ele>
        <time>2022-03-06T13:47:18.000Z</time>
      </trkpt>
      <trkpt lat="43.6574" lon="4.26437">
        <ele>69.27</ele>
        <time>2022-03-06T13:47:26.000Z</time>
      </trkpt>
      <trkpt lat="43.65747" lon="4.26445">
        <ele>68.425</ele>
        <time>2022-03-06T13:47:35.000Z</time>
      </trkpt>
      <trkpt lat="43.65756" lon="4.26451">
        <ele>69.695</ele>
        <time>2022-03-06T13:47:47.000Z</time>
      </trkpt>
      <trkpt lat="43.65763" lon="4.2646">
        <ele>68.611</ele>
        <time>2022-03-06T13:47:56.000Z</time>
      </trkpt>
      <trkpt lat="43.65771" lon="4.26466">
        <ele>70.053</ele>
        <time>2022-03-06T13:48:04.000Z</time>
      </trkpt>
      <trkpt lat="43.65779" lon="4.26473">
        <ele>67.568</ele>
        <time>2022-03-06T13:48:13.000Z</time>
      </trkpt>
      <trkpt lat="43.65788" lon="4.26481">
        <ele>68.796</ele>
        <time>2022-03-06T13:48:21.000Z</time>
      </trkpt>
      <trkpt lat="43.65795" lon="4.26491">
        <ele>67.804</ele>
        <time>2022-03-06T13:48:29.000Z</time>
      </trkpt>
      <trkpt lat="43.65802" lon="4.26499">
        <ele>69.516</ele>
        <time>2022-03-06T13:48:36.000Z</time>
      </trkpt>
      <trkpt lat="43.65804" lon="4.26511">
        <ele>71.207</ele>
        <time>2022-03-06T13:48:53.000Z</time>
      </trkpt>
      <trkpt lat="43.65797" lon="4.2652">
        <ele>69.983</ele>
        <time>2022-03-06T13:49:02.000Z</time>
      </trkpt>
      <trkpt lat="43.65792" lon="4.26532">
        <ele>71.345</ele>
        <time>2022-03-06T13:49:11.000Z</time>
      </trkpt>
      <trkpt lat="43.65792" lon="4.26545">
        <ele>72.054</ele>
        <time>2022-03-06T13:49:20.000Z</time>
      </trkpt>
      <trkpt lat="43.65788" lon="4.26557">
        <ele>70.063</ele>
        <time>2022-03-06T13:49:28.000Z</time>
      </trkpt>
      <trkpt lat="43.6578" lon="4.26566">
        <ele>69.476</ele>
        <time>2022-03-06T13:49:36.000Z</time>
      </trkpt>
      <trkpt lat="43.65777" lon="4.26579">
        <ele>72.25</ele>
        <time>2022-03-06T13:49:46.000Z</time>
      </trkpt>
      <trkpt lat="43.65771" lon="4.26588">
        <ele>74.999</ele>
        <time>2022-03-06T13:49:54.000Z</time>
      </trkpt>
      <trkpt lat="43.65768" lon="4.266">
        <ele>73.295</ele>
        <time>2022-03-06T13:50:01.000Z</time>
      </trkpt>
      <trkpt lat="43.65762" lon="4.2661">
        <ele>73.095</ele>
        <time>2022-03-06T13:50:09.000Z</time>
      </trkpt>
      <trkpt lat="43.65756" lon="4.2662">
        <ele>71.979</ele>
        <time>2022-03-06T13:50:17.000Z</time>
      </trkpt>
      <trkpt lat="43.65751" lon="4.26631">
        <ele>70.77</ele>
        <time>2022-03-06T13:50:24.000Z</time>
      </trkpt>
      <trkpt lat="43.65746" lon="4.26642">
        <ele>73.523</ele>
        <time>2022-03-06T13:50:32.000Z</time>
      </trkpt>
      <trkpt lat="43.65742" lon="4.26653">
        <ele>72.996</ele>
        <time>2022-03-06T13:50:40.000Z</time>
      </trkpt>
      <trkpt lat="43.65736" lon="4.26664">
        <ele>73.118</ele>
        <time>2022-03-06T13:50:47.000Z</time>
      </trkpt>
      <trkpt lat="43.6573" lon="4.26674">
        <ele>74.094</ele>
        <time>2022-03-06T13:50:55.000Z</time>
      </trkpt>
      <trkpt lat="43.65725" lon="4.26684">
        <ele>76.644</ele>
        <time>2022-03-06T13:51:04.000Z</time>
      </trkpt>
      <trkpt lat="43.65719" lon="4.26695">
        <ele>72.763</ele>
        <time>2022-03-06T13:51:13.000Z</time>
      </trkpt>
      <trkpt lat="43.65714" lon="4.26705">
        <ele>73.962</ele>
        <time>2022-03-06T13:51:22.000Z</time>
      </trkpt>
      <trkpt lat="43.6571" lon="4.26717">
        <ele>72.884</ele>
        <time>2022-03-06T13:51:30.000Z</time>
      </trkpt>
      <trkpt lat="43.65705" lon="4.26728">
        <ele>71.804</ele>
        <time>2022-03-06T13:51:39.000Z</time>
      </trkpt>
      <trkpt lat="43.65699" lon="4.26739">
        <ele>73.874</ele>
        <time>2022-03-06T13:51:48.000Z</time>
      </trkpt>
      <trkpt lat="43.65693" lon="4.2675">
        <ele>72.163</ele>
        <time>2022-03-06T13:51:57.000Z</time>
      </trkpt>
      <trkpt lat="43.65687" lon="4.2676">
        <ele>71.281</ele>
        <time>2022-03-06T13:52:05.000Z</time>
      </trkpt>
      <trkpt lat="43.65682" lon="4.26772">
        <ele>72.138</ele>
        <time>2022-03-06T13:52:13.000Z</time>
      </trkpt>
      <trkpt lat="43.65676" lon="4.26781">
        <ele>73.447</ele>
        <time>2022-03-06T13:52:21.000Z</time>
      </trkpt>
      <trkpt lat="43.6567" lon="4.2679">
        <ele>71.336</ele>
        <time>2022-03-06T13:52:29.000Z</time>
      </trkpt>
      <trkpt lat="43.65665" lon="4.26801">
        <ele>72.408</ele>
        <time>2022-03-06T13:52:38.000Z</time>
      </trkpt>
      <trkpt lat="43.65661" lon="4.26814">
        <ele>72.836</ele>
        <time>2022-03-06T13:52:47.000Z</time>
      </trkpt>
      <trkpt lat="43.65655" lon="4.26824">
        <ele>73.38</ele>
        <time>2022-03-06T13:52:55.000Z</time>
      </trkpt>
      <trkpt lat="43.65649" lon="4.26833">
        <ele>72.074</ele>
        <time>2022-03-06T13:53:02.000Z</time>
      </trkpt>
      <trkpt lat="43.65643" lon="4.26843">
        <ele>72.808</ele>
        <time>2022-03-06T13:53:09.000Z</time>
      </trkpt>
      <trkpt lat="43.65638" lon="4.26854">
        <ele>69.622</ele>
        <time>2022-03-06T13:53:17.000Z</time>
      </trkpt>
      <trkpt lat="43.65631" lon="4.26864">
        <ele>67.846</ele>
        <time>2022-03-06T13:53:25.000Z</time>
      </trkpt>
      <trkpt lat="43.65626" lon="4.26875">
        <ele>70.088</ele>
        <time>2022-03-06T13:53:33.000Z</time>
      </trkpt>
      <trkpt lat="43.65619" lon="4.26884">
        <ele>68.868</ele>
        <time>2022-03-06T13:53:41.000Z</time>
      </trkpt>
      <trkpt lat="43.65614" lon="4.26895">
        <ele>67.275</ele>
        <time>2022-03-06T13:53:48.000Z</time>
      </trkpt>
      <trkpt lat="43.65609" lon="4.26906">
        <ele>67.597</ele>
        <time>2022-03-06T13:53:57.000Z</time>
      </trkpt>
      <trkpt lat="43.65603" lon="4.26917">
        <ele>66.23</ele>
        <time>2022-03-06T13:54:05.000Z</time>
      </trkpt>
      <trkpt lat="43.65596" lon="4.26926">
        <ele>67.04</ele>
        <time>2022-03-06T13:54:14.000Z</time>
      </trkpt>
      <trkpt lat="43.65589" lon="4.26934">
        <ele>65.964</ele>
        <time>2022-03-06T13:54:22.000Z</time>
      </trkpt>
      <trkpt lat="43.65584" lon="4.26944">
        <ele>66.238</ele>
        <time>2022-03-06T13:54:29.000Z</time>
      </trkpt>
      <trkpt lat="43.65578" lon="4.26955">
        <ele>67.333</ele>
        <time>2022-03-06T13:54:39.000Z</time>
      </trkpt>
      <trkpt lat="43.65573" lon="4.26966">
        <ele>71.344</ele>
        <time>2022-03-06T13:54:49.000Z</time>
      </trkpt>
      <trkpt lat="43.65568" lon="4.26976">
        <ele>67.149</ele>
        <time>2022-03-06T13:54:56.000Z</time>
      </trkpt>
      <trkpt lat="43.65562" lon="4.26986">
        <ele>66.634</ele>
        <time>2022-03-06T13:55:03.000Z</time>
      </trkpt>
      <trkpt lat="43.65557" lon="4.26997">
        <ele>66.931</ele>
        <time>2022-03-06T13:55:11.000Z</time>
      </trkpt>
      <trkpt lat="43.65551" lon="4.27008">
        <ele>67.735</ele>
        <time>2022-03-06T13:55:19.000Z</time>
      </trkpt>
      <trkpt lat="43.65547" lon="4.2702">
        <ele>67.001</ele>
        <time>2022-03-06T13:55:27.000Z</time>
      </trkpt>
      <trkpt lat="43.65543" lon="4.27032">
        <ele>67.75</ele>
        <time>2022-03-06T13:55:35.000Z</time>
      </trkpt>
      <trkpt lat="43.65538" lon="4.27044">
        <ele>67.46</ele>
        <time>2022-03-06T13:55:44.000Z</time>
      </trkpt>
      <trkpt lat="43.65532" lon="4.27055">
        <ele>66.247</ele>
        <time>2022-03-06T13:55:52.000Z</time>
      </trkpt>
      <trkpt lat="43.65527" lon="4.27065">
        <ele>65.142</ele>
        <time>2022-03-06T13:56:00.000Z</time>
      </trkpt>
      <trkpt lat="43.65521" lon="4.27076">
        <ele>67.293</ele>
        <time>2022-03-06T13:56:09.000Z</time>
      </trkpt>
      <trkpt lat="43.65516" lon="4.27088">
        <ele>66.465</ele>
        <time>2022-03-06T13:56:17.000Z</time>
      </trkpt>
      <trkpt lat="43.65513" lon="4.271">
        <ele>66.572</ele>
        <time>2022-03-06T13:56:27.000Z</time>
      </trkpt>
      <trkpt lat="43.65508" lon="4.27111">
        <ele>69.176</ele>
        <time>2022-03-06T13:56:36.000Z</time>
      </trkpt>
      <trkpt lat="43.65501" lon="4.27121">
        <ele>68.058</ele>
        <time>2022-03-06T13:56:43.000Z</time>
      </trkpt>
      <trkpt lat="43.65496" lon="4.27132">
        <ele>64.829</ele>
        <time>2022-03-06T13:56:51.000Z</time>
      </trkpt>
      <trkpt lat="43.65491" lon="4.27142">
        <ele>66.542</ele>
        <time>2022-03-06T13:56:59.000Z</time>
      </trkpt>
      <trkpt lat="43.65487" lon="4.27155">
        <ele>68.511</ele>
        <time>2022-03-06T13:57:07.000Z</time>
      </trkpt>
      <trkpt lat="43.65482" lon="4.27166">
        <ele>65.199</ele>
        <time>2022-03-06T13:57:15.000Z</time>
      </trkpt>
      <trkpt lat="43.65477" lon="4.27176">
        <ele>65.484</ele>
        <time>2022-03-06T13:57:23.000Z</time>
      </trkpt>
      <trkpt lat="43.65471" lon="4.27186">
        <ele>66.467</ele>
        <time>2022-03-06T13:57:32.000Z</time>
      </trkpt>
      <trkpt lat="43.65466" lon="4.27197">
        <ele>67.967</ele>
        <time>2022-03-06T13:57:40.000Z</time>
      </trkpt>
      <trkpt lat="43.65462" lon="4.27209">
        <ele>68.807</ele>
        <time>2022-03-06T13:57:48.000Z</time>
      </trkpt>
      <trkpt lat="43.65458" lon="4.27221">
        <ele>67.104</ele>
        <time>2022-03-06T13:57:56.000Z</time>
      </trkpt>
      <trkpt lat="43.65453" lon="4.27232">
        <ele>67.809</ele>
        <time>2022-03-06T13:58:05.000Z</time>
      </trkpt>
      <trkpt lat="43.65449" lon="4.27245">
        <ele>68.457</ele>
        <time>2022-03-06T13:58:13.000Z</time>
      </trkpt>
      <trkpt lat="43.65443" lon="4.27256">
        <ele>68.675</ele>
        <time>2022-03-06T13:58:21.000Z</time>
      </trkpt>
      <trkpt lat="43.65438" lon="4.27268">
        <ele>70.019</ele>
        <time>2022-03-06T13:58:29.000Z</time>
      </trkpt>
      <trkpt lat="43.65433" lon="4.27279">
        <ele>68.575</ele>
        <time>2022-03-06T13:58:39.000Z</time>
      </trkpt>
      <trkpt lat="43.65428" lon="4.27289">
        <ele>70.281</ele>
        <time>2022-03-06T13:58:47.000Z</time>
      </trkpt>
      <trkpt lat="43.65421" lon="4.27299">
        <ele>70.414</ele>
        <time>2022-03-06T13:58:55.000Z</time>
      </trkpt>
      <trkpt lat="43.65418" lon="4.27312">
        <ele>70.639</ele>
        <time>2022-03-06T13:59:05.000Z</time>
      </trkpt>
      <trkpt lat="43.65414" lon="4.27324">
        <ele>71.458</ele>
        <time>2022-03-06T13:59:13.000Z</time>
      </trkpt>
      <trkpt lat="43.65409" lon="4.27334">
        <ele>70.401</ele>
        <time>2022-03-06T13:59:20.000Z</time>
      </trkpt>
      <trkpt lat="43.65404" lon="4.27347">
        <ele>70.101</ele>
        <time>2022-03-06T13:59:29.000Z</time>
      </trkpt>
      <trkpt lat="43.65399" lon="4.27358">
        <ele>71.614</ele>
        <time>2022-03-06T13:59:37.000Z</time>
      </trkpt>
      <trkpt lat="43.65393" lon="4.27369">
        <ele>71.111</ele>
        <time>2022-03-06T13:59:46.000Z</time>
      </trkpt>
      <trkpt lat="43.65389" lon="4.27381">
        <ele>70.57</ele>
        <time>2022-03-06T13:59:54.000Z</time>
      </trkpt>
      <trkpt lat="43.65384" lon="4.27393">
        <ele>70.054</ele>
        <time>2022-03-06T14:00:03.000Z</time>
      </trkpt>
      <trkpt lat="43.65382" lon="4.27405">
        <ele>69.099</ele>
        <time>2022-03-06T14:00:13.000Z</time>
      </trkpt>
      <trkpt lat="43.65377" lon="4.27416">
        <ele>71.725</ele>
        <time>2022-03-06T14:00:22.000Z</time>
      </trkpt>
      <trkpt lat="43.65374" lon="4.27428">
        <ele>72.108</ele>
        <time>2022-03-06T14:00:30.000Z</time>
      </trkpt>
      <trkpt lat="43.65368" lon="4.27438">
        <ele>75.233</ele>
        <time>2022-03-06T14:00:40.000Z</time>
      </trkpt>
      <trkpt lat="43.65362" lon="4.27448">
        <ele>71.147</ele>
        <time>2022-03-06T14:00:48.000Z</time>
      </trkpt>
      <trkpt lat="43.65357" lon="4.27459">
        <ele>72.889</ele>
        <time>2022-03-06T14:00:57.000Z</time>
      </trkpt>
      <trkpt lat="43.65355" lon="4.27471">
        <ele>71.866</ele>
        <time>2022-03-06T14:01:06.000Z</time>
      </trkpt>
      <trkpt lat="43.65349" lon="4.27481">
        <ele>72.42</ele>
        <time>2022-03-06T14:01:13.000Z</time>
      </trkpt>
      <trkpt lat="43.65344" lon="4.27492">
        <ele>77.735</ele>
        <time>2022-03-06T14:01:24.000Z</time>
      </trkpt>
      <trkpt lat="43.65341" lon="4.27503">
        <ele>74.746</ele>
        <time>2022-03-06T14:01:33.000Z</time>
      </trkpt>
      <trkpt lat="43.65337" lon="4.27516">
        <ele>74.02</ele>
        <time>2022-03-06T14:01:42.000Z</time>
      </trkpt>
      <trkpt lat="43.65333" lon="4.27527">
        <ele>77.084</ele>
        <time>2022-03-06T14:01:50.000Z</time>
      </trkpt>
      <trkpt lat="43.65328" lon="4.27538">
        <ele>76.714</ele>
        <time>2022-03-06T14:02:01.000Z</time>
      </trkpt>
      <trkpt lat="43.65324" lon="4.27549">
        <ele>78.214</ele>
        <time>2022-03-06T14:02:09.000Z</time>
      </trkpt>
      <trkpt lat="43.65317" lon="4.27559">
        <ele>79.376</ele>
        <time>2022-03-06T14:02:17.000Z</time>
      </trkpt>
      <trkpt lat="43.65313" lon="4.27569">
        <ele>80.958</ele>
        <time>2022-03-06T14:02:26.000Z</time>
      </trkpt>
      <trkpt lat="43.65311" lon="4.27582">
        <ele>79.948</ele>
        <time>2022-03-06T14:02:35.000Z</time>
      </trkpt>
      <trkpt lat="43.65308" lon="4.27594">
        <ele>80.933</ele>
        <time>2022-03-06T14:03:20.000Z</time>
      </trkpt>
      <trkpt lat="43.65301" lon="4.27603">
        <ele>80.448</ele>
        <time>2022-03-06T14:03:32.000Z</time>
      </trkpt>
      <trkpt lat="43.65297" lon="4.27615">
        <ele>80.732</ele>
        <time>2022-03-06T14:03:39.000Z</time>
      </trkpt>
      <trkpt lat="43.65294" lon="4.27628">
        <ele>80.035</ele>
        <time>2022-03-06T14:03:47.000Z</time>
      </trkpt>
      <trkpt lat="43.65288" lon="4.27639">
        <ele>81.82</ele>
        <time>2022-03-06T14:03:55.000Z</time>
      </trkpt>
      <trkpt lat="43.65282" lon="4.27649">
        <ele>83.68</ele>
        <time>2022-03-06T14:04:03.000Z</time>
      </trkpt>
      <trkpt lat="43.65277" lon="4.27659">
        <ele>80.801</ele>
        <time>2022-03-06T14:04:12.000Z</time>
      </trkpt>
      <trkpt lat="43.65271" lon="4.2767">
        <ele>82.043</ele>
        <time>2022-03-06T14:04:20.000Z</time>
      </trkpt>
      <trkpt lat="43.65265" lon="4.2768">
        <ele>81.157</ele>
        <time>2022-03-06T14:04:28.000Z</time>
      </trkpt>
      <trkpt lat="43.6526" lon="4.27691">
        <ele>82.165</ele>
        <time>2022-03-06T14:04:37.000Z</time>
      </trkpt>
      <trkpt lat="43.65255" lon="4.27703">
        <ele>82.225</ele>
        <time>2022-03-06T14:04:46.000Z</time>
      </trkpt>
      <trkpt lat="43.65251" lon="4.27715">
        <ele>81.592</ele>
        <time>2022-03-06T14:04:56.000Z</time>
      </trkpt>
      <trkpt lat="43.65247" lon="4.27727">
        <ele>80.209</ele>
        <time>2022-03-06T14:05:04.000Z</time>
      </trkpt>
      <trkpt lat="43.65243" lon="4.27738">
        <ele>80.227</ele>
        <time>2022-03-06T14:05:13.000Z</time>
      </trkpt>
      <trkpt lat="43.65238" lon="4.27749">
        <ele>81.045</ele>
        <time>2022-03-06T14:05:21.000Z</time>
      </trkpt>
      <trkpt lat="43.65231" lon="4.27759">
        <ele>81.357</ele>
        <time>2022-03-06T14:05:28.000Z</time>
      </trkpt>
      <trkpt lat="43.65226" lon="4.27769">
        <ele>80.295</ele>
        <time>2022-03-06T14:05:36.000Z</time>
      </trkpt>
      <trkpt lat="43.6522" lon="4.2778">
        <ele>79.467</ele>
        <time>2022-03-06T14:05:46.000Z</time>
      </trkpt>
      <trkpt lat="43.65213" lon="4.27788">
        <ele>81.13</ele>
        <time>2022-03-06T14:05:53.000Z</time>
      </trkpt>
      <trkpt lat="43.65209" lon="4.278">
        <ele>80.44</ele>
        <time>2022-03-06T14:06:00.000Z</time>
      </trkpt>
      <trkpt lat="43.65203" lon="4.27809">
        <ele>80.419</ele>
        <time>2022-03-06T14:06:08.000Z</time>
      </trkpt>
      <trkpt lat="43.65198" lon="4.27821">
        <ele>80.955</ele>
        <time>2022-03-06T14:06:18.000Z</time>
      </trkpt>
      <trkpt lat="43.65194" lon="4.27832">
        <ele>82.132</ele>
        <time>2022-03-06T14:06:26.000Z</time>
      </trkpt>
      <trkpt lat="43.65186" lon="4.2784">
        <ele>84.958</ele>
        <time>2022-03-06T14:06:35.000Z</time>
      </trkpt>
      <trkpt lat="43.65181" lon="4.27851">
        <ele>79.782</ele>
        <time>2022-03-06T14:06:44.000Z</time>
      </trkpt>
      <trkpt lat="43.65175" lon="4.27862">
        <ele>81.596</ele>
        <time>2022-03-06T14:06:54.000Z</time>
      </trkpt>
      <trkpt lat="43.6517" lon="4.27873">
        <ele>79.747</ele>
        <time>2022-03-06T14:07:01.000Z</time>
      </trkpt>
      <trkpt lat="43.65165" lon="4.27884">
        <ele>78.935</ele>
        <time>2022-03-06T14:07:09.000Z</time>
      </trkpt>
      <trkpt lat="43.65159" lon="4.27894">
        <ele>79.7</ele>
        <time>2022-03-06T14:07:16.000Z</time>
      </trkpt>
      <trkpt lat="43.65152" lon="4.27903">
        <ele>82.616</ele>
        <time>2022-03-06T14:07:23.000Z</time>
      </trkpt>
      <trkpt lat="43.65146" lon="4.27913">
        <ele>75.792</ele>
        <time>2022-03-06T14:07:32.000Z</time>
      </trkpt>
      <trkpt lat="43.65141" lon="4.27924">
        <ele>78.45</ele>
        <time>2022-03-06T14:07:39.000Z</time>
      </trkpt>
      <trkpt lat="43.65133" lon="4.27933">
        <ele>78.439</ele>
        <time>2022-03-06T14:07:48.000Z</time>
      </trkpt>
      <trkpt lat="43.65129" lon="4.27944">
        <ele>75.998</ele>
        <time>2022-03-06T14:07:55.000Z</time>
      </trkpt>
      <trkpt lat="43.65123" lon="4.27954">
        <ele>79.787</ele>
        <time>2022-03-06T14:08:03.000Z</time>
      </trkpt>
      <trkpt lat="43.65116" lon="4.27965">
        <ele>79.573</ele>
        <time>2022-03-06T14:08:11.000Z</time>
      </trkpt>
      <trkpt lat="43.6511" lon="4.27975">
        <ele>74.958</ele>
        <time>2022-03-06T14:08:19.000Z</time>
      </trkpt>
      <trkpt lat="43.65104" lon="4.27985">
        <ele>74.52</ele>
        <time>2022-03-06T14:08:27.000Z</time>
      </trkpt>
      <trkpt lat="43.65098" lon="4.27995">
        <ele>74.632</ele>
        <time>2022-03-06T14:08:35.000Z</time>
      </trkpt>
      <trkpt lat="43.65092" lon="4.28004">
        <ele>75.359</ele>
        <time>2022-03-06T14:08:44.000Z</time>
      </trkpt>
      <trkpt lat="43.6509" lon="4.28017">
        <ele>70.358</ele>
        <time>2022-03-06T14:08:53.000Z</time>
      </trkpt>
      <trkpt lat="43.65086" lon="4.28029">
        <ele>74.035</ele>
        <time>2022-03-06T14:09:00.000Z</time>
      </trkpt>
      <trkpt lat="43.65082" lon="4.28041">
        <ele>72.916</ele>
        <time>2022-03-06T14:09:06.000Z</time>
      </trkpt>
      <trkpt lat="43.65077" lon="4.28052">
        <ele>72.151</ele>
        <time>2022-03-06T14:09:14.000Z</time>
      </trkpt>
      <trkpt lat="43.65075" lon="4.28064">
        <ele>74.496</ele>
        <time>2022-03-06T14:09:35.000Z</time>
      </trkpt>
      <trkpt lat="43.65069" lon="4.28075">
        <ele>76.024</ele>
        <time>2022-03-06T14:09:42.000Z</time>
      </trkpt>
      <trkpt lat="43.65065" lon="4.28086">
        <ele>75.57</ele>
        <time>2022-03-06T14:09:50.000Z</time>
      </trkpt>
      <trkpt lat="43.65062" lon="4.28099">
        <ele>75.008</ele>
        <time>2022-03-06T14:09:59.000Z</time>
      </trkpt>
      <trkpt lat="43.65059" lon="4.28111">
        <ele>76.808</ele>
        <time>2022-03-06T14:10:09.000Z</time>
      </trkpt>
      <trkpt lat="43.65056" lon="4.28123">
        <ele>77.123</ele>
        <time>2022-03-06T14:10:21.000Z</time>
      </trkpt>
      <trkpt lat="43.65053" lon="4.28135">
        <ele>76.949</ele>
        <time>2022-03-06T14:10:32.000Z</time>
      </trkpt>
      <trkpt lat="43.65048" lon="4.28146">
        <ele>77.981</ele>
        <time>2022-03-06T14:10:41.000Z</time>
      </trkpt>
      <trkpt lat="43.65046" lon="4.28158">
        <ele>77.43</ele>
        <time>2022-03-06T14:10:49.000Z</time>
      </trkpt>
      <trkpt lat="43.65044" lon="4.28172">
        <ele>76.946</ele>
        <time>2022-03-06T14:10:58.000Z</time>
      </trkpt>
      <trkpt lat="43.65039" lon="4.28184">
        <ele>77.422</ele>
        <time>2022-03-06T14:11:06.000Z</time>
      </trkpt>
      <trkpt lat="43.65036" lon="4.28196">
        <ele>78.724</ele>
        <time>2022-03-06T14:11:13.000Z</time>
      </trkpt>
      <trkpt lat="43.65032" lon="4.28208">
        <ele>78.528</ele>
        <time>2022-03-06T14:11:21.000Z</time>
      </trkpt>
      <trkpt lat="43.65031" lon="4.28221">
        <ele>78.211</ele>
        <time>2022-03-06T14:11:30.000Z</time>
      </trkpt>
      <trkpt lat="43.65027" lon="4.28233">
        <ele>78.343</ele>
        <time>2022-03-06T14:11:37.000Z</time>
      </trkpt>
      <trkpt lat="43.65022" lon="4.28244">
        <ele>78.109</ele>
        <time>2022-03-06T14:11:45.000Z</time>
      </trkpt>
      <trkpt lat="43.65017" lon="4.28256">
        <ele>77.993</ele>
        <time>2022-03-06T14:11:53.000Z</time>
      </trkpt>
      <trkpt lat="43.65015" lon="4.28268">
        <ele>77.797</ele>
        <time>2022-03-06T14:12:00.000Z</time>
      </trkpt>
      <trkpt lat="43.65014" lon="4.28281">
        <ele>77.477</ele>
        <time>2022-03-06T14:12:08.000Z</time>
      </trkpt>
      <trkpt lat="43.65008" lon="4.28291">
        <ele>79.397</ele>
        <time>2022-03-06T14:12:16.000Z</time>
      </trkpt>
      <trkpt lat="43.65003" lon="4.28303">
        <ele>77.618</ele>
        <time>2022-03-06T14:12:23.000Z</time>
      </trkpt>
      <trkpt lat="43.65001" lon="4.28315">
        <ele>77.414</ele>
        <time>2022-03-06T14:12:32.000Z</time>
      </trkpt>
      <trkpt lat="43.64999" lon="4.28328">
        <ele>80.175</ele>
        <time>2022-03-06T14:12:40.000Z</time>
      </trkpt>
      <trkpt lat="43.64996" lon="4.28341">
        <ele>76.857</ele>
        <time>2022-03-06T14:12:49.000Z</time>
      </trkpt>
      <trkpt lat="43.64991" lon="4.28352">
        <ele>74.594</ele>
        <time>2022-03-06T14:12:57.000Z</time>
      </trkpt>
      <trkpt lat="43.64989" lon="4.28364">
        <ele>75.1</ele>
        <time>2022-03-06T14:13:04.000Z</time>
      </trkpt>
      <trkpt lat="43.64987" lon="4.28377">
        <ele>74.389</ele>
        <time>2022-03-06T14:13:11.000Z</time>
      </trkpt>
      <trkpt lat="43.64984" lon="4.28389">
        <ele>75.025</ele>
        <time>2022-03-06T14:13:18.000Z</time>
      </trkpt>
      <trkpt lat="43.64982" lon="4.28401">
        <ele>75.39</ele>
        <time>2022-03-06T14:13:26.000Z</time>
      </trkpt>
      <trkpt lat="43.64979" lon="4.28414">
        <ele>75.859</ele>
        <time>2022-03-06T14:13:36.000Z</time>
      </trkpt>
      <trkpt lat="43.64977" lon="4.28426">
        <ele>73.062</ele>
        <time>2022-03-06T14:13:43.000Z</time>
      </trkpt>
      <trkpt lat="43.64975" lon="4.2844">
        <ele>75.413</ele>
        <time>2022-03-06T14:13:52.000Z</time>
      </trkpt>
      <trkpt lat="43.64973" lon="4.28453">
        <ele>72.805</ele>
        <time>2022-03-06T14:14:00.000Z</time>
      </trkpt>
      <trkpt lat="43.64973" lon="4.28466">
        <ele>74.9</ele>
        <time>2022-03-06T14:14:07.000Z</time>
      </trkpt>
      <trkpt lat="43.64969" lon="4.28477">
        <ele>72.21</ele>
        <time>2022-03-06T14:14:14.000Z</time>
      </trkpt>
      <trkpt lat="43.64966" lon="4.28489">
        <ele>71.193</ele>
        <time>2022-03-06T14:14:22.000Z</time>
      </trkpt>
      <trkpt lat="43.64965" lon="4.28502">
        <ele>72.458</ele>
        <time>2022-03-06T14:14:31.000Z</time>
      </trkpt>
      <trkpt lat="43.64964" lon="4.28515">
        <ele>70.686</ele>
        <time>2022-03-06T14:14:41.000Z</time>
      </trkpt>
      <trkpt lat="43.64961" lon="4.28528">
        <ele>71.623</ele>
        <time>2022-03-06T14:14:49.000Z</time>
      </trkpt>
      <trkpt lat="43.64962" lon="4.28541">
        <ele>73.437</ele>
        <time>2022-03-06T14:14:56.000Z</time>
      </trkpt>
      <trkpt lat="43.64961" lon="4.28554">
        <ele>72.509</ele>
        <time>2022-03-06T14:15:04.000Z</time>
      </trkpt>
      <trkpt lat="43.64961" lon="4.28567">
        <ele>72.444</ele>
        <time>2022-03-06T14:15:12.000Z</time>
      </trkpt>
      <trkpt lat="43.64962" lon="4.2858">
        <ele>71.45</ele>
        <time>2022-03-06T14:15:19.000Z</time>
      </trkpt>
      <trkpt lat="43.64962" lon="4.28593">
        <ele>70.359</ele>
        <time>2022-03-06T14:15:27.000Z</time>
      </trkpt>
      <trkpt lat="43.64963" lon="4.28606">
        <ele>71.424</ele>
        <time>2022-03-06T14:15:37.000Z</time>
      </trkpt>
      <trkpt lat="43.64964" lon="4.28619">
        <ele>70.909</ele>
        <time>2022-03-06T14:15:45.000Z</time>
      </trkpt>
      <trkpt lat="43.64962" lon="4.28631">
        <ele>74.099</ele>
        <time>2022-03-06T14:15:58.000Z</time>
      </trkpt>
      <trkpt lat="43.64953" lon="4.28631">
        <ele>73.967</ele>
        <time>2022-03-06T14:16:06.000Z</time>
      </trkpt>
      <trkpt lat="43.64943" lon="4.2863">
        <ele>72.576</ele>
        <time>2022-03-06T14:16:14.000Z</time>
      </trkpt>
      <trkpt lat="43.64934" lon="4.28629">
        <ele>72.226</ele>
        <time>2022-03-06T14:16:23.000Z</time>
      </trkpt>
      <trkpt lat="43.64925" lon="4.28631">
        <ele>72.358</ele>
        <time>2022-03-06T14:16:30.000Z</time>
      </trkpt>
      <trkpt lat="43.64915" lon="4.28633">
        <ele>72.284</ele>
        <time>2022-03-06T14:16:39.000Z</time>
      </trkpt>
      <trkpt lat="43.64907" lon="4.28638">
        <ele>71.883</ele>
        <time>2022-03-06T14:16:49.000Z</time>
      </trkpt>
      <trkpt lat="43.64905" lon="4.28651">
        <ele>71.217</ele>
        <time>2022-03-06T14:16:58.000Z</time>
      </trkpt>
      <trkpt lat="43.64905" lon="4.28663">
        <ele>71.853</ele>
        <time>2022-03-06T14:17:06.000Z</time>
      </trkpt>
      <trkpt lat="43.64908" lon="4.28675">
        <ele>71.324</ele>
        <time>2022-03-06T14:17:13.000Z</time>
      </trkpt>
      <trkpt lat="43.64908" lon="4.28688">
        <ele>73.011</ele>
        <time>2022-03-06T14:17:24.000Z</time>
      </trkpt>
      <trkpt lat="43.64911" lon="4.28701">
        <ele>73.958</ele>
        <time>2022-03-06T14:17:34.000Z</time>
      </trkpt>
      <trkpt lat="43.64913" lon="4.28714">
        <ele>73.556</ele>
        <time>2022-03-06T14:17:43.000Z</time>
      </trkpt>
      <trkpt lat="43.64912" lon="4.28726">
        <ele>72.731</ele>
        <time>2022-03-06T14:17:51.000Z</time>
      </trkpt>
      <trkpt lat="43.64911" lon="4.28739">
        <ele>71.752</ele>
        <time>2022-03-06T14:18:05.000Z</time>
      </trkpt>
      <trkpt lat="43.64909" lon="4.28752">
        <ele>72.843</ele>
        <time>2022-03-06T14:18:12.000Z</time>
      </trkpt>
      <trkpt lat="43.64907" lon="4.28764">
        <ele>75.513</ele>
        <time>2022-03-06T14:18:19.000Z</time>
      </trkpt>
      <trkpt lat="43.64904" lon="4.28778">
        <ele>72.493</ele>
        <time>2022-03-06T14:18:31.000Z</time>
      </trkpt>
      <trkpt lat="43.649" lon="4.28789">
        <ele>73.439</ele>
        <time>2022-03-06T14:18:38.000Z</time>
      </trkpt>
      <trkpt lat="43.64897" lon="4.28802">
        <ele>72.566</ele>
        <time>2022-03-06T14:18:44.000Z</time>
      </trkpt>
      <trkpt lat="43.64894" lon="4.28815">
        <ele>74.38</ele>
        <time>2022-03-06T14:18:52.000Z</time>
      </trkpt>
      <trkpt lat="43.64891" lon="4.28827">
        <ele>71.202</ele>
        <time>2022-03-06T14:19:01.000Z</time>
      </trkpt>
      <trkpt lat="43.64887" lon="4.28839">
        <ele>73.673</ele>
        <time>2022-03-06T14:19:08.000Z</time>
      </trkpt>
      <trkpt lat="43.6488" lon="4.28847">
        <ele>73.383</ele>
        <time>2022-03-06T14:19:13.000Z</time>
      </trkpt>
      <trkpt lat="43.64873" lon="4.28854">
        <ele>72.714</ele>
        <time>2022-03-06T14:19:20.000Z</time>
      </trkpt>
      <trkpt lat="43.64868" lon="4.28865">
        <ele>73.935</ele>
        <time>2022-03-06T14:19:26.000Z</time>
      </trkpt>
      <trkpt lat="43.64863" lon="4.28876">
        <ele>73.896</ele>
        <time>2022-03-06T14:19:33.000Z</time>
      </trkpt>
      <trkpt lat="43.64861" lon="4.28888">
        <ele>72.23</ele>
        <time>2022-03-06T14:19:41.000Z</time>
      </trkpt>
      <trkpt lat="43.64858" lon="4.28901">
        <ele>75.597</ele>
        <time>2022-03-06T14:19:51.000Z</time>
      </trkpt>
      <trkpt lat="43.64852" lon="4.28911">
        <ele>73.346</ele>
        <time>2022-03-06T14:19:59.000Z</time>
      </trkpt>
      <trkpt lat="43.64847" lon="4.28922">
        <ele>70.967</ele>
        <time>2022-03-06T14:20:07.000Z</time>
      </trkpt>
      <trkpt lat="43.64843" lon="4.28934">
        <ele>69.118</ele>
        <time>2022-03-06T14:20:14.000Z</time>
      </trkpt>
      <trkpt lat="43.64838" lon="4.28945">
        <ele>73.369</ele>
        <time>2022-03-06T14:20:23.000Z</time>
      </trkpt>
      <trkpt lat="43.64834" lon="4.28956">
        <ele>71.596</ele>
        <time>2022-03-06T14:20:31.000Z</time>
      </trkpt>
      <trkpt lat="43.6483" lon="4.28967">
        <ele>71.935</ele>
        <time>2022-03-06T14:20:39.000Z</time>
      </trkpt>
      <trkpt lat="43.64825" lon="4.28978">
        <ele>70.233</ele>
        <time>2022-03-06T14:20:51.000Z</time>
      </trkpt>
      <trkpt lat="43.64818" lon="4.28988">
        <ele>69.815</ele>
        <time>2022-03-06T14:20:59.000Z</time>
      </trkpt>
      <trkpt lat="43.6481" lon="4.28994">
        <ele>68.896</ele>
        <time>2022-03-06T14:21:05.000Z</time>
      </trkpt>
      <trkpt lat="43.64805" lon="4.29005">
        <ele>68.671</ele>
        <time>2022-03-06T14:21:14.000Z</time>
      </trkpt>
      <trkpt lat="43.64796" lon="4.2901">
        <ele>68.679</ele>
        <time>2022-03-06T14:21:22.000Z</time>
      </trkpt>
      <trkpt lat="43.64788" lon="4.29015">
        <ele>69.642</ele>
        <time>2022-03-06T14:21:28.000Z</time>
      </trkpt>
      <trkpt lat="43.64781" lon="4.29023">
        <ele>68.955</ele>
        <time>2022-03-06T14:21:36.000Z</time>
      </trkpt>
      <trkpt lat="43.64772" lon="4.29031">
        <ele>69.155</ele>
        <time>2022-03-06T14:21:46.000Z</time>
      </trkpt>
      <trkpt lat="43.64765" lon="4.2904">
        <ele>67.548</ele>
        <time>2022-03-06T14:21:54.000Z</time>
      </trkpt>
      <trkpt lat="43.64759" lon="4.29049">
        <ele>68.253</ele>
        <time>2022-03-06T14:22:01.000Z</time>
      </trkpt>
      <trkpt lat="43.64752" lon="4.29058">
        <ele>67.625</ele>
        <time>2022-03-06T14:22:08.000Z</time>
      </trkpt>
      <trkpt lat="43.64744" lon="4.29065">
        <ele>66.681</ele>
        <time>2022-03-06T14:22:17.000Z</time>
      </trkpt>
      <trkpt lat="43.64737" lon="4.29074">
        <ele>67.395</ele>
        <time>2022-03-06T14:22:25.000Z</time>
      </trkpt>
      <trkpt lat="43.64733" lon="4.29085">
        <ele>65.807</ele>
        <time>2022-03-06T14:22:33.000Z</time>
      </trkpt>
      <trkpt lat="43.64724" lon="4.29091">
        <ele>66.155</ele>
        <time>2022-03-06T14:22:42.000Z</time>
      </trkpt>
      <trkpt lat="43.64714" lon="4.29095">
        <ele>66.281</ele>
        <time>2022-03-06T14:22:49.000Z</time>
      </trkpt>
      <trkpt lat="43.64706" lon="4.29102">
        <ele>69.714</ele>
        <time>2022-03-06T14:22:58.000Z</time>
      </trkpt>
      <trkpt lat="43.64698" lon="4.29108">
        <ele>64.37</ele>
        <time>2022-03-06T14:23:05.000Z</time>
      </trkpt>
      <trkpt lat="43.6469" lon="4.29114">
        <ele>66.14</ele>
        <time>2022-03-06T14:23:13.000Z</time>
      </trkpt>
      <trkpt lat="43.64682" lon="4.29122">
        <ele>65.497</ele>
        <time>2022-03-06T14:23:22.000Z</time>
      </trkpt>
      <trkpt lat="43.64676" lon="4.29132">
        <ele>65.304</ele>
        <time>2022-03-06T14:23:29.000Z</time>
      </trkpt>
      <trkpt lat="43.64669" lon="4.29142">
        <ele>64.417</ele>
        <time>2022-03-06T14:23:37.000Z</time>
      </trkpt>
      <trkpt lat="43.64661" lon="4.29151">
        <ele>63.303</ele>
        <time>2022-03-06T14:23:45.000Z</time>
      </trkpt>
      <trkpt lat="43.64658" lon="4.29164">
        <ele>63.802</ele>
        <time>2022-03-06T14:23:52.000Z</time>
      </trkpt>
      <trkpt lat="43.64654" lon="4.29176">
        <ele>63.558</ele>
        <time>2022-03-06T14:24:01.000Z</time>
      </trkpt>
      <trkpt lat="43.64649" lon="4.29187">
        <ele>64.777</ele>
        <time>2022-03-06T14:24:10.000Z</time>
      </trkpt>
      <trkpt lat="43.64646" lon="4.292">
        <ele>62.635</ele>
        <time>2022-03-06T14:24:17.000Z</time>
      </trkpt>
      <trkpt lat="43.64643" lon="4.29211">
        <ele>63.98</ele>
        <time>2022-03-06T14:24:24.000Z</time>
      </trkpt>
      <trkpt lat="43.6464" lon="4.29224">
        <ele>63.595</ele>
        <time>2022-03-06T14:24:32.000Z</time>
      </trkpt>
      <trkpt lat="43.64636" lon="4.29235">
        <ele>62.665</ele>
        <time>2022-03-06T14:24:42.000Z</time>
      </trkpt>
      <trkpt lat="43.6463" lon="4.29247">
        <ele>60.988</ele>
        <time>2022-03-06T14:24:49.000Z</time>
      </trkpt>
      <trkpt lat="43.64627" lon="4.29259">
        <ele>62.366</ele>
        <time>2022-03-06T14:24:58.000Z</time>
      </trkpt>
      <trkpt lat="43.64625" lon="4.29271">
        <ele>61.644</ele>
        <time>2022-03-06T14:25:05.000Z</time>
      </trkpt>
      <trkpt lat="43.64622" lon="4.29283">
        <ele>61.332</ele>
        <time>2022-03-06T14:25:13.000Z</time>
      </trkpt>
      <trkpt lat="43.6462" lon="4.29296">
        <ele>61.219</ele>
        <time>2022-03-06T14:25:21.000Z</time>
      </trkpt>
      <trkpt lat="43.64615" lon="4.29308">
        <ele>61.817</ele>
        <time>2022-03-06T14:25:29.000Z</time>
      </trkpt>
      <trkpt lat="43.64613" lon="4.29321">
        <ele>61.94</ele>
        <time>2022-03-06T14:25:37.000Z</time>
      </trkpt>
      <trkpt lat="43.64612" lon="4.29334">
        <ele>61.1</ele>
        <time>2022-03-06T14:25:44.000Z</time>
      </trkpt>
      <trkpt lat="43.64612" lon="4.29347">
        <ele>61.1</ele>
        <time>2022-03-06T14:25:54.000Z</time>
      </trkpt>
      <trkpt lat="43.64611" lon="4.2936">
        <ele>61.1</ele>
        <time>2022-03-06T14:26:02.000Z</time>
      </trkpt>
      <trkpt lat="43.6461" lon="4.29373">
        <ele>61.2</ele>
        <time>2022-03-06T14:26:10.000Z</time>
      </trkpt>
      <trkpt lat="43.64613" lon="4.29385">
        <ele>61.2</ele>
        <time>2022-03-06T14:26:19.000Z</time>
      </trkpt>
      <trkpt lat="43.64611" lon="4.29397">
        <ele>61.1</ele>
        <time>2022-03-06T14:26:26.000Z</time>
      </trkpt>
      <trkpt lat="43.6461" lon="4.2941">
        <ele>61.2</ele>
        <time>2022-03-06T14:26:32.000Z</time>
      </trkpt>
      <trkpt lat="43.6461" lon="4.29423">
        <ele>61.2</ele>
        <time>2022-03-06T14:26:42.000Z</time>
      </trkpt>
      <trkpt lat="43.64612" lon="4.29435">
        <ele>61.1</ele>
        <time>2022-03-06T14:26:50.000Z</time>
      </trkpt>
      <trkpt lat="43.64612" lon="4.29448">
        <ele>62.4</ele>
        <time>2022-03-06T14:27:03.000Z</time>
      </trkpt>
      <trkpt lat="43.64612" lon="4.2946">
        <ele>55.8</ele>
        <time>2022-03-06T14:27:11.000Z</time>
      </trkpt>
      <trkpt lat="43.6461" lon="4.29473">
        <ele>61.1</ele>
        <time>2022-03-06T14:27:20.000Z</time>
      </trkpt>
      <trkpt lat="43.64609" lon="4.29486">
        <ele>61.1</ele>
        <time>2022-03-06T14:27:29.000Z</time>
      </trkpt>
      <trkpt lat="43.64604" lon="4.29499">
        <ele>61.1</ele>
        <time>2022-03-06T14:27:36.000Z</time>
      </trkpt>
      <trkpt lat="43.64599" lon="4.2951">
        <ele>59.663</ele>
        <time>2022-03-06T14:27:43.000Z</time>
      </trkpt>
      <trkpt lat="43.64594" lon="4.29522">
        <ele>61.1</ele>
        <time>2022-03-06T14:27:51.000Z</time>
      </trkpt>
      <trkpt lat="43.64591" lon="4.29535">
        <ele>61.1</ele>
        <time>2022-03-06T14:28:01.000Z</time>
      </trkpt>
      <trkpt lat="43.64589" lon="4.29549">
        <ele>59.983</ele>
        <time>2022-03-06T14:28:12.000Z</time>
      </trkpt>
      <trkpt lat="43.64584" lon="4.29561">
        <ele>61.1</ele>
        <time>2022-03-06T14:28:21.000Z</time>
      </trkpt>
      <trkpt lat="43.6458" lon="4.29572">
        <ele>61.1</ele>
        <time>2022-03-06T14:28:28.000Z</time>
      </trkpt>
      <trkpt lat="43.64581" lon="4.29585">
        <ele>60.792</ele>
        <time>2022-03-06T14:28:34.000Z</time>
      </trkpt>
      <trkpt lat="43.64576" lon="4.29595">
        <ele>59.206</ele>
        <time>2022-03-06T14:28:43.000Z</time>
      </trkpt>
      <trkpt lat="43.64566" lon="4.29598">
        <ele>59.816</ele>
        <time>2022-03-06T14:28:53.000Z</time>
      </trkpt>
      <trkpt lat="43.64557" lon="4.29603">
        <ele>60.5</ele>
        <time>2022-03-06T14:29:00.000Z</time>
      </trkpt>
      <trkpt lat="43.64549" lon="4.2961">
        <ele>60.204</ele>
        <time>2022-03-06T14:29:09.000Z</time>
      </trkpt>
      <trkpt lat="43.64541" lon="4.29618">
        <ele>58.4</ele>
        <time>2022-03-06T14:29:20.000Z</time>
      </trkpt>
      <trkpt lat="43.64531" lon="4.29619">
        <ele>58.4</ele>
        <time>2022-03-06T14:29:28.000Z</time>
      </trkpt>
      <trkpt lat="43.64522" lon="4.29623">
        <ele>58.4</ele>
        <time>2022-03-06T14:29:36.000Z</time>
      </trkpt>
      <trkpt lat="43.6451" lon="4.29624">
        <ele>58.4</ele>
        <time>2022-03-06T14:29:44.000Z</time>
      </trkpt>
      <trkpt lat="43.645" lon="4.29624">
        <ele>58.4</ele>
        <time>2022-03-06T14:29:50.000Z</time>
      </trkpt>
      <trkpt lat="43.6449" lon="4.29627">
        <ele>62.17</ele>
        <time>2022-03-06T14:30:00.000Z</time>
      </trkpt>
      <trkpt lat="43.64481" lon="4.29629">
        <ele>58.4</ele>
        <time>2022-03-06T14:30:07.000Z</time>
      </trkpt>
      <trkpt lat="43.64472" lon="4.2963">
        <ele>56.6</ele>
        <time>2022-03-06T14:30:14.000Z</time>
      </trkpt>
      <trkpt lat="43.64463" lon="4.29634">
        <ele>56.6</ele>
        <time>2022-03-06T14:30:23.000Z</time>
      </trkpt>
      <trkpt lat="43.64454" lon="4.29637">
        <ele>58.4</ele>
        <time>2022-03-06T14:30:30.000Z</time>
      </trkpt>
      <trkpt lat="43.64444" lon="4.29639">
        <ele>58.4</ele>
        <time>2022-03-06T14:30:39.000Z</time>
      </trkpt>
      <trkpt lat="43.64434" lon="4.29642">
        <ele>56.6</ele>
        <time>2022-03-06T14:30:47.000Z</time>
      </trkpt>
      <trkpt lat="43.64425" lon="4.29642">
        <ele>56.6</ele>
        <time>2022-03-06T14:30:53.000Z</time>
      </trkpt>
      <trkpt lat="43.64415" lon="4.29644">
        <ele>55.5</ele>
        <time>2022-03-06T14:31:01.000Z</time>
      </trkpt>
      <trkpt lat="43.64406" lon="4.29644">
        <ele>55.5</ele>
        <time>2022-03-06T14:31:09.000Z</time>
      </trkpt>
      <trkpt lat="43.64397" lon="4.2965">
        <ele>56.6</ele>
        <time>2022-03-06T14:31:18.000Z</time>
      </trkpt>
      <trkpt lat="43.64388" lon="4.29652">
        <ele>56.6</ele>
        <time>2022-03-06T14:31:27.000Z</time>
      </trkpt>
      <trkpt lat="43.64381" lon="4.29662">
        <ele>56.6</ele>
        <time>2022-03-06T14:31:36.000Z</time>
      </trkpt>
      <trkpt lat="43.64373" lon="4.29657">
        <ele>56.6</ele>
        <time>2022-03-06T14:31:43.000Z</time>
      </trkpt>
      <trkpt lat="43.64369" lon="4.29669">
        <ele>56.6</ele>
        <time>2022-03-06T14:31:52.000Z</time>
      </trkpt>
      <trkpt lat="43.64361" lon="4.29677">
        <ele>55.5</ele>
        <time>2022-03-06T14:32:00.000Z</time>
      </trkpt>
      <trkpt lat="43.64351" lon="4.29676">
        <ele>56.6</ele>
        <time>2022-03-06T14:32:06.000Z</time>
      </trkpt>
      <trkpt lat="43.64342" lon="4.29672">
        <ele>57.6</ele>
        <time>2022-03-06T14:32:14.000Z</time>
      </trkpt>
      <trkpt lat="43.64333" lon="4.29672">
        <ele>57.8</ele>
        <time>2022-03-06T14:32:23.000Z</time>
      </trkpt>
      <trkpt lat="43.64323" lon="4.29673">
        <ele>57.6</ele>
        <time>2022-03-06T14:32:31.000Z</time>
      </trkpt>
      <trkpt lat="43.64315" lon="4.29665">
        <ele>57.2</ele>
        <time>2022-03-06T14:32:40.000Z</time>
      </trkpt>
      <trkpt lat="43.64306" lon="4.29666">
        <ele>56.8</ele>
        <time>2022-03-06T14:32:47.000Z</time>
      </trkpt>
      <trkpt lat="43.64297" lon="4.29671">
        <ele>57.2</ele>
        <time>2022-03-06T14:32:57.000Z</time>
      </trkpt>
      <trkpt lat="43.64293" lon="4.29683">
        <ele>57.2</ele>
        <time>2022-03-06T14:33:05.000Z</time>
      </trkpt>
      <trkpt lat="43.64284" lon="4.29685">
        <ele>57.2</ele>
        <time>2022-03-06T14:33:14.000Z</time>
      </trkpt>
      <trkpt lat="43.64276" lon="4.2969">
        <ele>56.3</ele>
        <time>2022-03-06T14:33:22.000Z</time>
      </trkpt>
      <trkpt lat="43.64267" lon="4.29697">
        <ele>59.427</ele>
        <time>2022-03-06T14:33:31.000Z</time>
      </trkpt>
      <trkpt lat="43.64258" lon="4.29694">
        <ele>54.085</ele>
        <time>2022-03-06T14:33:36.000Z</time>
      </trkpt>
      <trkpt lat="43.64249" lon="4.297">
        <ele>57.2</ele>
        <time>2022-03-06T14:33:46.000Z</time>
      </trkpt>
      <trkpt lat="43.64239" lon="4.297">
        <ele>56.4</ele>
        <time>2022-03-06T14:33:56.000Z</time>
      </trkpt>
      <trkpt lat="43.64231" lon="4.29697">
        <ele>53.989</ele>
        <time>2022-03-06T14:34:03.000Z</time>
      </trkpt>
      <trkpt lat="43.64221" lon="4.297">
        <ele>56</ele>
        <time>2022-03-06T14:34:11.000Z</time>
      </trkpt>
      <trkpt lat="43.64214" lon="4.29709">
        <ele>56</ele>
        <time>2022-03-06T14:34:17.000Z</time>
      </trkpt>
      <trkpt lat="43.64206" lon="4.29717">
        <ele>56.4</ele>
        <time>2022-03-06T14:34:25.000Z</time>
      </trkpt>
      <trkpt lat="43.64203" lon="4.29729">
        <ele>55.9</ele>
        <time>2022-03-06T14:34:35.000Z</time>
      </trkpt>
      <trkpt lat="43.64204" lon="4.29742">
        <ele>55.3</ele>
        <time>2022-03-06T14:34:43.000Z</time>
      </trkpt>
      <trkpt lat="43.64204" lon="4.29755">
        <ele>55.3</ele>
        <time>2022-03-06T14:34:52.000Z</time>
      </trkpt>
      <trkpt lat="43.64202" lon="4.29767">
        <ele>55.2</ele>
        <time>2022-03-06T14:35:00.000Z</time>
      </trkpt>
      <trkpt lat="43.64193" lon="4.29771">
        <ele>55.3</ele>
        <time>2022-03-06T14:35:09.000Z</time>
      </trkpt>
      <trkpt lat="43.64183" lon="4.29769">
        <ele>55.5</ele>
        <time>2022-03-06T14:35:16.000Z</time>
      </trkpt>
      <trkpt lat="43.64175" lon="4.29764">
        <ele>55</ele>
        <time>2022-03-06T14:35:23.000Z</time>
      </trkpt>
      <trkpt lat="43.64165" lon="4.29764">
        <ele>55</ele>
        <time>2022-03-06T14:35:30.000Z</time>
      </trkpt>
      <trkpt lat="43.64156" lon="4.29769">
        <ele>55</ele>
        <time>2022-03-06T14:35:37.000Z</time>
      </trkpt>
      <trkpt lat="43.6415" lon="4.29779">
        <ele>55</ele>
        <time>2022-03-06T14:35:48.000Z</time>
      </trkpt>
      <trkpt lat="43.64141" lon="4.29776">
        <ele>55</ele>
        <time>2022-03-06T14:35:57.000Z</time>
      </trkpt>
      <trkpt lat="43.64131" lon="4.29773">
        <ele>55</ele>
        <time>2022-03-06T14:36:05.000Z</time>
      </trkpt>
      <trkpt lat="43.64121" lon="4.29771">
        <ele>55.6</ele>
        <time>2022-03-06T14:36:13.000Z</time>
      </trkpt>
      <trkpt lat="43.64112" lon="4.29768">
        <ele>54.9</ele>
        <time>2022-03-06T14:36:20.000Z</time>
      </trkpt>
      <trkpt lat="43.64103" lon="4.29773">
        <ele>55</ele>
        <time>2022-03-06T14:36:28.000Z</time>
      </trkpt>
      <trkpt lat="43.64096" lon="4.29781">
        <ele>54.7</ele>
        <time>2022-03-06T14:36:36.000Z</time>
      </trkpt>
      <trkpt lat="43.64086" lon="4.29783">
        <ele>54.8</ele>
        <time>2022-03-06T14:36:46.000Z</time>
      </trkpt>
      <trkpt lat="43.64077" lon="4.29784">
        <ele>54.9</ele>
        <time>2022-03-06T14:36:55.000Z</time>
      </trkpt>
      <trkpt lat="43.64068" lon="4.29789">
        <ele>52.662</ele>
        <time>2022-03-06T14:37:04.000Z</time>
      </trkpt>
      <trkpt lat="43.64058" lon="4.2979">
        <ele>54.4</ele>
        <time>2022-03-06T14:37:13.000Z</time>
      </trkpt>
      <trkpt lat="43.64048" lon="4.29792">
        <ele>54.4</ele>
        <time>2022-03-06T14:37:20.000Z</time>
      </trkpt>
      <trkpt lat="43.64039" lon="4.29792">
        <ele>54.4</ele>
        <time>2022-03-06T14:37:27.000Z</time>
      </trkpt>
      <trkpt lat="43.6403" lon="4.29793">
        <ele>56.04</ele>
        <time>2022-03-06T14:37:37.000Z</time>
      </trkpt>
      <trkpt lat="43.64021" lon="4.29796">
        <ele>52.363</ele>
        <time>2022-03-06T14:37:45.000Z</time>
      </trkpt>
      <trkpt lat="43.64012" lon="4.29796">
        <ele>54.4</ele>
        <time>2022-03-06T14:37:52.000Z</time>
      </trkpt>
      <trkpt lat="43.64002" lon="4.29797">
        <ele>54.5</ele>
        <time>2022-03-06T14:38:03.000Z</time>
      </trkpt>
      <trkpt lat="43.63992" lon="4.29796">
        <ele>54.5</ele>
        <time>2022-03-06T14:38:11.000Z</time>
      </trkpt>
      <trkpt lat="43.63983" lon="4.29796">
        <ele>54.5</ele>
        <time>2022-03-06T14:38:22.000Z</time>
      </trkpt>
      <trkpt lat="43.63974" lon="4.29798">
        <ele>54.5</ele>
        <time>2022-03-06T14:38:31.000Z</time>
      </trkpt>
      <trkpt lat="43.63965" lon="4.29804">
        <ele>54.5</ele>
        <time>2022-03-06T14:38:40.000Z</time>
      </trkpt>
      <trkpt lat="43.63956" lon="4.29809">
        <ele>54.5</ele>
        <time>2022-03-06T14:38:50.000Z</time>
      </trkpt>
    </trkseg>
  </trk>
</gpx>